<?xml version='1.0' encoding='UTF-8'?><gpx version="1.1" creator="JPX - https://github.com/jenetics/jpx" xmlns="http://www.topografix.com/GPX/1/1"><trk><trkseg><trkpt lat="45.3891944" lon="10.7983789"><ele>107.00000000000001</ele><time>2026-03-24T16:35:58.587Z</time></trkpt><trkpt lat="45.3891747" lon="10.7982685"><ele>107.0</ele><time>2026-03-24T16:36:00.627Z</time></trkpt><trkpt lat="45.3891734" lon="10.7981746"><ele>107.0</ele><time>2026-03-24T16:36:14.639Z</time></trkpt><trkpt lat="45.3891916" lon="10.798083"><ele>107.0</ele><time>2026-03-24T16:36:19.595Z</time></trkpt><trkpt lat="45.389175" lon="10.798183"><ele>107.0</ele><time>2026-03-24T16:37:47.591Z</time></trkpt><trkpt lat="45.3892259" lon="10.7982483"><ele>107.00000000000001</ele><time>2026-03-24T16:37:52.591Z</time></trkpt><trkpt lat="45.3892963" lon="10.7982836"><ele>107.0</ele><time>2026-03-24T16:38:25.603Z</time></trkpt><trkpt lat="45.3893735" lon="10.7983244"><ele>107.0</ele><time>2026-03-24T16:38:27.603Z</time></trkpt><trkpt lat="45.3894477" lon="10.798388"><ele>106.99999999999999</ele><time>2026-03-24T16:38:29.593Z</time></trkpt><trkpt lat="45.3895223" lon="10.7984607"><ele>106.99999999999999</ele><time>2026-03-24T16:38:31.594Z</time></trkpt><trkpt lat="45.3895537" lon="10.7985804"><ele>107.0</ele><time>2026-03-24T16:38:34.638Z</time></trkpt><trkpt lat="45.3895261" lon="10.7986809"><ele>107.0</ele><time>2026-03-24T16:38:35.664Z</time></trkpt><trkpt lat="45.389489" lon="10.7988502"><ele>107.8</ele><time>2026-03-24T16:38:37.592Z</time></trkpt><trkpt lat="45.3894361" lon="10.7989906"><ele>108.6</ele><time>2026-03-24T16:38:39.592Z</time></trkpt><trkpt lat="45.389401" lon="10.7991151"><ele>109.39999999999999</ele><time>2026-03-24T16:38:41.602Z</time></trkpt><trkpt lat="45.3893629" lon="10.7992024"><ele>110.19999999999999</ele><time>2026-03-24T16:38:44.598Z</time></trkpt><trkpt lat="45.3892897" lon="10.7991808"><ele>111.0</ele><time>2026-03-24T16:38:46.602Z</time></trkpt><trkpt lat="45.3891718" lon="10.7991061"><ele>111.0</ele><time>2026-03-24T16:38:48.612Z</time></trkpt><trkpt lat="45.3891063" lon="10.7990644"><ele>111.0</ele><time>2026-03-24T16:38:49.59Z</time></trkpt><trkpt lat="45.3890374" lon="10.7990224"><ele>111.0</ele><time>2026-03-24T16:38:50.598Z</time></trkpt><trkpt lat="45.3889642" lon="10.7989844"><ele>111.0</ele><time>2026-03-24T16:38:51.606Z</time></trkpt><trkpt lat="45.3888894" lon="10.7989491"><ele>111.0</ele><time>2026-03-24T16:38:52.602Z</time></trkpt><trkpt lat="45.3888131" lon="10.7989149"><ele>111.0</ele><time>2026-03-24T16:38:53.606Z</time></trkpt><trkpt lat="45.3887385" lon="10.7988809"><ele>112.0</ele><time>2026-03-24T16:38:54.597Z</time></trkpt><trkpt lat="45.3886652" lon="10.7988464"><ele>113.0</ele><time>2026-03-24T16:38:55.613Z</time></trkpt><trkpt lat="45.3885968" lon="10.7988077"><ele>114.0</ele><time>2026-03-24T16:38:56.603Z</time></trkpt><trkpt lat="45.3885311" lon="10.79876"><ele>115.0</ele><time>2026-03-24T16:38:57.616Z</time></trkpt><trkpt lat="45.3884677" lon="10.7987048"><ele>116.0</ele><time>2026-03-24T16:38:58.594Z</time></trkpt><trkpt lat="45.3884049" lon="10.7986371"><ele>117.0</ele><time>2026-03-24T16:38:59.601Z</time></trkpt><trkpt lat="45.3883487" lon="10.7985543"><ele>116.33333333333333</ele><time>2026-03-24T16:39:00.593Z</time></trkpt><trkpt lat="45.3882993" lon="10.7984569"><ele>115.66666666666666</ele><time>2026-03-24T16:39:01.595Z</time></trkpt><trkpt lat="45.3882533" lon="10.7983531"><ele>115.0</ele><time>2026-03-24T16:39:02.607Z</time></trkpt><trkpt lat="45.3882039" lon="10.7982511"><ele>114.33333333333333</ele><time>2026-03-24T16:39:03.594Z</time></trkpt><trkpt lat="45.388153" lon="10.7981454"><ele>113.66666666666666</ele><time>2026-03-24T16:39:04.601Z</time></trkpt><trkpt lat="45.3880998" lon="10.7980406"><ele>113.0</ele><time>2026-03-24T16:39:05.596Z</time></trkpt><trkpt lat="45.3880443" lon="10.7979379"><ele>114.60000000000001</ele><time>2026-03-24T16:39:06.599Z</time></trkpt><trkpt lat="45.3879856" lon="10.7978347"><ele>116.20000000000002</ele><time>2026-03-24T16:39:07.594Z</time></trkpt><trkpt lat="45.3879226" lon="10.7977266"><ele>117.8</ele><time>2026-03-24T16:39:08.607Z</time></trkpt><trkpt lat="45.3878591" lon="10.7976173"><ele>119.4</ele><time>2026-03-24T16:39:09.596Z</time></trkpt><trkpt lat="45.3877964" lon="10.7975059"><ele>121.0</ele><time>2026-03-24T16:39:10.602Z</time></trkpt><trkpt lat="45.3877357" lon="10.797396"><ele>121.00000000000001</ele><time>2026-03-24T16:39:11.595Z</time></trkpt><trkpt lat="45.3876747" lon="10.7972887"><ele>121.0</ele><time>2026-03-24T16:39:12.593Z</time></trkpt><trkpt lat="45.3876148" lon="10.7971846"><ele>121.0</ele><time>2026-03-24T16:39:13.597Z</time></trkpt><trkpt lat="45.3875584" lon="10.7970852"><ele>121.0</ele><time>2026-03-24T16:39:14.59Z</time></trkpt><trkpt lat="45.3875054" lon="10.7969905"><ele>121.00000000000001</ele><time>2026-03-24T16:39:15.605Z</time></trkpt><trkpt lat="45.3874552" lon="10.7969016"><ele>121.0</ele><time>2026-03-24T16:39:16.594Z</time></trkpt><trkpt lat="45.3874052" lon="10.7968172"><ele>120.28571428571428</ele><time>2026-03-24T16:39:17.589Z</time></trkpt><trkpt lat="45.387353" lon="10.7967462"><ele>119.57142857142856</ele><time>2026-03-24T16:39:18.599Z</time></trkpt><trkpt lat="45.3873024" lon="10.7966865"><ele>118.85714285714286</ele><time>2026-03-24T16:39:19.593Z</time></trkpt><trkpt lat="45.3872383" lon="10.7966924"><ele>118.14285714285714</ele><time>2026-03-24T16:39:20.593Z</time></trkpt><trkpt lat="45.3871761" lon="10.7967264"><ele>117.42857142857143</ele><time>2026-03-24T16:39:21.59Z</time></trkpt><trkpt lat="45.3871256" lon="10.7968065"><ele>116.71428571428572</ele><time>2026-03-24T16:39:22.6Z</time></trkpt><trkpt lat="45.3870906" lon="10.796917"><ele>116.00000000000001</ele><time>2026-03-24T16:39:23.599Z</time></trkpt><trkpt lat="45.3870604" lon="10.7970391"><ele>118.16666666666666</ele><time>2026-03-24T16:39:24.592Z</time></trkpt><trkpt lat="45.3870288" lon="10.797158"><ele>120.33333333333333</ele><time>2026-03-24T16:39:25.591Z</time></trkpt><trkpt lat="45.3869945" lon="10.7972705"><ele>122.5</ele><time>2026-03-24T16:39:26.588Z</time></trkpt><trkpt lat="45.3869588" lon="10.7973787"><ele>124.66666666666666</ele><time>2026-03-24T16:39:27.598Z</time></trkpt><trkpt lat="45.3869142" lon="10.7974743"><ele>126.83333333333333</ele><time>2026-03-24T16:39:28.594Z</time></trkpt><trkpt lat="45.3868693" lon="10.7975597"><ele>129.0</ele><time>2026-03-24T16:39:29.593Z</time></trkpt><trkpt lat="45.3868251" lon="10.7976307"><ele>128.8</ele><time>2026-03-24T16:39:30.598Z</time></trkpt><trkpt lat="45.3867324" lon="10.7976959"><ele>128.60000000000002</ele><time>2026-03-24T16:39:32.599Z</time></trkpt><trkpt lat="45.3866363" lon="10.7977344"><ele>128.4</ele><time>2026-03-24T16:39:34.598Z</time></trkpt><trkpt lat="45.3865364" lon="10.7977752"><ele>128.20000000000002</ele><time>2026-03-24T16:39:36.59Z</time></trkpt><trkpt lat="45.3864401" lon="10.7978114"><ele>128.0</ele><time>2026-03-24T16:39:38.59Z</time></trkpt><trkpt lat="45.386367" lon="10.7979104"><ele>129.8</ele><time>2026-03-24T16:39:40.594Z</time></trkpt><trkpt lat="45.386303" lon="10.7980204"><ele>131.60000000000002</ele><time>2026-03-24T16:39:42.585Z</time></trkpt><trkpt lat="45.3862412" lon="10.7981303"><ele>133.39999999999998</ele><time>2026-03-24T16:39:44.591Z</time></trkpt><trkpt lat="45.3861788" lon="10.7982463"><ele>135.2</ele><time>2026-03-24T16:39:46.593Z</time></trkpt><trkpt lat="45.3861128" lon="10.7983403"><ele>137.0</ele><time>2026-03-24T16:39:48.586Z</time></trkpt><trkpt lat="45.3860609" lon="10.7984127"><ele>136.4</ele><time>2026-03-24T16:39:50.601Z</time></trkpt><trkpt lat="45.386062" lon="10.7985238"><ele>135.79999999999998</ele><time>2026-03-24T16:39:52.594Z</time></trkpt><trkpt lat="45.3861279" lon="10.7986392"><ele>135.2</ele><time>2026-03-24T16:39:54.595Z</time></trkpt><trkpt lat="45.3862035" lon="10.7987565"><ele>134.6</ele><time>2026-03-24T16:39:56.599Z</time></trkpt><trkpt lat="45.3862708" lon="10.7988692"><ele>134.0</ele><time>2026-03-24T16:39:58.604Z</time></trkpt><trkpt lat="45.3863306" lon="10.7989617"><ele>134.0</ele><time>2026-03-24T16:40:00.614Z</time></trkpt><trkpt lat="45.3863503" lon="10.7990565"><ele>134.0</ele><time>2026-03-24T16:40:03.662Z</time></trkpt><trkpt lat="45.3863294" lon="10.7991519"><ele>134.0</ele><time>2026-03-24T16:40:04.598Z</time></trkpt><trkpt lat="45.386283" lon="10.7992681"><ele>134.0</ele><time>2026-03-24T16:40:06.595Z</time></trkpt><trkpt lat="45.3862194" lon="10.7993592"><ele>134.0</ele><time>2026-03-24T16:40:08.593Z</time></trkpt><trkpt lat="45.3861346" lon="10.7994579"><ele>134.0</ele><time>2026-03-24T16:40:10.597Z</time></trkpt><trkpt lat="45.3860533" lon="10.7995637"><ele>134.5</ele><time>2026-03-24T16:40:12.602Z</time></trkpt><trkpt lat="45.3859789" lon="10.799673"><ele>135.0</ele><time>2026-03-24T16:40:14.59Z</time></trkpt><trkpt lat="45.3859087" lon="10.7997849"><ele>135.5</ele><time>2026-03-24T16:40:16.604Z</time></trkpt><trkpt lat="45.3858226" lon="10.799909"><ele>136.0</ele><time>2026-03-24T16:40:18.607Z</time></trkpt><trkpt lat="45.3857372" lon="10.8000377"><ele>136.0</ele><time>2026-03-24T16:40:20.602Z</time></trkpt><trkpt lat="45.3856978" lon="10.8001122"><ele>136.0</ele><time>2026-03-24T16:40:21.601Z</time></trkpt><trkpt lat="45.3856663" lon="10.8001936"><ele>136.0</ele><time>2026-03-24T16:40:22.597Z</time></trkpt><trkpt lat="45.3856407" lon="10.8002792"><ele>136.0</ele><time>2026-03-24T16:40:23.608Z</time></trkpt><trkpt lat="45.3856084" lon="10.800447"><ele>136.0</ele><time>2026-03-24T16:40:25.598Z</time></trkpt><trkpt lat="45.3855854" lon="10.8006019"><ele>136.0</ele><time>2026-03-24T16:40:27.597Z</time></trkpt><trkpt lat="45.3855537" lon="10.8007402"><ele>136.83333333333334</ele><time>2026-03-24T16:40:29.595Z</time></trkpt><trkpt lat="45.3854832" lon="10.8008768"><ele>137.66666666666669</ele><time>2026-03-24T16:40:31.588Z</time></trkpt><trkpt lat="45.3854368" lon="10.8009581"><ele>138.5</ele><time>2026-03-24T16:40:32.593Z</time></trkpt><trkpt lat="45.3853928" lon="10.8010495"><ele>139.33333333333334</ele><time>2026-03-24T16:40:33.591Z</time></trkpt><trkpt lat="45.3853519" lon="10.8011524"><ele>140.16666666666666</ele><time>2026-03-24T16:40:34.596Z</time></trkpt><trkpt lat="45.3853103" lon="10.8012602"><ele>141.0</ele><time>2026-03-24T16:40:35.597Z</time></trkpt><trkpt lat="45.3852664" lon="10.8013595"><ele>141.0</ele><time>2026-03-24T16:40:36.597Z</time></trkpt><trkpt lat="45.3852255" lon="10.8014566"><ele>141.0</ele><time>2026-03-24T16:40:37.601Z</time></trkpt><trkpt lat="45.3851901" lon="10.8015584"><ele>141.0</ele><time>2026-03-24T16:40:38.594Z</time></trkpt><trkpt lat="45.3851564" lon="10.8016631"><ele>141.0</ele><time>2026-03-24T16:40:39.609Z</time></trkpt><trkpt lat="45.3851224" lon="10.801762"><ele>141.0</ele><time>2026-03-24T16:40:40.6Z</time></trkpt><trkpt lat="45.3850889" lon="10.8018535"><ele>141.0</ele><time>2026-03-24T16:40:41.598Z</time></trkpt><trkpt lat="45.3850558" lon="10.8019363"><ele>139.8</ele><time>2026-03-24T16:40:42.595Z</time></trkpt><trkpt lat="45.3849948" lon="10.8020767"><ele>138.6</ele><time>2026-03-24T16:40:44.595Z</time></trkpt><trkpt lat="45.3849354" lon="10.8021984"><ele>137.4</ele><time>2026-03-24T16:40:46.596Z</time></trkpt><trkpt lat="45.3848633" lon="10.8023141"><ele>136.2</ele><time>2026-03-24T16:40:48.597Z</time></trkpt><trkpt lat="45.3847786" lon="10.8024251"><ele>135.0</ele><time>2026-03-24T16:40:50.591Z</time></trkpt><trkpt lat="45.38468" lon="10.8025424"><ele>134.66666666666666</ele><time>2026-03-24T16:40:52.596Z</time></trkpt><trkpt lat="45.3846298" lon="10.8026073"><ele>134.33333333333334</ele><time>2026-03-24T16:40:53.592Z</time></trkpt><trkpt lat="45.3845848" lon="10.8026817"><ele>134.0</ele><time>2026-03-24T16:40:54.59Z</time></trkpt><trkpt lat="45.3845472" lon="10.8027649"><ele>133.66666666666669</ele><time>2026-03-24T16:40:55.607Z</time></trkpt><trkpt lat="45.3845168" lon="10.802849"><ele>133.33333333333334</ele><time>2026-03-24T16:40:56.597Z</time></trkpt><trkpt lat="45.3844723" lon="10.8029822"><ele>133.0</ele><time>2026-03-24T16:40:58.598Z</time></trkpt><trkpt lat="45.3844392" lon="10.8030809"><ele>132.33333333333334</ele><time>2026-03-24T16:41:00.592Z</time></trkpt><trkpt lat="45.384406" lon="10.8031856"><ele>131.66666666666669</ele><time>2026-03-24T16:41:02.597Z</time></trkpt><trkpt lat="45.3843729" lon="10.8032936"><ele>131.0</ele><time>2026-03-24T16:41:04.592Z</time></trkpt><trkpt lat="45.3843444" lon="10.803387"><ele>130.33333333333334</ele><time>2026-03-24T16:41:07.68Z</time></trkpt><trkpt lat="45.38431" lon="10.8034873"><ele>129.66666666666666</ele><time>2026-03-24T16:41:09.495Z</time></trkpt><trkpt lat="45.384339" lon="10.8036703"><ele>129.0</ele><time>2026-03-24T16:41:11.588Z</time></trkpt><trkpt lat="45.3843242" lon="10.8038177"><ele>128.8</ele><time>2026-03-24T16:41:13.586Z</time></trkpt><trkpt lat="45.3842712" lon="10.8039461"><ele>128.60000000000002</ele><time>2026-03-24T16:41:15.585Z</time></trkpt><trkpt lat="45.3842233" lon="10.8040983"><ele>128.4</ele><time>2026-03-24T16:41:17.591Z</time></trkpt><trkpt lat="45.3841771" lon="10.8042391"><ele>128.20000000000002</ele><time>2026-03-24T16:41:19.595Z</time></trkpt><trkpt lat="45.3841374" lon="10.8043811"><ele>128.0</ele><time>2026-03-24T16:41:21.584Z</time></trkpt><trkpt lat="45.3840845" lon="10.8045114"><ele>127.66666666666666</ele><time>2026-03-24T16:41:23.593Z</time></trkpt><trkpt lat="45.3840381" lon="10.8046191"><ele>127.33333333333333</ele><time>2026-03-24T16:41:25.602Z</time></trkpt><trkpt lat="45.3839918" lon="10.8047182"><ele>127.0</ele><time>2026-03-24T16:41:27.602Z</time></trkpt><trkpt lat="45.3839462" lon="10.8048105"><ele>126.66666666666666</ele><time>2026-03-24T16:41:29.596Z</time></trkpt><trkpt lat="45.3839431" lon="10.8049059"><ele>126.33333333333333</ele><time>2026-03-24T16:41:32.627Z</time></trkpt><trkpt lat="45.3840062" lon="10.8049613"><ele>126.0</ele><time>2026-03-24T16:41:33.603Z</time></trkpt><trkpt lat="45.3840696" lon="10.8050197"><ele>126.0</ele><time>2026-03-24T16:41:34.591Z</time></trkpt><trkpt lat="45.3841369" lon="10.805083"><ele>126.0</ele><time>2026-03-24T16:41:35.594Z</time></trkpt><trkpt lat="45.3842068" lon="10.8051513"><ele>126.0</ele><time>2026-03-24T16:41:36.591Z</time></trkpt><trkpt lat="45.3842759" lon="10.8052187"><ele>126.0</ele><time>2026-03-24T16:41:37.587Z</time></trkpt><trkpt lat="45.3843426" lon="10.8052835"><ele>126.0</ele><time>2026-03-24T16:41:38.595Z</time></trkpt><trkpt lat="45.3844081" lon="10.8053453"><ele>126.0</ele><time>2026-03-24T16:41:39.593Z</time></trkpt><trkpt lat="45.384472" lon="10.8054061"><ele>125.5</ele><time>2026-03-24T16:41:40.602Z</time></trkpt><trkpt lat="45.3845316" lon="10.805465"><ele>125.0</ele><time>2026-03-24T16:41:41.592Z</time></trkpt><trkpt lat="45.3845859" lon="10.8055201"><ele>124.5</ele><time>2026-03-24T16:41:42.597Z</time></trkpt><trkpt lat="45.3846762" lon="10.8056088"><ele>124.0</ele><time>2026-03-24T16:41:44.607Z</time></trkpt><trkpt lat="45.38474" lon="10.8056704"><ele>123.5</ele><time>2026-03-24T16:41:46.607Z</time></trkpt><trkpt lat="45.384766" lon="10.805803"><ele>123.0</ele><time>2026-03-24T16:41:49.604Z</time></trkpt><trkpt lat="45.3847122" lon="10.8059222"><ele>122.0</ele><time>2026-03-24T16:41:51.598Z</time></trkpt><trkpt lat="45.3846553" lon="10.8060441"><ele>121.00000000000001</ele><time>2026-03-24T16:41:53.605Z</time></trkpt><trkpt lat="45.3846062" lon="10.8061693"><ele>120.00000000000001</ele><time>2026-03-24T16:41:55.599Z</time></trkpt><trkpt lat="45.3845583" lon="10.8062893"><ele>119.0</ele><time>2026-03-24T16:41:57.597Z</time></trkpt><trkpt lat="45.3844928" lon="10.8063732"><ele>118.0</ele><time>2026-03-24T16:41:59.59Z</time></trkpt><trkpt lat="45.3844042" lon="10.8063355"><ele>118.0</ele><time>2026-03-24T16:42:02.603Z</time></trkpt><trkpt lat="45.3843171" lon="10.806357"><ele>118.00000000000001</ele><time>2026-03-24T16:42:04.6Z</time></trkpt><trkpt lat="45.384284" lon="10.8064709"><ele>118.00000000000001</ele><time>2026-03-24T16:42:06.603Z</time></trkpt><trkpt lat="45.3842317" lon="10.8066228"><ele>118.0</ele><time>2026-03-24T16:42:08.613Z</time></trkpt><trkpt lat="45.3841773" lon="10.8067643"><ele>118.0</ele><time>2026-03-24T16:42:10.594Z</time></trkpt><trkpt lat="45.3841316" lon="10.8069095"><ele>116.75</ele><time>2026-03-24T16:42:12.592Z</time></trkpt><trkpt lat="45.3840808" lon="10.8070566"><ele>115.5</ele><time>2026-03-24T16:42:14.598Z</time></trkpt><trkpt lat="45.3840364" lon="10.8072248"><ele>114.25</ele><time>2026-03-24T16:42:16.595Z</time></trkpt><trkpt lat="45.3839864" lon="10.8073806"><ele>113.0</ele><time>2026-03-24T16:42:18.593Z</time></trkpt><trkpt lat="45.3839409" lon="10.8075163"><ele>112.99999999999999</ele><time>2026-03-24T16:42:20.597Z</time></trkpt><trkpt lat="45.3838994" lon="10.8076453"><ele>113.0</ele><time>2026-03-24T16:42:22.596Z</time></trkpt><trkpt lat="45.3838437" lon="10.8077601"><ele>113.0</ele><time>2026-03-24T16:42:24.611Z</time></trkpt><trkpt lat="45.383785" lon="10.8078348"><ele>113.0</ele><time>2026-03-24T16:42:26.597Z</time></trkpt><trkpt lat="45.3837097" lon="10.8078847"><ele>112.99999999999999</ele><time>2026-03-24T16:42:29.594Z</time></trkpt><trkpt lat="45.3836466" lon="10.8078867"><ele>113.0</ele><time>2026-03-24T16:42:43.596Z</time></trkpt><trkpt lat="45.3834964" lon="10.807967"><ele>112.60000000000001</ele><time>2026-03-24T16:42:46.713Z</time></trkpt><trkpt lat="45.3834353" lon="10.8080105"><ele>112.20000000000002</ele><time>2026-03-24T16:42:47.632Z</time></trkpt><trkpt lat="45.3833133" lon="10.8081817"><ele>111.8</ele><time>2026-03-24T16:42:52.606Z</time></trkpt><trkpt lat="45.383259" lon="10.8082617"><ele>111.4</ele><time>2026-03-24T16:42:53.647Z</time></trkpt><trkpt lat="45.3832085" lon="10.8083302"><ele>111.0</ele><time>2026-03-24T16:42:55.683Z</time></trkpt><trkpt lat="45.3831772" lon="10.8084384"><ele>111.0</ele><time>2026-03-24T16:43:00.594Z</time></trkpt><trkpt lat="45.3832479" lon="10.8084809"><ele>111.0</ele><time>2026-03-24T16:43:04.664Z</time></trkpt><trkpt lat="45.3832462" lon="10.8086996"><ele>111.0</ele><time>2026-03-24T16:43:07.6Z</time></trkpt><trkpt lat="45.3832987" lon="10.8087903"><ele>111.0</ele><time>2026-03-24T16:43:09.657Z</time></trkpt><trkpt lat="45.3833674" lon="10.8088844"><ele>111.0</ele><time>2026-03-24T16:43:11.693Z</time></trkpt><trkpt lat="45.3834225" lon="10.8089732"><ele>111.0</ele><time>2026-03-24T16:43:13.617Z</time></trkpt><trkpt lat="45.3834811" lon="10.809068"><ele>111.0</ele><time>2026-03-24T16:43:15.592Z</time></trkpt><trkpt lat="45.3835442" lon="10.8091444"><ele>111.0</ele><time>2026-03-24T16:43:17.648Z</time></trkpt><trkpt lat="45.3836092" lon="10.8091989"><ele>111.0</ele><time>2026-03-24T16:43:19.629Z</time></trkpt><trkpt lat="45.383641" lon="10.80933"><ele>111.0</ele><time>2026-03-24T16:43:21.707Z</time></trkpt><trkpt lat="45.3835804" lon="10.809519"><ele>111.0</ele><time>2026-03-24T16:43:23.597Z</time></trkpt><trkpt lat="45.383559" lon="10.8096066"><ele>111.0</ele><time>2026-03-24T16:43:24.599Z</time></trkpt><trkpt lat="45.3835391" lon="10.8096974"><ele>111.0</ele><time>2026-03-24T16:43:25.598Z</time></trkpt><trkpt lat="45.3835192" lon="10.8097935"><ele>111.0</ele><time>2026-03-24T16:43:26.595Z</time></trkpt><trkpt lat="45.3834984" lon="10.8098939"><ele>111.0</ele><time>2026-03-24T16:43:27.594Z</time></trkpt><trkpt lat="45.3834765" lon="10.8099947"><ele>111.0</ele><time>2026-03-24T16:43:28.603Z</time></trkpt><trkpt lat="45.3834541" lon="10.8100956"><ele>111.0</ele><time>2026-03-24T16:43:29.601Z</time></trkpt><trkpt lat="45.3834318" lon="10.8101936"><ele>111.14285714285714</ele><time>2026-03-24T16:43:30.593Z</time></trkpt><trkpt lat="45.3834088" lon="10.8102855"><ele>111.28571428571429</ele><time>2026-03-24T16:43:31.593Z</time></trkpt><trkpt lat="45.383386" lon="10.8103755"><ele>111.42857142857143</ele><time>2026-03-24T16:43:32.595Z</time></trkpt><trkpt lat="45.3833641" lon="10.8104666"><ele>111.57142857142857</ele><time>2026-03-24T16:43:33.596Z</time></trkpt><trkpt lat="45.383343" lon="10.8105571"><ele>111.71428571428572</ele><time>2026-03-24T16:43:34.598Z</time></trkpt><trkpt lat="45.383322" lon="10.8106449"><ele>111.85714285714286</ele><time>2026-03-24T16:43:35.598Z</time></trkpt><trkpt lat="45.3833009" lon="10.8107303"><ele>112.0</ele><time>2026-03-24T16:43:36.597Z</time></trkpt><trkpt lat="45.3832589" lon="10.8108975"><ele>112.16666666666667</ele><time>2026-03-24T16:43:38.597Z</time></trkpt><trkpt lat="45.383224" lon="10.8110569"><ele>112.33333333333334</ele><time>2026-03-24T16:43:40.596Z</time></trkpt><trkpt lat="45.3831926" lon="10.811179"><ele>112.5</ele><time>2026-03-24T16:43:42.597Z</time></trkpt><trkpt lat="45.3831332" lon="10.8112247"><ele>112.66666666666666</ele><time>2026-03-24T16:43:44.604Z</time></trkpt><trkpt lat="45.3830445" lon="10.8111599"><ele>112.83333333333333</ele><time>2026-03-24T16:43:46.602Z</time></trkpt><trkpt lat="45.3829864" lon="10.811111"><ele>113.0</ele><time>2026-03-24T16:43:47.595Z</time></trkpt><trkpt lat="45.3829232" lon="10.8110612"><ele>113.0</ele><time>2026-03-24T16:43:48.592Z</time></trkpt><trkpt lat="45.3828583" lon="10.8110098"><ele>113.0</ele><time>2026-03-24T16:43:49.603Z</time></trkpt><trkpt lat="45.3827926" lon="10.8109581"><ele>113.0</ele><time>2026-03-24T16:43:50.602Z</time></trkpt><trkpt lat="45.3827294" lon="10.8109066"><ele>113.0</ele><time>2026-03-24T16:43:51.59Z</time></trkpt><trkpt lat="45.382668" lon="10.8108541"><ele>113.0</ele><time>2026-03-24T16:43:52.591Z</time></trkpt><trkpt lat="45.3826114" lon="10.8108002"><ele>113.0</ele><time>2026-03-24T16:43:53.598Z</time></trkpt><trkpt lat="45.3825562" lon="10.810749"><ele>113.0</ele><time>2026-03-24T16:43:54.597Z</time></trkpt><trkpt lat="45.3825005" lon="10.810699"><ele>113.0</ele><time>2026-03-24T16:43:55.601Z</time></trkpt><trkpt lat="45.3824424" lon="10.8106487"><ele>113.00000000000001</ele><time>2026-03-24T16:43:56.594Z</time></trkpt><trkpt lat="45.382344" lon="10.810562"><ele>113.00000000000001</ele><time>2026-03-24T16:43:58.603Z</time></trkpt><trkpt lat="45.3822815" lon="10.8104996"><ele>113.0</ele><time>2026-03-24T16:44:00.598Z</time></trkpt><trkpt lat="45.3821996" lon="10.8105432"><ele>113.0</ele><time>2026-03-24T16:44:03.599Z</time></trkpt><trkpt lat="45.3821313" lon="10.8106811"><ele>112.71428571428572</ele><time>2026-03-24T16:44:05.598Z</time></trkpt><trkpt lat="45.3820861" lon="10.8107564"><ele>112.42857142857142</ele><time>2026-03-24T16:44:06.594Z</time></trkpt><trkpt lat="45.3820364" lon="10.8108364"><ele>112.14285714285714</ele><time>2026-03-24T16:44:07.596Z</time></trkpt><trkpt lat="45.3819869" lon="10.8109191"><ele>111.85714285714286</ele><time>2026-03-24T16:44:08.6Z</time></trkpt><trkpt lat="45.3819389" lon="10.8109974"><ele>111.57142857142858</ele><time>2026-03-24T16:44:09.595Z</time></trkpt><trkpt lat="45.3818935" lon="10.811068"><ele>111.28571428571428</ele><time>2026-03-24T16:44:10.595Z</time></trkpt><trkpt lat="45.3818499" lon="10.8111353"><ele>111.0</ele><time>2026-03-24T16:44:11.603Z</time></trkpt><trkpt lat="45.3818062" lon="10.8112006"><ele>110.85714285714285</ele><time>2026-03-24T16:44:12.597Z</time></trkpt><trkpt lat="45.3817621" lon="10.811266"><ele>110.71428571428572</ele><time>2026-03-24T16:44:13.591Z</time></trkpt><trkpt lat="45.3817183" lon="10.8113315"><ele>110.57142857142857</ele><time>2026-03-24T16:44:14.599Z</time></trkpt><trkpt lat="45.3816747" lon="10.811397"><ele>110.42857142857142</ele><time>2026-03-24T16:44:15.598Z</time></trkpt><trkpt lat="45.3816306" lon="10.8114651"><ele>110.28571428571428</ele><time>2026-03-24T16:44:16.604Z</time></trkpt><trkpt lat="45.3815861" lon="10.8115364"><ele>110.14285714285714</ele><time>2026-03-24T16:44:17.597Z</time></trkpt><trkpt lat="45.3815394" lon="10.8116069"><ele>110.0</ele><time>2026-03-24T16:44:18.599Z</time></trkpt><trkpt lat="45.3814929" lon="10.8116761"><ele>110.0</ele><time>2026-03-24T16:44:19.599Z</time></trkpt><trkpt lat="45.3814475" lon="10.8117434"><ele>110.0</ele><time>2026-03-24T16:44:20.597Z</time></trkpt><trkpt lat="45.3814041" lon="10.8118095"><ele>110.0</ele><time>2026-03-24T16:44:21.605Z</time></trkpt><trkpt lat="45.3813204" lon="10.8119347"><ele>110.0</ele><time>2026-03-24T16:44:23.591Z</time></trkpt><trkpt lat="45.3812433" lon="10.81207"><ele>110.0</ele><time>2026-03-24T16:44:25.597Z</time></trkpt><trkpt lat="45.3811621" lon="10.8121963"><ele>110.2</ele><time>2026-03-24T16:44:27.605Z</time></trkpt><trkpt lat="45.3810715" lon="10.812303"><ele>110.4</ele><time>2026-03-24T16:44:29.589Z</time></trkpt><trkpt lat="45.3809823" lon="10.8124249"><ele>110.6</ele><time>2026-03-24T16:44:31.607Z</time></trkpt><trkpt lat="45.380889" lon="10.8125463"><ele>110.8</ele><time>2026-03-24T16:44:33.59Z</time></trkpt><trkpt lat="45.3808418" lon="10.8126096"><ele>111.0</ele><time>2026-03-24T16:44:34.596Z</time></trkpt><trkpt lat="45.3807932" lon="10.8126778"><ele>111.0</ele><time>2026-03-24T16:44:35.605Z</time></trkpt><trkpt lat="45.3807433" lon="10.8127468"><ele>111.0</ele><time>2026-03-24T16:44:36.621Z</time></trkpt><trkpt lat="45.3806929" lon="10.8128117"><ele>111.0</ele><time>2026-03-24T16:44:37.602Z</time></trkpt><trkpt lat="45.3806395" lon="10.8128766"><ele>111.0</ele><time>2026-03-24T16:44:38.594Z</time></trkpt><trkpt lat="45.3805831" lon="10.8129426"><ele>111.0</ele><time>2026-03-24T16:44:39.597Z</time></trkpt><trkpt lat="45.3805286" lon="10.8130081"><ele>111.0</ele><time>2026-03-24T16:44:40.601Z</time></trkpt><trkpt lat="45.3804778" lon="10.8130756"><ele>111.0</ele><time>2026-03-24T16:44:41.597Z</time></trkpt><trkpt lat="45.3804309" lon="10.8131444"><ele>111.0</ele><time>2026-03-24T16:44:42.601Z</time></trkpt><trkpt lat="45.3803502" lon="10.8132621"><ele>111.0</ele><time>2026-03-24T16:44:44.626Z</time></trkpt><trkpt lat="45.3802742" lon="10.8133742"><ele>111.0</ele><time>2026-03-24T16:44:46.598Z</time></trkpt><trkpt lat="45.3802172" lon="10.8134624"><ele>111.0</ele><time>2026-03-24T16:44:48.604Z</time></trkpt><trkpt lat="45.3801839" lon="10.8135532"><ele>111.0</ele><time>2026-03-24T16:45:12.679Z</time></trkpt><trkpt lat="45.3802146" lon="10.8136355"><ele>111.0</ele><time>2026-03-24T16:45:15.664Z</time></trkpt><trkpt lat="45.380299" lon="10.8137502"><ele>112.19999999999999</ele><time>2026-03-24T16:45:16.61Z</time></trkpt><trkpt lat="45.3803769" lon="10.8138401"><ele>113.39999999999999</ele><time>2026-03-24T16:45:17.597Z</time></trkpt><trkpt lat="45.3804363" lon="10.8138946"><ele>114.6</ele><time>2026-03-24T16:45:18.597Z</time></trkpt><trkpt lat="45.3805373" lon="10.8139673"><ele>115.8</ele><time>2026-03-24T16:45:20.591Z</time></trkpt><trkpt lat="45.380624" lon="10.8140335"><ele>117.0</ele><time>2026-03-24T16:45:22.591Z</time></trkpt><trkpt lat="45.3807158" lon="10.814093"><ele>117.0</ele><time>2026-03-24T16:45:24.606Z</time></trkpt><trkpt lat="45.3808029" lon="10.8141501"><ele>116.99999999999999</ele><time>2026-03-24T16:45:26.589Z</time></trkpt><trkpt lat="45.3808929" lon="10.8142096"><ele>116.99999999999999</ele><time>2026-03-24T16:45:28.598Z</time></trkpt><trkpt lat="45.3809823" lon="10.8142758"><ele>117.0</ele><time>2026-03-24T16:45:30.614Z</time></trkpt><trkpt lat="45.3810659" lon="10.814342"><ele>117.0</ele><time>2026-03-24T16:45:32.586Z</time></trkpt><trkpt lat="45.3811491" lon="10.814415"><ele>118.19999999999999</ele><time>2026-03-24T16:45:34.6Z</time></trkpt><trkpt lat="45.3812295" lon="10.8144849"><ele>119.39999999999999</ele><time>2026-03-24T16:45:36.594Z</time></trkpt><trkpt lat="45.3813077" lon="10.8145729"><ele>120.60000000000001</ele><time>2026-03-24T16:45:38.609Z</time></trkpt><trkpt lat="45.3813865" lon="10.8147096"><ele>121.80000000000001</ele><time>2026-03-24T16:45:40.596Z</time></trkpt><trkpt lat="45.3814667" lon="10.8148354"><ele>123.0</ele><time>2026-03-24T16:45:42.597Z</time></trkpt><trkpt lat="45.3815427" lon="10.8149511"><ele>123.0</ele><time>2026-03-24T16:45:44.592Z</time></trkpt><trkpt lat="45.3816117" lon="10.8150616"><ele>123.00000000000001</ele><time>2026-03-24T16:45:46.594Z</time></trkpt><trkpt lat="45.3816816" lon="10.8151727"><ele>123.00000000000001</ele><time>2026-03-24T16:45:48.614Z</time></trkpt><trkpt lat="45.3817583" lon="10.8152658"><ele>123.0</ele><time>2026-03-24T16:45:50.589Z</time></trkpt><trkpt lat="45.3818429" lon="10.8153446"><ele>123.0</ele><time>2026-03-24T16:45:52.593Z</time></trkpt><trkpt lat="45.3819287" lon="10.8154197"><ele>123.16666666666667</ele><time>2026-03-24T16:45:54.604Z</time></trkpt><trkpt lat="45.3820081" lon="10.8155019"><ele>123.33333333333334</ele><time>2026-03-24T16:45:56.587Z</time></trkpt><trkpt lat="45.3820831" lon="10.8155719"><ele>123.5</ele><time>2026-03-24T16:45:58.596Z</time></trkpt><trkpt lat="45.3821484" lon="10.8156414"><ele>123.66666666666667</ele><time>2026-03-24T16:46:00.598Z</time></trkpt><trkpt lat="45.3821973" lon="10.8157004"><ele>123.83333333333334</ele><time>2026-03-24T16:46:02.599Z</time></trkpt><trkpt lat="45.3821823" lon="10.8157879"><ele>124.0</ele><time>2026-03-24T16:46:06.507Z</time></trkpt><trkpt lat="45.382148" lon="10.8156921"><ele>126.00000000000001</ele><time>2026-03-24T16:46:08.654Z</time></trkpt><trkpt lat="45.3820833" lon="10.815671"><ele>128.0</ele><time>2026-03-24T16:46:10.595Z</time></trkpt><trkpt lat="45.381976" lon="10.8156031"><ele>130.0</ele><time>2026-03-24T16:46:13.601Z</time></trkpt><trkpt lat="45.3819196" lon="10.8155588"><ele>132.0</ele><time>2026-03-24T16:46:14.593Z</time></trkpt><trkpt lat="45.3818584" lon="10.8155074"><ele>134.0</ele><time>2026-03-24T16:46:15.594Z</time></trkpt><trkpt lat="45.3817966" lon="10.8154531"><ele>136.0</ele><time>2026-03-24T16:46:16.622Z</time></trkpt><trkpt lat="45.381736" lon="10.8153997"><ele>136.0</ele><time>2026-03-24T16:46:17.603Z</time></trkpt><trkpt lat="45.3816777" lon="10.8153485"><ele>136.0</ele><time>2026-03-24T16:46:18.596Z</time></trkpt><trkpt lat="45.3815727" lon="10.815257"><ele>136.0</ele><time>2026-03-24T16:46:20.61Z</time></trkpt><trkpt lat="45.3814645" lon="10.8151675"><ele>136.0</ele><time>2026-03-24T16:46:22.595Z</time></trkpt><trkpt lat="45.381406" lon="10.8151224"><ele>136.0</ele><time>2026-03-24T16:46:23.599Z</time></trkpt><trkpt lat="45.3813453" lon="10.8150769"><ele>135.33333333333334</ele><time>2026-03-24T16:46:24.606Z</time></trkpt><trkpt lat="45.3812767" lon="10.8150424"><ele>134.66666666666669</ele><time>2026-03-24T16:46:25.59Z</time></trkpt><trkpt lat="45.3812016" lon="10.8150197"><ele>134.0</ele><time>2026-03-24T16:46:26.595Z</time></trkpt><trkpt lat="45.3811212" lon="10.8150044"><ele>133.33333333333334</ele><time>2026-03-24T16:46:27.598Z</time></trkpt><trkpt lat="45.3810364" lon="10.8149931"><ele>132.66666666666666</ele><time>2026-03-24T16:46:28.598Z</time></trkpt><trkpt lat="45.3809482" lon="10.8149839"><ele>132.0</ele><time>2026-03-24T16:46:29.595Z</time></trkpt><trkpt lat="45.3808562" lon="10.814976"><ele>132.0</ele><time>2026-03-24T16:46:30.605Z</time></trkpt><trkpt lat="45.3807637" lon="10.8149693"><ele>132.0</ele><time>2026-03-24T16:46:31.594Z</time></trkpt><trkpt lat="45.38067" lon="10.8149645"><ele>132.0</ele><time>2026-03-24T16:46:32.597Z</time></trkpt><trkpt lat="45.3805756" lon="10.8149584"><ele>132.0</ele><time>2026-03-24T16:46:33.597Z</time></trkpt><trkpt lat="45.3804864" lon="10.814954"><ele>132.0</ele><time>2026-03-24T16:46:34.591Z</time></trkpt><trkpt lat="45.3804042" lon="10.8149488"><ele>132.33333333333334</ele><time>2026-03-24T16:46:35.592Z</time></trkpt><trkpt lat="45.3803308" lon="10.8149439"><ele>132.66666666666666</ele><time>2026-03-24T16:46:36.598Z</time></trkpt><trkpt lat="45.3802657" lon="10.8149388"><ele>133.0</ele><time>2026-03-24T16:46:37.602Z</time></trkpt><trkpt lat="45.3801531" lon="10.8149301"><ele>133.33333333333331</ele><time>2026-03-24T16:46:39.593Z</time></trkpt><trkpt lat="45.3800602" lon="10.8149178"><ele>133.66666666666666</ele><time>2026-03-24T16:46:41.593Z</time></trkpt><trkpt lat="45.3799948" lon="10.814907"><ele>134.0</ele><time>2026-03-24T16:46:43.608Z</time></trkpt><trkpt lat="45.3799025" lon="10.8149443"><ele>134.0</ele><time>2026-03-24T16:46:46.6Z</time></trkpt><trkpt lat="45.3798314" lon="10.8150574"><ele>134.0</ele><time>2026-03-24T16:46:48.597Z</time></trkpt><trkpt lat="45.3797634" lon="10.8151713"><ele>134.0</ele><time>2026-03-24T16:46:50.594Z</time></trkpt><trkpt lat="45.3797032" lon="10.8152732"><ele>134.0</ele><time>2026-03-24T16:46:52.596Z</time></trkpt><trkpt lat="45.3796437" lon="10.8153617"><ele>134.0</ele><time>2026-03-24T16:46:56.619Z</time></trkpt><trkpt lat="45.3795449" lon="10.8153644"><ele>133.4</ele><time>2026-03-24T16:46:58.64Z</time></trkpt><trkpt lat="45.3794588" lon="10.8153553"><ele>132.8</ele><time>2026-03-24T16:47:00.604Z</time></trkpt><trkpt lat="45.379374" lon="10.8153726"><ele>132.2</ele><time>2026-03-24T16:47:02.592Z</time></trkpt><trkpt lat="45.379358" lon="10.8152399"><ele>131.6</ele><time>2026-03-24T16:47:03.594Z</time></trkpt><trkpt lat="45.3793327" lon="10.8151211"><ele>131.0</ele><time>2026-03-24T16:47:05.663Z</time></trkpt><trkpt lat="45.3792628" lon="10.8149973"><ele>131.85714285714286</ele><time>2026-03-24T16:47:07.639Z</time></trkpt><trkpt lat="45.3792127" lon="10.8149271"><ele>132.71428571428572</ele><time>2026-03-24T16:47:09.635Z</time></trkpt><trkpt lat="45.3791925" lon="10.8148273"><ele>133.57142857142858</ele><time>2026-03-24T16:47:12.608Z</time></trkpt><trkpt lat="45.3791589" lon="10.8147491"><ele>134.42857142857144</ele><time>2026-03-24T16:47:14.649Z</time></trkpt><trkpt lat="45.3790907" lon="10.8146669"><ele>135.28571428571428</ele><time>2026-03-24T16:47:16.611Z</time></trkpt><trkpt lat="45.3790293" lon="10.8145955"><ele>136.14285714285717</ele><time>2026-03-24T16:47:18.6Z</time></trkpt><trkpt lat="45.3789662" lon="10.8145635"><ele>137.0</ele><time>2026-03-24T16:47:20.564Z</time></trkpt><trkpt lat="45.3789028" lon="10.8144998"><ele>136.66666666666666</ele><time>2026-03-24T16:47:22.66Z</time></trkpt><trkpt lat="45.3788467" lon="10.8144253"><ele>136.33333333333331</ele><time>2026-03-24T16:47:24.641Z</time></trkpt><trkpt lat="45.3787793" lon="10.8143541"><ele>136.0</ele><time>2026-03-24T16:47:26.672Z</time></trkpt><trkpt lat="45.3787117" lon="10.8142875"><ele>135.66666666666666</ele><time>2026-03-24T16:47:28.673Z</time></trkpt><trkpt lat="45.3786478" lon="10.8142311"><ele>135.33333333333334</ele><time>2026-03-24T16:47:30.597Z</time></trkpt><trkpt lat="45.3785799" lon="10.8141743"><ele>135.0</ele><time>2026-03-24T16:47:32.538Z</time></trkpt><trkpt lat="45.3785006" lon="10.8141126"><ele>135.0</ele><time>2026-03-24T16:47:34.6Z</time></trkpt><trkpt lat="45.37843" lon="10.8140527"><ele>135.0</ele><time>2026-03-24T16:47:36.563Z</time></trkpt><trkpt lat="45.3783644" lon="10.8139842"><ele>135.0</ele><time>2026-03-24T16:47:38.645Z</time></trkpt><trkpt lat="45.3782968" lon="10.8139134"><ele>135.0</ele><time>2026-03-24T16:47:40.591Z</time></trkpt><trkpt lat="45.3782117" lon="10.8138261"><ele>135.0</ele><time>2026-03-24T16:47:42.595Z</time></trkpt><trkpt lat="45.3781225" lon="10.8137255"><ele>135.0</ele><time>2026-03-24T16:47:44.593Z</time></trkpt><trkpt lat="45.3780242" lon="10.8136206"><ele>135.0</ele><time>2026-03-24T16:47:46.597Z</time></trkpt><trkpt lat="45.3779726" lon="10.8135691"><ele>135.0</ele><time>2026-03-24T16:47:47.594Z</time></trkpt><trkpt lat="45.3779171" lon="10.8135147"><ele>135.0</ele><time>2026-03-24T16:47:48.595Z</time></trkpt><trkpt lat="45.3778549" lon="10.8134561"><ele>135.0</ele><time>2026-03-24T16:47:49.592Z</time></trkpt><trkpt lat="45.3777879" lon="10.813395"><ele>135.0</ele><time>2026-03-24T16:47:50.595Z</time></trkpt><trkpt lat="45.3777179" lon="10.8133333"><ele>134.83333333333334</ele><time>2026-03-24T16:47:51.611Z</time></trkpt><trkpt lat="45.3776491" lon="10.8132722"><ele>134.66666666666666</ele><time>2026-03-24T16:47:52.602Z</time></trkpt><trkpt lat="45.3775817" lon="10.8132089"><ele>134.5</ele><time>2026-03-24T16:47:53.592Z</time></trkpt><trkpt lat="45.3775116" lon="10.8131456"><ele>134.33333333333331</ele><time>2026-03-24T16:47:54.597Z</time></trkpt><trkpt lat="45.3774422" lon="10.8130875"><ele>134.16666666666666</ele><time>2026-03-24T16:47:55.596Z</time></trkpt><trkpt lat="45.3773744" lon="10.8130322"><ele>134.0</ele><time>2026-03-24T16:47:56.601Z</time></trkpt><trkpt lat="45.3773084" lon="10.8129801"><ele>134.0</ele><time>2026-03-24T16:47:57.593Z</time></trkpt><trkpt lat="45.3772459" lon="10.8129331"><ele>134.0</ele><time>2026-03-24T16:47:58.596Z</time></trkpt><trkpt lat="45.3771868" lon="10.8128917"><ele>134.0</ele><time>2026-03-24T16:47:59.599Z</time></trkpt><trkpt lat="45.3770868" lon="10.812848"><ele>134.0</ele><time>2026-03-24T16:48:01.595Z</time></trkpt><trkpt lat="45.3770143" lon="10.8128532"><ele>134.0</ele><time>2026-03-24T16:48:03.608Z</time></trkpt><trkpt lat="45.3769546" lon="10.8128877"><ele>134.0</ele><time>2026-03-24T16:49:20.651Z</time></trkpt><trkpt lat="45.3769067" lon="10.8130578"><ele>133.57142857142858</ele><time>2026-03-24T16:49:21.611Z</time></trkpt><trkpt lat="45.3768649" lon="10.8131443"><ele>133.14285714285714</ele><time>2026-03-24T16:49:22.593Z</time></trkpt><trkpt lat="45.3768114" lon="10.8132239"><ele>132.71428571428572</ele><time>2026-03-24T16:49:24.714Z</time></trkpt><trkpt lat="45.376768" lon="10.813296"><ele>132.28571428571428</ele><time>2026-03-24T16:49:26.666Z</time></trkpt><trkpt lat="45.3767325" lon="10.8133872"><ele>131.85714285714286</ele><time>2026-03-24T16:49:28.686Z</time></trkpt><trkpt lat="45.3766895" lon="10.8134622"><ele>131.42857142857144</ele><time>2026-03-24T16:49:30.623Z</time></trkpt><trkpt lat="45.376615" lon="10.8134996"><ele>131.0</ele><time>2026-03-24T16:49:32.708Z</time></trkpt><trkpt lat="45.3765668" lon="10.8134199"><ele>131.0</ele><time>2026-03-24T16:49:34.641Z</time></trkpt><trkpt lat="45.376527" lon="10.8133191"><ele>131.0</ele><time>2026-03-24T16:49:36.685Z</time></trkpt><trkpt lat="45.3764784" lon="10.8132429"><ele>131.0</ele><time>2026-03-24T16:49:38.61Z</time></trkpt><trkpt lat="45.3764176" lon="10.8131819"><ele>131.0</ele><time>2026-03-24T16:49:40.617Z</time></trkpt><trkpt lat="45.37636" lon="10.8131088"><ele>131.0</ele><time>2026-03-24T16:49:42.714Z</time></trkpt><trkpt lat="45.3763022" lon="10.8130544"><ele>131.0</ele><time>2026-03-24T16:49:44.602Z</time></trkpt><trkpt lat="45.3762513" lon="10.8129786"><ele>131.0</ele><time>2026-03-24T16:49:46.613Z</time></trkpt><trkpt lat="45.3761927" lon="10.8128948"><ele>131.6</ele><time>2026-03-24T16:49:48.622Z</time></trkpt><trkpt lat="45.3761333" lon="10.8128092"><ele>132.2</ele><time>2026-03-24T16:49:50.573Z</time></trkpt><trkpt lat="45.3760685" lon="10.8127152"><ele>132.8</ele><time>2026-03-24T16:49:52.711Z</time></trkpt><trkpt lat="45.3759965" lon="10.8126263"><ele>133.4</ele><time>2026-03-24T16:49:54.589Z</time></trkpt><trkpt lat="45.3759194" lon="10.8125354"><ele>134.0</ele><time>2026-03-24T16:49:56.6Z</time></trkpt><trkpt lat="45.3758366" lon="10.8124583"><ele>134.0</ele><time>2026-03-24T16:49:58.601Z</time></trkpt><trkpt lat="45.3757576" lon="10.8123747"><ele>134.0</ele><time>2026-03-24T16:50:00.596Z</time></trkpt><trkpt lat="45.3756822" lon="10.8122877"><ele>134.0</ele><time>2026-03-24T16:50:02.6Z</time></trkpt><trkpt lat="45.3756137" lon="10.812197"><ele>134.0</ele><time>2026-03-24T16:50:04.6Z</time></trkpt><trkpt lat="45.3755454" lon="10.8121012"><ele>134.0</ele><time>2026-03-24T16:50:06.599Z</time></trkpt><trkpt lat="45.3754717" lon="10.8119987"><ele>133.0</ele><time>2026-03-24T16:50:08.599Z</time></trkpt><trkpt lat="45.3754009" lon="10.8118994"><ele>132.0</ele><time>2026-03-24T16:50:10.598Z</time></trkpt><trkpt lat="45.3753398" lon="10.8118067"><ele>131.0</ele><time>2026-03-24T16:50:12.599Z</time></trkpt><trkpt lat="45.3752914" lon="10.811727"><ele>130.0</ele><time>2026-03-24T16:50:14.605Z</time></trkpt><trkpt lat="45.3752107" lon="10.8117037"><ele>129.0</ele><time>2026-03-24T16:50:17.605Z</time></trkpt><trkpt lat="45.3751663" lon="10.8118311"><ele>128.0</ele><time>2026-03-24T16:50:20.648Z</time></trkpt><trkpt lat="45.3751155" lon="10.8119182"><ele>128.0</ele><time>2026-03-24T16:50:22.679Z</time></trkpt><trkpt lat="45.3750354" lon="10.811894"><ele>128.0</ele><time>2026-03-24T16:50:24.614Z</time></trkpt><trkpt lat="45.3749821" lon="10.8117478"><ele>128.0</ele><time>2026-03-24T16:50:26.599Z</time></trkpt><trkpt lat="45.3749192" lon="10.8116434"><ele>128.0</ele><time>2026-03-24T16:50:28.624Z</time></trkpt><trkpt lat="45.374863" lon="10.8115472"><ele>128.0</ele><time>2026-03-24T16:50:30.592Z</time></trkpt><trkpt lat="45.3747984" lon="10.8114409"><ele>128.0</ele><time>2026-03-24T16:50:32.604Z</time></trkpt><trkpt lat="45.3747344" lon="10.8113343"><ele>128.0</ele><time>2026-03-24T16:50:34.598Z</time></trkpt><trkpt lat="45.3746708" lon="10.8112287"><ele>128.0</ele><time>2026-03-24T16:50:36.613Z</time></trkpt><trkpt lat="45.3746132" lon="10.8111279"><ele>128.0</ele><time>2026-03-24T16:50:38.625Z</time></trkpt><trkpt lat="45.3745169" lon="10.8109878"><ele>128.0</ele><time>2026-03-24T16:50:42.603Z</time></trkpt><trkpt lat="45.3744531" lon="10.8108745"><ele>127.0</ele><time>2026-03-24T16:50:44.539Z</time></trkpt><trkpt lat="45.3743949" lon="10.810775"><ele>126.00000000000001</ele><time>2026-03-24T16:50:46.625Z</time></trkpt><trkpt lat="45.3743653" lon="10.8106409"><ele>125.00000000000001</ele><time>2026-03-24T16:50:48.607Z</time></trkpt><trkpt lat="45.3743369" lon="10.8104928"><ele>124.0</ele><time>2026-03-24T16:50:50.595Z</time></trkpt><trkpt lat="45.3742947" lon="10.8103207"><ele>123.0</ele><time>2026-03-24T16:50:52.604Z</time></trkpt><trkpt lat="45.3742717" lon="10.8102238"><ele>123.2857142857143</ele><time>2026-03-24T16:50:53.6Z</time></trkpt><trkpt lat="45.3742463" lon="10.8101209"><ele>123.57142857142858</ele><time>2026-03-24T16:50:54.596Z</time></trkpt><trkpt lat="45.3742211" lon="10.8100194"><ele>123.85714285714286</ele><time>2026-03-24T16:50:55.594Z</time></trkpt><trkpt lat="45.3741983" lon="10.8099239"><ele>124.14285714285715</ele><time>2026-03-24T16:50:56.597Z</time></trkpt><trkpt lat="45.3741774" lon="10.8098337"><ele>124.42857142857144</ele><time>2026-03-24T16:50:57.59Z</time></trkpt><trkpt lat="45.3741557" lon="10.8097454"><ele>124.71428571428571</ele><time>2026-03-24T16:50:58.615Z</time></trkpt><trkpt lat="45.3741342" lon="10.8096593"><ele>125.0</ele><time>2026-03-24T16:50:59.591Z</time></trkpt><trkpt lat="45.3741132" lon="10.8095699"><ele>124.99999999999999</ele><time>2026-03-24T16:51:00.593Z</time></trkpt><trkpt lat="45.3740932" lon="10.809484"><ele>125.0</ele><time>2026-03-24T16:51:01.598Z</time></trkpt><trkpt lat="45.3740607" lon="10.8093454"><ele>125.0</ele><time>2026-03-24T16:51:03.592Z</time></trkpt><trkpt lat="45.3740377" lon="10.8092496"><ele>125.0</ele><time>2026-03-24T16:51:05.594Z</time></trkpt><trkpt lat="45.3740173" lon="10.8091515"><ele>124.99999999999999</ele><time>2026-03-24T16:51:07.594Z</time></trkpt><trkpt lat="45.3740262" lon="10.8090309"><ele>125.0</ele><time>2026-03-24T16:51:09.594Z</time></trkpt><trkpt lat="45.374122" lon="10.8088987"><ele>125.2</ele><time>2026-03-24T16:51:11.596Z</time></trkpt><trkpt lat="45.3741786" lon="10.8088045"><ele>125.4</ele><time>2026-03-24T16:51:12.592Z</time></trkpt><trkpt lat="45.3742317" lon="10.8086922"><ele>125.6</ele><time>2026-03-24T16:51:13.594Z</time></trkpt><trkpt lat="45.3742815" lon="10.8085758"><ele>125.8</ele><time>2026-03-24T16:51:14.593Z</time></trkpt><trkpt lat="45.3743286" lon="10.8084636"><ele>126.0</ele><time>2026-03-24T16:51:15.59Z</time></trkpt><trkpt lat="45.374374" lon="10.8083588"><ele>125.66666666666667</ele><time>2026-03-24T16:51:16.59Z</time></trkpt><trkpt lat="45.3744172" lon="10.8082583"><ele>125.33333333333334</ele><time>2026-03-24T16:51:17.597Z</time></trkpt><trkpt lat="45.3744601" lon="10.8081648"><ele>125.0</ele><time>2026-03-24T16:51:18.592Z</time></trkpt><trkpt lat="45.3745012" lon="10.8080733"><ele>124.66666666666667</ele><time>2026-03-24T16:51:19.59Z</time></trkpt><trkpt lat="45.3745397" lon="10.8079777"><ele>124.33333333333334</ele><time>2026-03-24T16:51:20.592Z</time></trkpt><trkpt lat="45.3745752" lon="10.8078768"><ele>124.0</ele><time>2026-03-24T16:51:21.592Z</time></trkpt><trkpt lat="45.3746076" lon="10.8077715"><ele>124.00000000000001</ele><time>2026-03-24T16:51:22.6Z</time></trkpt><trkpt lat="45.3746356" lon="10.8076662"><ele>124.0</ele><time>2026-03-24T16:51:23.594Z</time></trkpt><trkpt lat="45.3746618" lon="10.8075633"><ele>124.0</ele><time>2026-03-24T16:51:24.593Z</time></trkpt><trkpt lat="45.3746881" lon="10.8074623"><ele>124.0</ele><time>2026-03-24T16:51:25.593Z</time></trkpt><trkpt lat="45.3747162" lon="10.8073602"><ele>124.00000000000001</ele><time>2026-03-24T16:51:26.601Z</time></trkpt><trkpt lat="45.3747492" lon="10.8072625"><ele>124.0</ele><time>2026-03-24T16:51:27.6Z</time></trkpt><trkpt lat="45.3747875" lon="10.8071686"><ele>122.83333333333334</ele><time>2026-03-24T16:51:28.59Z</time></trkpt><trkpt lat="45.3748288" lon="10.8070806"><ele>121.66666666666667</ele><time>2026-03-24T16:51:29.602Z</time></trkpt><trkpt lat="45.3748722" lon="10.8069959"><ele>120.5</ele><time>2026-03-24T16:51:30.599Z</time></trkpt><trkpt lat="45.374916" lon="10.8069094"><ele>119.33333333333334</ele><time>2026-03-24T16:51:31.602Z</time></trkpt><trkpt lat="45.3749603" lon="10.8068195"><ele>118.16666666666667</ele><time>2026-03-24T16:51:32.6Z</time></trkpt><trkpt lat="45.3750056" lon="10.8067263"><ele>117.0</ele><time>2026-03-24T16:51:33.591Z</time></trkpt><trkpt lat="45.3750454" lon="10.8066227"><ele>116.83333333333333</ele><time>2026-03-24T16:51:34.593Z</time></trkpt><trkpt lat="45.3750795" lon="10.8065123"><ele>116.66666666666666</ele><time>2026-03-24T16:51:35.596Z</time></trkpt><trkpt lat="45.3751124" lon="10.8063999"><ele>116.5</ele><time>2026-03-24T16:51:36.6Z</time></trkpt><trkpt lat="45.3751489" lon="10.8062921"><ele>116.33333333333333</ele><time>2026-03-24T16:51:37.606Z</time></trkpt><trkpt lat="45.3751852" lon="10.8061863"><ele>116.16666666666666</ele><time>2026-03-24T16:51:38.592Z</time></trkpt><trkpt lat="45.3752166" lon="10.8060713"><ele>116.0</ele><time>2026-03-24T16:51:39.587Z</time></trkpt><trkpt lat="45.3752444" lon="10.8059522"><ele>115.16666666666666</ele><time>2026-03-24T16:51:40.591Z</time></trkpt><trkpt lat="45.3752698" lon="10.8058399"><ele>114.33333333333333</ele><time>2026-03-24T16:51:41.594Z</time></trkpt><trkpt lat="45.3752941" lon="10.8057338"><ele>113.5</ele><time>2026-03-24T16:51:42.591Z</time></trkpt><trkpt lat="45.3753172" lon="10.8056321"><ele>112.66666666666666</ele><time>2026-03-24T16:51:43.597Z</time></trkpt><trkpt lat="45.3753385" lon="10.8055352"><ele>111.83333333333333</ele><time>2026-03-24T16:51:44.591Z</time></trkpt><trkpt lat="45.375359" lon="10.8054472"><ele>111.0</ele><time>2026-03-24T16:51:45.594Z</time></trkpt><trkpt lat="45.3753943" lon="10.8053286"><ele>111.0</ele><time>2026-03-24T16:51:47.597Z</time></trkpt><trkpt lat="45.37542" lon="10.80523"><ele>111.0</ele><time>2026-03-24T16:51:49.605Z</time></trkpt><trkpt lat="45.3754607" lon="10.8051251"><ele>111.0</ele><time>2026-03-24T16:51:51.591Z</time></trkpt><trkpt lat="45.3755159" lon="10.805019"><ele>111.0</ele><time>2026-03-24T16:51:53.596Z</time></trkpt><trkpt lat="45.3755828" lon="10.8049067"><ele>111.0</ele><time>2026-03-24T16:51:55.596Z</time></trkpt><trkpt lat="45.3756643" lon="10.8047925"><ele>110.28571428571428</ele><time>2026-03-24T16:51:57.6Z</time></trkpt><trkpt lat="45.3757644" lon="10.8046911"><ele>109.57142857142858</ele><time>2026-03-24T16:51:59.593Z</time></trkpt><trkpt lat="45.3758226" lon="10.8046511"><ele>108.85714285714286</ele><time>2026-03-24T16:52:00.595Z</time></trkpt><trkpt lat="45.3758841" lon="10.8046197"><ele>108.14285714285714</ele><time>2026-03-24T16:52:01.595Z</time></trkpt><trkpt lat="45.3759477" lon="10.8045959"><ele>107.42857142857142</ele><time>2026-03-24T16:52:02.598Z</time></trkpt><trkpt lat="45.3760114" lon="10.804573"><ele>106.71428571428572</ele><time>2026-03-24T16:52:03.595Z</time></trkpt><trkpt lat="45.3760729" lon="10.8045464"><ele>106.0</ele><time>2026-03-24T16:52:04.599Z</time></trkpt><trkpt lat="45.3761825" lon="10.8044709"><ele>106.00000000000001</ele><time>2026-03-24T16:52:06.591Z</time></trkpt><trkpt lat="45.3762555" lon="10.8043926"><ele>106.0</ele><time>2026-03-24T16:52:08.599Z</time></trkpt><trkpt lat="45.376203" lon="10.8043426"><ele>106.0</ele><time>2026-03-24T16:52:13.594Z</time></trkpt><trkpt lat="45.3763156" lon="10.8042559"><ele>106.0</ele><time>2026-03-24T16:53:13.594Z</time></trkpt><trkpt lat="45.3763462" lon="10.8041662"><ele>106.00000000000001</ele><time>2026-03-24T16:53:14.601Z</time></trkpt><trkpt lat="45.376361" lon="10.8040676"><ele>106.0</ele><time>2026-03-24T16:53:15.6Z</time></trkpt><trkpt lat="45.3763707" lon="10.8039733"><ele>104.5</ele><time>2026-03-24T16:53:16.595Z</time></trkpt><trkpt lat="45.3763938" lon="10.8038214"><ele>103.0</ele><time>2026-03-24T16:53:18.59Z</time></trkpt><trkpt lat="45.3764086" lon="10.8037292"><ele>101.5</ele><time>2026-03-24T16:53:20.597Z</time></trkpt><trkpt lat="45.3763384" lon="10.8036297"><ele>100.0</ele><time>2026-03-24T16:53:25.605Z</time></trkpt><trkpt lat="45.3761634" lon="10.8035954"><ele>100.0</ele><time>2026-03-24T16:53:27.601Z</time></trkpt><trkpt lat="45.3760457" lon="10.8035705"><ele>100.0</ele><time>2026-03-24T16:53:28.598Z</time></trkpt><trkpt lat="45.3759121" lon="10.8035435"><ele>100.0</ele><time>2026-03-24T16:53:29.603Z</time></trkpt><trkpt lat="45.3757715" lon="10.8035175"><ele>100.0</ele><time>2026-03-24T16:53:30.594Z</time></trkpt><trkpt lat="45.37563" lon="10.8034914"><ele>99.75</ele><time>2026-03-24T16:53:31.589Z</time></trkpt><trkpt lat="45.3754905" lon="10.803467"><ele>99.5</ele><time>2026-03-24T16:53:32.601Z</time></trkpt><trkpt lat="45.3753535" lon="10.8034446"><ele>99.25</ele><time>2026-03-24T16:53:33.597Z</time></trkpt><trkpt lat="45.3752166" lon="10.8034228"><ele>99.0</ele><time>2026-03-24T16:53:34.598Z</time></trkpt><trkpt lat="45.3750818" lon="10.8033984"><ele>99.0</ele><time>2026-03-24T16:53:35.594Z</time></trkpt><trkpt lat="45.3749486" lon="10.8033747"><ele>99.0</ele><time>2026-03-24T16:53:36.593Z</time></trkpt><trkpt lat="45.3748177" lon="10.8033506"><ele>99.0</ele><time>2026-03-24T16:53:37.593Z</time></trkpt><trkpt lat="45.3746882" lon="10.8033295"><ele>99.0</ele><time>2026-03-24T16:53:38.597Z</time></trkpt><trkpt lat="45.3745623" lon="10.8033082"><ele>98.0</ele><time>2026-03-24T16:53:39.6Z</time></trkpt><trkpt lat="45.3744368" lon="10.8032813"><ele>97.0</ele><time>2026-03-24T16:53:40.603Z</time></trkpt><trkpt lat="45.3743111" lon="10.8032463"><ele>96.0</ele><time>2026-03-24T16:53:41.591Z</time></trkpt><trkpt lat="45.3741842" lon="10.8032016"><ele>95.0</ele><time>2026-03-24T16:53:42.589Z</time></trkpt><trkpt lat="45.3740571" lon="10.8031447"><ele>95.0</ele><time>2026-03-24T16:53:43.597Z</time></trkpt><trkpt lat="45.3739304" lon="10.8030767"><ele>95.0</ele><time>2026-03-24T16:53:44.601Z</time></trkpt><trkpt lat="45.3738034" lon="10.8030009"><ele>95.0</ele><time>2026-03-24T16:53:45.598Z</time></trkpt><trkpt lat="45.373676" lon="10.8029183"><ele>95.0</ele><time>2026-03-24T16:53:46.6Z</time></trkpt><trkpt lat="45.3735465" lon="10.8028315"><ele>94.5</ele><time>2026-03-24T16:53:47.608Z</time></trkpt><trkpt lat="45.3734173" lon="10.8027437"><ele>94.0</ele><time>2026-03-24T16:53:48.593Z</time></trkpt><trkpt lat="45.3732867" lon="10.8026554"><ele>93.5</ele><time>2026-03-24T16:53:49.598Z</time></trkpt><trkpt lat="45.3731572" lon="10.8025677"><ele>93.0</ele><time>2026-03-24T16:53:50.603Z</time></trkpt><trkpt lat="45.3730312" lon="10.8024805"><ele>91.75</ele><time>2026-03-24T16:53:51.602Z</time></trkpt><trkpt lat="45.372908" lon="10.8023927"><ele>90.5</ele><time>2026-03-24T16:53:52.594Z</time></trkpt><trkpt lat="45.3727879" lon="10.802305"><ele>89.25</ele><time>2026-03-24T16:53:53.596Z</time></trkpt><trkpt lat="45.3726672" lon="10.8022271"><ele>88.0</ele><time>2026-03-24T16:53:54.602Z</time></trkpt><trkpt lat="45.3725433" lon="10.8021557"><ele>88.0</ele><time>2026-03-24T16:53:55.608Z</time></trkpt><trkpt lat="45.3724073" lon="10.8021239"><ele>88.0</ele><time>2026-03-24T16:53:56.599Z</time></trkpt><trkpt lat="45.3722661" lon="10.8021013"><ele>88.0</ele><time>2026-03-24T16:53:57.595Z</time></trkpt><trkpt lat="45.3721226" lon="10.8020801"><ele>88.0</ele><time>2026-03-24T16:53:58.593Z</time></trkpt><trkpt lat="45.3719762" lon="10.8020569"><ele>87.5</ele><time>2026-03-24T16:53:59.602Z</time></trkpt><trkpt lat="45.3718304" lon="10.8020332"><ele>87.0</ele><time>2026-03-24T16:54:00.595Z</time></trkpt><trkpt lat="45.3716824" lon="10.8020103"><ele>86.5</ele><time>2026-03-24T16:54:01.595Z</time></trkpt><trkpt lat="45.371533" lon="10.8019853"><ele>86.0</ele><time>2026-03-24T16:54:02.597Z</time></trkpt><trkpt lat="45.3713841" lon="10.8019604"><ele>85.0</ele><time>2026-03-24T16:54:03.599Z</time></trkpt><trkpt lat="45.3712357" lon="10.8019382"><ele>84.0</ele><time>2026-03-24T16:54:04.598Z</time></trkpt><trkpt lat="45.3710894" lon="10.8019218"><ele>83.0</ele><time>2026-03-24T16:54:05.601Z</time></trkpt><trkpt lat="45.3709456" lon="10.8019168"><ele>82.0</ele><time>2026-03-24T16:54:06.593Z</time></trkpt><trkpt lat="45.3708024" lon="10.8019227"><ele>82.0</ele><time>2026-03-24T16:54:07.592Z</time></trkpt><trkpt lat="45.3706602" lon="10.8019363"><ele>82.0</ele><time>2026-03-24T16:54:08.59Z</time></trkpt><trkpt lat="45.3705195" lon="10.8019555"><ele>82.0</ele><time>2026-03-24T16:54:09.589Z</time></trkpt><trkpt lat="45.3703824" lon="10.8019796"><ele>82.0</ele><time>2026-03-24T16:54:10.591Z</time></trkpt><trkpt lat="45.3702502" lon="10.8020055"><ele>82.0</ele><time>2026-03-24T16:54:11.591Z</time></trkpt><trkpt lat="45.3701234" lon="10.8020312"><ele>82.0</ele><time>2026-03-24T16:54:12.592Z</time></trkpt><trkpt lat="45.3700032" lon="10.8020538"><ele>82.0</ele><time>2026-03-24T16:54:13.592Z</time></trkpt><trkpt lat="45.36989" lon="10.8020757"><ele>82.0</ele><time>2026-03-24T16:54:14.596Z</time></trkpt><trkpt lat="45.3697842" lon="10.8020963"><ele>82.0</ele><time>2026-03-24T16:54:15.599Z</time></trkpt><trkpt lat="45.3696856" lon="10.802115"><ele>82.0</ele><time>2026-03-24T16:54:16.592Z</time></trkpt><trkpt lat="45.3695926" lon="10.8021315"><ele>82.0</ele><time>2026-03-24T16:54:17.594Z</time></trkpt><trkpt lat="45.3695069" lon="10.8021407"><ele>82.0</ele><time>2026-03-24T16:54:18.601Z</time></trkpt><trkpt lat="45.3694321" lon="10.8021375"><ele>82.0</ele><time>2026-03-24T16:54:19.609Z</time></trkpt><trkpt lat="45.3693696" lon="10.8021212"><ele>82.0</ele><time>2026-03-24T16:54:20.612Z</time></trkpt><trkpt lat="45.3692787" lon="10.8020699"><ele>82.0</ele><time>2026-03-24T16:54:22.602Z</time></trkpt><trkpt lat="45.36921" lon="10.8020886"><ele>82.0</ele><time>2026-03-24T16:54:25.602Z</time></trkpt><trkpt lat="45.3692454" lon="10.8021822"><ele>82.0</ele><time>2026-03-24T16:54:27.615Z</time></trkpt><trkpt lat="45.3693081" lon="10.802303"><ele>82.0</ele><time>2026-03-24T16:54:29.602Z</time></trkpt><trkpt lat="45.3693477" lon="10.8024583"><ele>82.0</ele><time>2026-03-24T16:54:31.599Z</time></trkpt><trkpt lat="45.3693671" lon="10.8026362"><ele>81.85714285714285</ele><time>2026-03-24T16:54:33.595Z</time></trkpt><trkpt lat="45.3693745" lon="10.8027333"><ele>81.71428571428571</ele><time>2026-03-24T16:54:34.592Z</time></trkpt><trkpt lat="45.3693838" lon="10.802834"><ele>81.57142857142857</ele><time>2026-03-24T16:54:35.608Z</time></trkpt><trkpt lat="45.3693933" lon="10.8029303"><ele>81.42857142857142</ele><time>2026-03-24T16:54:36.602Z</time></trkpt><trkpt lat="45.3694028" lon="10.8030247"><ele>81.28571428571428</ele><time>2026-03-24T16:54:37.601Z</time></trkpt><trkpt lat="45.3694113" lon="10.803121"><ele>81.14285714285714</ele><time>2026-03-24T16:54:38.609Z</time></trkpt><trkpt lat="45.3694202" lon="10.8032202"><ele>81.0</ele><time>2026-03-24T16:54:39.593Z</time></trkpt><trkpt lat="45.369431" lon="10.803321"><ele>81.0</ele><time>2026-03-24T16:54:40.596Z</time></trkpt><trkpt lat="45.3694429" lon="10.8034215"><ele>81.0</ele><time>2026-03-24T16:54:41.611Z</time></trkpt><trkpt lat="45.3694566" lon="10.8035213"><ele>81.0</ele><time>2026-03-24T16:54:42.615Z</time></trkpt><trkpt lat="45.3694699" lon="10.8036235"><ele>81.0</ele><time>2026-03-24T16:54:43.605Z</time></trkpt><trkpt lat="45.369485" lon="10.8037255"><ele>81.0</ele><time>2026-03-24T16:54:44.596Z</time></trkpt><trkpt lat="45.3695007" lon="10.8038261"><ele>81.0</ele><time>2026-03-24T16:54:45.6Z</time></trkpt><trkpt lat="45.3695148" lon="10.8039253"><ele>81.0</ele><time>2026-03-24T16:54:46.598Z</time></trkpt><trkpt lat="45.3695278" lon="10.804024"><ele>80.85714285714286</ele><time>2026-03-24T16:54:47.597Z</time></trkpt><trkpt lat="45.3695408" lon="10.8041209"><ele>80.71428571428571</ele><time>2026-03-24T16:54:48.595Z</time></trkpt><trkpt lat="45.3695541" lon="10.8042162"><ele>80.57142857142857</ele><time>2026-03-24T16:54:49.607Z</time></trkpt><trkpt lat="45.3695668" lon="10.8043101"><ele>80.42857142857143</ele><time>2026-03-24T16:54:50.599Z</time></trkpt><trkpt lat="45.3695794" lon="10.8044046"><ele>80.28571428571429</ele><time>2026-03-24T16:54:51.603Z</time></trkpt><trkpt lat="45.3695929" lon="10.8044985"><ele>80.14285714285714</ele><time>2026-03-24T16:54:52.592Z</time></trkpt><trkpt lat="45.3696069" lon="10.8045924"><ele>80.0</ele><time>2026-03-24T16:54:53.601Z</time></trkpt><trkpt lat="45.3696203" lon="10.8046818"><ele>80.0</ele><time>2026-03-24T16:54:54.598Z</time></trkpt><trkpt lat="45.3696473" lon="10.8048571"><ele>80.0</ele><time>2026-03-24T16:54:56.613Z</time></trkpt><trkpt lat="45.3696592" lon="10.8049511"><ele>80.0</ele><time>2026-03-24T16:54:57.606Z</time></trkpt><trkpt lat="45.3696692" lon="10.805049"><ele>80.0</ele><time>2026-03-24T16:54:58.6Z</time></trkpt><trkpt lat="45.369678" lon="10.805146"><ele>80.0</ele><time>2026-03-24T16:54:59.597Z</time></trkpt><trkpt lat="45.3696833" lon="10.8052423"><ele>80.0</ele><time>2026-03-24T16:55:00.604Z</time></trkpt><trkpt lat="45.3696859" lon="10.8053389"><ele>79.85714285714286</ele><time>2026-03-24T16:55:01.598Z</time></trkpt><trkpt lat="45.3696883" lon="10.8054369"><ele>79.71428571428572</ele><time>2026-03-24T16:55:02.597Z</time></trkpt><trkpt lat="45.3696903" lon="10.8055361"><ele>79.57142857142858</ele><time>2026-03-24T16:55:03.593Z</time></trkpt><trkpt lat="45.3696912" lon="10.8056344"><ele>79.42857142857143</ele><time>2026-03-24T16:55:04.597Z</time></trkpt><trkpt lat="45.3696907" lon="10.805729"><ele>79.28571428571429</ele><time>2026-03-24T16:55:05.593Z</time></trkpt><trkpt lat="45.3696885" lon="10.8058219"><ele>79.14285714285715</ele><time>2026-03-24T16:55:06.595Z</time></trkpt><trkpt lat="45.3696829" lon="10.8059116"><ele>79.0</ele><time>2026-03-24T16:55:07.607Z</time></trkpt><trkpt lat="45.3696683" lon="10.8060643"><ele>80.0</ele><time>2026-03-24T16:55:09.605Z</time></trkpt><trkpt lat="45.3696984" lon="10.8061601"><ele>81.0</ele><time>2026-03-24T16:55:11.605Z</time></trkpt><trkpt lat="45.3697706" lon="10.8062006"><ele>82.0</ele><time>2026-03-24T16:55:13.598Z</time></trkpt><trkpt lat="45.3698142" lon="10.8063314"><ele>83.0</ele><time>2026-03-24T16:55:15.593Z</time></trkpt><trkpt lat="45.3698266" lon="10.8064283"><ele>84.0</ele><time>2026-03-24T16:55:16.605Z</time></trkpt><trkpt lat="45.3698399" lon="10.8065348"><ele>85.0</ele><time>2026-03-24T16:55:17.596Z</time></trkpt><trkpt lat="45.3698574" lon="10.8066497"><ele>85.0</ele><time>2026-03-24T16:55:18.606Z</time></trkpt><trkpt lat="45.3698784" lon="10.8067668"><ele>85.0</ele><time>2026-03-24T16:55:19.596Z</time></trkpt><trkpt lat="45.3698966" lon="10.8068851"><ele>85.0</ele><time>2026-03-24T16:55:20.598Z</time></trkpt><trkpt lat="45.3699119" lon="10.8070048"><ele>85.0</ele><time>2026-03-24T16:55:21.602Z</time></trkpt><trkpt lat="45.3699259" lon="10.8071289"><ele>85.0</ele><time>2026-03-24T16:55:22.606Z</time></trkpt><trkpt lat="45.3699389" lon="10.807254"><ele>85.0</ele><time>2026-03-24T16:55:23.595Z</time></trkpt><trkpt lat="45.3699509" lon="10.8073747"><ele>85.0</ele><time>2026-03-24T16:55:24.614Z</time></trkpt><trkpt lat="45.369962" lon="10.807487"><ele>85.0</ele><time>2026-03-24T16:55:25.606Z</time></trkpt><trkpt lat="45.3699732" lon="10.8076048"><ele>85.0</ele><time>2026-03-24T16:55:26.61Z</time></trkpt><trkpt lat="45.3699849" lon="10.8077205"><ele>85.0</ele><time>2026-03-24T16:55:27.597Z</time></trkpt><trkpt lat="45.3699996" lon="10.8078402"><ele>85.0</ele><time>2026-03-24T16:55:28.597Z</time></trkpt><trkpt lat="45.3700144" lon="10.8079586"><ele>85.0</ele><time>2026-03-24T16:55:29.627Z</time></trkpt><trkpt lat="45.3700285" lon="10.8080752"><ele>84.83333333333333</ele><time>2026-03-24T16:55:30.6Z</time></trkpt><trkpt lat="45.3700439" lon="10.808194"><ele>84.66666666666666</ele><time>2026-03-24T16:55:31.598Z</time></trkpt><trkpt lat="45.3700601" lon="10.8083114"><ele>84.5</ele><time>2026-03-24T16:55:32.599Z</time></trkpt><trkpt lat="45.3700772" lon="10.8084278"><ele>84.33333333333333</ele><time>2026-03-24T16:55:33.595Z</time></trkpt><trkpt lat="45.3700957" lon="10.8085429"><ele>84.16666666666667</ele><time>2026-03-24T16:55:34.591Z</time></trkpt><trkpt lat="45.370113" lon="10.8086601"><ele>84.0</ele><time>2026-03-24T16:55:35.601Z</time></trkpt><trkpt lat="45.3701299" lon="10.8087788"><ele>83.66666666666667</ele><time>2026-03-24T16:55:36.602Z</time></trkpt><trkpt lat="45.3701493" lon="10.8088957"><ele>83.33333333333333</ele><time>2026-03-24T16:55:37.602Z</time></trkpt><trkpt lat="45.370172" lon="10.8090105"><ele>83.0</ele><time>2026-03-24T16:55:38.593Z</time></trkpt><trkpt lat="45.3701963" lon="10.8091273"><ele>82.66666666666666</ele><time>2026-03-24T16:55:39.598Z</time></trkpt><trkpt lat="45.3702203" lon="10.8092472"><ele>82.33333333333333</ele><time>2026-03-24T16:55:40.596Z</time></trkpt><trkpt lat="45.3702501" lon="10.8093672"><ele>82.0</ele><time>2026-03-24T16:55:41.602Z</time></trkpt><trkpt lat="45.3702723" lon="10.809485"><ele>81.8</ele><time>2026-03-24T16:55:42.591Z</time></trkpt><trkpt lat="45.3702899" lon="10.809598"><ele>81.6</ele><time>2026-03-24T16:55:43.593Z</time></trkpt><trkpt lat="45.370306" lon="10.8097051"><ele>81.39999999999999</ele><time>2026-03-24T16:55:44.59Z</time></trkpt><trkpt lat="45.3703208" lon="10.8098026"><ele>81.19999999999999</ele><time>2026-03-24T16:55:45.593Z</time></trkpt><trkpt lat="45.3703445" lon="10.8099719"><ele>81.0</ele><time>2026-03-24T16:55:47.602Z</time></trkpt><trkpt lat="45.3703661" lon="10.8101531"><ele>80.66666666666667</ele><time>2026-03-24T16:55:49.595Z</time></trkpt><trkpt lat="45.3703783" lon="10.8102604"><ele>80.33333333333333</ele><time>2026-03-24T16:55:50.596Z</time></trkpt><trkpt lat="45.3703966" lon="10.8103786"><ele>80.0</ele><time>2026-03-24T16:55:51.599Z</time></trkpt><trkpt lat="45.3704184" lon="10.8105058"><ele>79.66666666666666</ele><time>2026-03-24T16:55:52.61Z</time></trkpt><trkpt lat="45.3704416" lon="10.8106351"><ele>79.33333333333333</ele><time>2026-03-24T16:55:53.596Z</time></trkpt><trkpt lat="45.3704663" lon="10.8107629"><ele>79.0</ele><time>2026-03-24T16:55:54.598Z</time></trkpt><trkpt lat="45.370492" lon="10.8108851"><ele>79.0</ele><time>2026-03-24T16:55:55.596Z</time></trkpt><trkpt lat="45.3705192" lon="10.8110076"><ele>79.0</ele><time>2026-03-24T16:55:56.602Z</time></trkpt><trkpt lat="45.3705495" lon="10.8111344"><ele>79.0</ele><time>2026-03-24T16:55:57.6Z</time></trkpt><trkpt lat="45.3705797" lon="10.8112657"><ele>79.0</ele><time>2026-03-24T16:55:58.604Z</time></trkpt><trkpt lat="45.3706092" lon="10.8113981"><ele>79.0</ele><time>2026-03-24T16:55:59.593Z</time></trkpt><trkpt lat="45.3706404" lon="10.8115303"><ele>80.0</ele><time>2026-03-24T16:56:00.594Z</time></trkpt><trkpt lat="45.3706718" lon="10.811661"><ele>81.0</ele><time>2026-03-24T16:56:01.593Z</time></trkpt><trkpt lat="45.3707004" lon="10.8117919"><ele>82.0</ele><time>2026-03-24T16:56:02.603Z</time></trkpt><trkpt lat="45.37073" lon="10.8119215"><ele>83.0</ele><time>2026-03-24T16:56:03.613Z</time></trkpt><trkpt lat="45.3707588" lon="10.8120474"><ele>84.0</ele><time>2026-03-24T16:56:04.605Z</time></trkpt><trkpt lat="45.3707859" lon="10.8121699"><ele>84.0</ele><time>2026-03-24T16:56:05.604Z</time></trkpt><trkpt lat="45.3708151" lon="10.8122934"><ele>84.0</ele><time>2026-03-24T16:56:06.602Z</time></trkpt><trkpt lat="45.3708444" lon="10.812419"><ele>84.0</ele><time>2026-03-24T16:56:07.591Z</time></trkpt><trkpt lat="45.3708749" lon="10.8125499"><ele>84.0</ele><time>2026-03-24T16:56:08.605Z</time></trkpt><trkpt lat="45.3709021" lon="10.8126685"><ele>84.0</ele><time>2026-03-24T16:56:09.606Z</time></trkpt><trkpt lat="45.3709284" lon="10.8127815"><ele>84.0</ele><time>2026-03-24T16:56:10.603Z</time></trkpt><trkpt lat="45.3709586" lon="10.8128983"><ele>84.0</ele><time>2026-03-24T16:56:11.6Z</time></trkpt><trkpt lat="45.3709913" lon="10.8130201"><ele>84.0</ele><time>2026-03-24T16:56:12.594Z</time></trkpt><trkpt lat="45.3710277" lon="10.8131439"><ele>84.0</ele><time>2026-03-24T16:56:13.603Z</time></trkpt><trkpt lat="45.3710621" lon="10.8132557"><ele>84.0</ele><time>2026-03-24T16:56:14.607Z</time></trkpt><trkpt lat="45.3710929" lon="10.8133551"><ele>84.0</ele><time>2026-03-24T16:56:15.606Z</time></trkpt><trkpt lat="45.3711223" lon="10.8134438"><ele>84.0</ele><time>2026-03-24T16:56:16.589Z</time></trkpt><trkpt lat="45.3711513" lon="10.8135279"><ele>84.0</ele><time>2026-03-24T16:56:17.614Z</time></trkpt><trkpt lat="45.3711811" lon="10.8136122"><ele>84.0</ele><time>2026-03-24T16:56:18.598Z</time></trkpt><trkpt lat="45.3712136" lon="10.8136996"><ele>84.0</ele><time>2026-03-24T16:56:19.607Z</time></trkpt><trkpt lat="45.3712506" lon="10.81379"><ele>84.0</ele><time>2026-03-24T16:56:20.618Z</time></trkpt><trkpt lat="45.3712892" lon="10.8138809"><ele>84.0</ele><time>2026-03-24T16:56:21.615Z</time></trkpt><trkpt lat="45.371327" lon="10.8139754"><ele>84.0</ele><time>2026-03-24T16:56:22.594Z</time></trkpt><trkpt lat="45.371362" lon="10.8140741"><ele>84.0</ele><time>2026-03-24T16:56:23.619Z</time></trkpt><trkpt lat="45.3713968" lon="10.8141711"><ele>84.0</ele><time>2026-03-24T16:56:24.612Z</time></trkpt><trkpt lat="45.3714341" lon="10.8142675"><ele>84.0</ele><time>2026-03-24T16:56:25.624Z</time></trkpt><trkpt lat="45.3714725" lon="10.8143604"><ele>84.0</ele><time>2026-03-24T16:56:26.605Z</time></trkpt><trkpt lat="45.3715111" lon="10.8144554"><ele>84.0</ele><time>2026-03-24T16:56:27.6Z</time></trkpt><trkpt lat="45.3715468" lon="10.8145489"><ele>84.0</ele><time>2026-03-24T16:56:28.603Z</time></trkpt><trkpt lat="45.3715785" lon="10.8146415"><ele>83.57142857142857</ele><time>2026-03-24T16:56:29.633Z</time></trkpt><trkpt lat="45.3716102" lon="10.8147325"><ele>83.14285714285714</ele><time>2026-03-24T16:56:30.622Z</time></trkpt><trkpt lat="45.3716447" lon="10.8148251"><ele>82.71428571428572</ele><time>2026-03-24T16:56:31.613Z</time></trkpt><trkpt lat="45.3716807" lon="10.8149177"><ele>82.28571428571428</ele><time>2026-03-24T16:56:32.593Z</time></trkpt><trkpt lat="45.371718" lon="10.8150109"><ele>81.85714285714286</ele><time>2026-03-24T16:56:33.608Z</time></trkpt><trkpt lat="45.3717564" lon="10.8151029"><ele>81.42857142857143</ele><time>2026-03-24T16:56:34.607Z</time></trkpt><trkpt lat="45.3717973" lon="10.8151966"><ele>81.0</ele><time>2026-03-24T16:56:35.658Z</time></trkpt><trkpt lat="45.3718356" lon="10.815287"><ele>80.66666666666667</ele><time>2026-03-24T16:56:36.602Z</time></trkpt><trkpt lat="45.3718743" lon="10.8153776"><ele>80.33333333333333</ele><time>2026-03-24T16:56:37.593Z</time></trkpt><trkpt lat="45.3719155" lon="10.815461"><ele>80.0</ele><time>2026-03-24T16:56:38.615Z</time></trkpt><trkpt lat="45.3719561" lon="10.81554"><ele>79.66666666666666</ele><time>2026-03-24T16:56:39.605Z</time></trkpt><trkpt lat="45.3719926" lon="10.8156249"><ele>79.33333333333333</ele><time>2026-03-24T16:56:40.602Z</time></trkpt><trkpt lat="45.3720241" lon="10.8157082"><ele>79.0</ele><time>2026-03-24T16:56:41.591Z</time></trkpt><trkpt lat="45.3720738" lon="10.8158511"><ele>79.0</ele><time>2026-03-24T16:56:43.607Z</time></trkpt><trkpt lat="45.3721062" lon="10.8159483"><ele>79.0</ele><time>2026-03-24T16:56:45.604Z</time></trkpt><trkpt lat="45.3721043" lon="10.8158559"><ele>79.0</ele><time>2026-03-24T16:57:18.596Z</time></trkpt><trkpt lat="45.3720439" lon="10.8157312"><ele>79.0</ele><time>2026-03-24T16:57:19.609Z</time></trkpt><trkpt lat="45.3720041" lon="10.8156477"><ele>79.0</ele><time>2026-03-24T16:57:20.598Z</time></trkpt><trkpt lat="45.3719519" lon="10.8155243"><ele>79.0</ele><time>2026-03-24T16:57:22.598Z</time></trkpt><trkpt lat="45.3718922" lon="10.8153973"><ele>79.00000000000001</ele><time>2026-03-24T16:57:24.65Z</time></trkpt><trkpt lat="45.3718564" lon="10.8153222"><ele>79.0</ele><time>2026-03-24T16:57:25.618Z</time></trkpt><trkpt lat="45.371819" lon="10.8152355"><ele>79.0</ele><time>2026-03-24T16:57:26.609Z</time></trkpt><trkpt lat="45.3717811" lon="10.8151459"><ele>79.0</ele><time>2026-03-24T16:57:27.609Z</time></trkpt><trkpt lat="45.3717433" lon="10.8150575"><ele>79.0</ele><time>2026-03-24T16:57:28.608Z</time></trkpt><trkpt lat="45.3717053" lon="10.8149677"><ele>79.00000000000001</ele><time>2026-03-24T16:57:29.599Z</time></trkpt><trkpt lat="45.3716678" lon="10.8148711"><ele>79.0</ele><time>2026-03-24T16:57:30.613Z</time></trkpt><trkpt lat="45.3716303" lon="10.814769"><ele>79.33333333333333</ele><time>2026-03-24T16:57:31.607Z</time></trkpt><trkpt lat="45.371593" lon="10.8146641"><ele>79.66666666666666</ele><time>2026-03-24T16:57:32.613Z</time></trkpt><trkpt lat="45.3715584" lon="10.8145658"><ele>80.0</ele><time>2026-03-24T16:57:33.593Z</time></trkpt><trkpt lat="45.3715239" lon="10.81447"><ele>80.33333333333333</ele><time>2026-03-24T16:57:34.61Z</time></trkpt><trkpt lat="45.3714886" lon="10.8143704"><ele>80.66666666666667</ele><time>2026-03-24T16:57:35.598Z</time></trkpt><trkpt lat="45.3714492" lon="10.8142717"><ele>81.0</ele><time>2026-03-24T16:57:36.594Z</time></trkpt><trkpt lat="45.3714088" lon="10.8141747"><ele>81.0</ele><time>2026-03-24T16:57:37.616Z</time></trkpt><trkpt lat="45.3713709" lon="10.8140786"><ele>81.0</ele><time>2026-03-24T16:57:38.605Z</time></trkpt><trkpt lat="45.3713337" lon="10.8139843"><ele>81.0</ele><time>2026-03-24T16:57:39.602Z</time></trkpt><trkpt lat="45.3712986" lon="10.8138904"><ele>81.0</ele><time>2026-03-24T16:57:40.615Z</time></trkpt><trkpt lat="45.3712642" lon="10.8137962"><ele>81.0</ele><time>2026-03-24T16:57:41.596Z</time></trkpt><trkpt lat="45.3712248" lon="10.8136987"><ele>81.0</ele><time>2026-03-24T16:57:42.601Z</time></trkpt><trkpt lat="45.3711842" lon="10.8135969"><ele>81.0</ele><time>2026-03-24T16:57:43.592Z</time></trkpt><trkpt lat="45.371146" lon="10.81349"><ele>81.0</ele><time>2026-03-24T16:57:44.596Z</time></trkpt><trkpt lat="45.3711121" lon="10.8133849"><ele>81.0</ele><time>2026-03-24T16:57:45.615Z</time></trkpt><trkpt lat="45.3710799" lon="10.813285"><ele>81.0</ele><time>2026-03-24T16:57:46.603Z</time></trkpt><trkpt lat="45.3710467" lon="10.813185"><ele>81.0</ele><time>2026-03-24T16:57:47.594Z</time></trkpt><trkpt lat="45.3710137" lon="10.8130812"><ele>81.0</ele><time>2026-03-24T16:57:48.602Z</time></trkpt><trkpt lat="45.3709832" lon="10.812974"><ele>81.5</ele><time>2026-03-24T16:57:49.601Z</time></trkpt><trkpt lat="45.3709542" lon="10.8128636"><ele>82.0</ele><time>2026-03-24T16:57:50.593Z</time></trkpt><trkpt lat="45.3709268" lon="10.8127538"><ele>82.5</ele><time>2026-03-24T16:57:51.593Z</time></trkpt><trkpt lat="45.3709004" lon="10.8126443"><ele>83.0</ele><time>2026-03-24T16:57:52.598Z</time></trkpt><trkpt lat="45.3708757" lon="10.8125317"><ele>83.5</ele><time>2026-03-24T16:57:53.61Z</time></trkpt><trkpt lat="45.3708485" lon="10.8124176"><ele>84.0</ele><time>2026-03-24T16:57:54.602Z</time></trkpt><trkpt lat="45.3708197" lon="10.8122999"><ele>84.0</ele><time>2026-03-24T16:57:55.594Z</time></trkpt><trkpt lat="45.3707907" lon="10.8121808"><ele>84.0</ele><time>2026-03-24T16:57:56.6Z</time></trkpt><trkpt lat="45.3707635" lon="10.8120603"><ele>84.0</ele><time>2026-03-24T16:57:57.6Z</time></trkpt><trkpt lat="45.3707358" lon="10.8119371"><ele>84.0</ele><time>2026-03-24T16:57:58.599Z</time></trkpt><trkpt lat="45.3707077" lon="10.8118135"><ele>84.0</ele><time>2026-03-24T16:57:59.6Z</time></trkpt><trkpt lat="45.3706803" lon="10.8116922"><ele>84.0</ele><time>2026-03-24T16:58:00.603Z</time></trkpt><trkpt lat="45.3706542" lon="10.8115759"><ele>84.33333333333333</ele><time>2026-03-24T16:58:01.592Z</time></trkpt><trkpt lat="45.370628" lon="10.8114605"><ele>84.66666666666667</ele><time>2026-03-24T16:58:02.597Z</time></trkpt><trkpt lat="45.370601" lon="10.8113444"><ele>85.0</ele><time>2026-03-24T16:58:03.603Z</time></trkpt><trkpt lat="45.3705745" lon="10.8112299"><ele>85.33333333333334</ele><time>2026-03-24T16:58:04.603Z</time></trkpt><trkpt lat="45.3705486" lon="10.8111164"><ele>85.66666666666667</ele><time>2026-03-24T16:58:05.609Z</time></trkpt><trkpt lat="45.3705224" lon="10.8110007"><ele>86.0</ele><time>2026-03-24T16:58:06.604Z</time></trkpt><trkpt lat="45.3704947" lon="10.8108812"><ele>84.83333333333334</ele><time>2026-03-24T16:58:07.593Z</time></trkpt><trkpt lat="45.3704678" lon="10.8107598"><ele>83.66666666666667</ele><time>2026-03-24T16:58:08.608Z</time></trkpt><trkpt lat="45.3704436" lon="10.8106405"><ele>82.5</ele><time>2026-03-24T16:58:09.614Z</time></trkpt><trkpt lat="45.3704225" lon="10.8105288"><ele>81.33333333333333</ele><time>2026-03-24T16:58:10.605Z</time></trkpt><trkpt lat="45.3704034" lon="10.8104193"><ele>80.16666666666666</ele><time>2026-03-24T16:58:11.595Z</time></trkpt><trkpt lat="45.3703843" lon="10.8103049"><ele>79.0</ele><time>2026-03-24T16:58:12.599Z</time></trkpt><trkpt lat="45.3703679" lon="10.810188"><ele>79.33333333333333</ele><time>2026-03-24T16:58:13.597Z</time></trkpt><trkpt lat="45.3703523" lon="10.8100686"><ele>79.66666666666666</ele><time>2026-03-24T16:58:14.592Z</time></trkpt><trkpt lat="45.3703329" lon="10.8099466"><ele>80.0</ele><time>2026-03-24T16:58:15.604Z</time></trkpt><trkpt lat="45.3703111" lon="10.8098225"><ele>80.33333333333333</ele><time>2026-03-24T16:58:16.594Z</time></trkpt><trkpt lat="45.3702916" lon="10.809695"><ele>80.66666666666667</ele><time>2026-03-24T16:58:17.61Z</time></trkpt><trkpt lat="45.3702715" lon="10.8095718"><ele>81.0</ele><time>2026-03-24T16:58:18.598Z</time></trkpt><trkpt lat="45.3702555" lon="10.8094434"><ele>81.19999999999999</ele><time>2026-03-24T16:58:19.596Z</time></trkpt><trkpt lat="45.3702371" lon="10.8093176"><ele>81.39999999999999</ele><time>2026-03-24T16:58:20.61Z</time></trkpt><trkpt lat="45.3702141" lon="10.8091922"><ele>81.6</ele><time>2026-03-24T16:58:21.593Z</time></trkpt><trkpt lat="45.3701867" lon="10.8090575"><ele>81.8</ele><time>2026-03-24T16:58:22.602Z</time></trkpt><trkpt lat="45.3701598" lon="10.8089166"><ele>82.0</ele><time>2026-03-24T16:58:23.599Z</time></trkpt><trkpt lat="45.3701349" lon="10.8087758"><ele>82.0</ele><time>2026-03-24T16:58:24.612Z</time></trkpt><trkpt lat="45.370114" lon="10.8086409"><ele>82.0</ele><time>2026-03-24T16:58:25.607Z</time></trkpt><trkpt lat="45.3700934" lon="10.8085056"><ele>82.0</ele><time>2026-03-24T16:58:26.601Z</time></trkpt><trkpt lat="45.3700734" lon="10.8083657"><ele>82.0</ele><time>2026-03-24T16:58:27.604Z</time></trkpt><trkpt lat="45.3700555" lon="10.8082258"><ele>82.0</ele><time>2026-03-24T16:58:28.602Z</time></trkpt><trkpt lat="45.3700369" lon="10.8080849"><ele>82.39999999999999</ele><time>2026-03-24T16:58:29.61Z</time></trkpt><trkpt lat="45.3700201" lon="10.807941"><ele>82.8</ele><time>2026-03-24T16:58:30.608Z</time></trkpt><trkpt lat="45.3700032" lon="10.8077972"><ele>83.2</ele><time>2026-03-24T16:58:31.597Z</time></trkpt><trkpt lat="45.3699858" lon="10.8076554"><ele>83.6</ele><time>2026-03-24T16:58:32.601Z</time></trkpt><trkpt lat="45.3699709" lon="10.8075107"><ele>84.0</ele><time>2026-03-24T16:58:33.602Z</time></trkpt><trkpt lat="45.3699602" lon="10.8073693"><ele>84.2</ele><time>2026-03-24T16:58:34.599Z</time></trkpt><trkpt lat="45.3699484" lon="10.8072316"><ele>84.4</ele><time>2026-03-24T16:58:35.606Z</time></trkpt><trkpt lat="45.3699331" lon="10.807094"><ele>84.6</ele><time>2026-03-24T16:58:36.614Z</time></trkpt><trkpt lat="45.3699162" lon="10.806961"><ele>84.8</ele><time>2026-03-24T16:58:37.595Z</time></trkpt><trkpt lat="45.3698936" lon="10.8068265"><ele>85.0</ele><time>2026-03-24T16:58:38.611Z</time></trkpt><trkpt lat="45.36987" lon="10.8066945"><ele>85.0</ele><time>2026-03-24T16:58:39.597Z</time></trkpt><trkpt lat="45.369851" lon="10.8065706"><ele>85.0</ele><time>2026-03-24T16:58:40.603Z</time></trkpt><trkpt lat="45.3698351" lon="10.8064641"><ele>85.0</ele><time>2026-03-24T16:58:41.595Z</time></trkpt><trkpt lat="45.3698151" lon="10.8063079"><ele>85.0</ele><time>2026-03-24T16:58:43.598Z</time></trkpt><trkpt lat="45.3697813" lon="10.8061978"><ele>85.0</ele><time>2026-03-24T16:58:45.599Z</time></trkpt><trkpt lat="45.3697095" lon="10.8061396"><ele>85.0</ele><time>2026-03-24T16:58:47.601Z</time></trkpt><trkpt lat="45.3696594" lon="10.8060558"><ele>84.8</ele><time>2026-03-24T16:58:49.594Z</time></trkpt><trkpt lat="45.3696793" lon="10.80586"><ele>84.6</ele><time>2026-03-24T16:58:51.616Z</time></trkpt><trkpt lat="45.3696898" lon="10.8057452"><ele>84.4</ele><time>2026-03-24T16:58:52.595Z</time></trkpt><trkpt lat="45.3696916" lon="10.8056222"><ele>84.2</ele><time>2026-03-24T16:58:53.604Z</time></trkpt><trkpt lat="45.3696923" lon="10.8055016"><ele>84.0</ele><time>2026-03-24T16:58:54.606Z</time></trkpt><trkpt lat="45.3696916" lon="10.805384"><ele>83.33333333333333</ele><time>2026-03-24T16:58:55.607Z</time></trkpt><trkpt lat="45.3696888" lon="10.8052684"><ele>82.66666666666667</ele><time>2026-03-24T16:58:56.598Z</time></trkpt><trkpt lat="45.3696868" lon="10.8051539"><ele>82.0</ele><time>2026-03-24T16:58:57.619Z</time></trkpt><trkpt lat="45.3696828" lon="10.8050416"><ele>81.33333333333334</ele><time>2026-03-24T16:58:58.603Z</time></trkpt><trkpt lat="45.3696764" lon="10.8049209"><ele>80.66666666666667</ele><time>2026-03-24T16:58:59.592Z</time></trkpt><trkpt lat="45.3696575" lon="10.8047889"><ele>80.0</ele><time>2026-03-24T16:59:00.598Z</time></trkpt><trkpt lat="45.3696332" lon="10.8046512"><ele>80.0</ele><time>2026-03-24T16:59:01.611Z</time></trkpt><trkpt lat="45.3696113" lon="10.804519"><ele>80.0</ele><time>2026-03-24T16:59:02.597Z</time></trkpt><trkpt lat="45.3695903" lon="10.8043873"><ele>80.0</ele><time>2026-03-24T16:59:03.592Z</time></trkpt><trkpt lat="45.3695727" lon="10.8042542"><ele>80.0</ele><time>2026-03-24T16:59:04.6Z</time></trkpt><trkpt lat="45.3695556" lon="10.8041213"><ele>80.0</ele><time>2026-03-24T16:59:05.597Z</time></trkpt><trkpt lat="45.3695372" lon="10.8039893"><ele>80.0</ele><time>2026-03-24T16:59:06.595Z</time></trkpt><trkpt lat="45.369521" lon="10.8038592"><ele>80.0</ele><time>2026-03-24T16:59:07.595Z</time></trkpt><trkpt lat="45.3695023" lon="10.803726"><ele>80.0</ele><time>2026-03-24T16:59:08.607Z</time></trkpt><trkpt lat="45.3694833" lon="10.8035937"><ele>80.0</ele><time>2026-03-24T16:59:09.616Z</time></trkpt><trkpt lat="45.3694645" lon="10.8034597"><ele>80.0</ele><time>2026-03-24T16:59:10.61Z</time></trkpt><trkpt lat="45.3694472" lon="10.8033213"><ele>80.16666666666667</ele><time>2026-03-24T16:59:11.599Z</time></trkpt><trkpt lat="45.369433" lon="10.8031848"><ele>80.33333333333334</ele><time>2026-03-24T16:59:12.599Z</time></trkpt><trkpt lat="45.3694202" lon="10.8030544"><ele>80.5</ele><time>2026-03-24T16:59:13.612Z</time></trkpt><trkpt lat="45.3694071" lon="10.8029329"><ele>80.66666666666667</ele><time>2026-03-24T16:59:14.595Z</time></trkpt><trkpt lat="45.3693947" lon="10.8028164"><ele>80.83333333333333</ele><time>2026-03-24T16:59:15.599Z</time></trkpt><trkpt lat="45.369384" lon="10.8027038"><ele>81.0</ele><time>2026-03-24T16:59:16.597Z</time></trkpt><trkpt lat="45.3693757" lon="10.802596"><ele>81.14285714285714</ele><time>2026-03-24T16:59:17.599Z</time></trkpt><trkpt lat="45.3693647" lon="10.8024969"><ele>81.28571428571428</ele><time>2026-03-24T16:59:18.598Z</time></trkpt><trkpt lat="45.3693461" lon="10.8024044"><ele>81.42857142857142</ele><time>2026-03-24T16:59:19.603Z</time></trkpt><trkpt lat="45.3693185" lon="10.8023171"><ele>81.57142857142857</ele><time>2026-03-24T16:59:20.606Z</time></trkpt><trkpt lat="45.3692865" lon="10.8022393"><ele>81.71428571428571</ele><time>2026-03-24T16:59:21.598Z</time></trkpt><trkpt lat="45.3692294" lon="10.8021254"><ele>81.85714285714285</ele><time>2026-03-24T16:59:23.6Z</time></trkpt><trkpt lat="45.3691913" lon="10.802053"><ele>82.0</ele><time>2026-03-24T16:59:25.613Z</time></trkpt><trkpt lat="45.3691004" lon="10.8019388"><ele>82.0</ele><time>2026-03-24T16:59:27.605Z</time></trkpt><trkpt lat="45.369025" lon="10.801875"><ele>82.0</ele><time>2026-03-24T16:59:28.601Z</time></trkpt><trkpt lat="45.3689417" lon="10.8018062"><ele>82.0</ele><time>2026-03-24T16:59:29.597Z</time></trkpt><trkpt lat="45.3688639" lon="10.8017384"><ele>82.0</ele><time>2026-03-24T16:59:30.605Z</time></trkpt><trkpt lat="45.3687985" lon="10.801681"><ele>82.0</ele><time>2026-03-24T16:59:31.598Z</time></trkpt><trkpt lat="45.3687406" lon="10.80163"><ele>82.0</ele><time>2026-03-24T16:59:32.591Z</time></trkpt><trkpt lat="45.3686866" lon="10.8015835"><ele>81.19999999999999</ele><time>2026-03-24T16:59:33.604Z</time></trkpt><trkpt lat="45.3686058" lon="10.8015102"><ele>80.39999999999999</ele><time>2026-03-24T16:59:35.599Z</time></trkpt><trkpt lat="45.3685591" lon="10.8014374"><ele>79.6</ele><time>2026-03-24T16:59:42.603Z</time></trkpt><trkpt lat="45.3685125" lon="10.8013626"><ele>78.8</ele><time>2026-03-24T16:59:45.591Z</time></trkpt><trkpt lat="45.3684129" lon="10.8012946"><ele>78.0</ele><time>2026-03-24T16:59:46.608Z</time></trkpt><trkpt lat="45.3683312" lon="10.8011896"><ele>78.0</ele><time>2026-03-24T16:59:48.601Z</time></trkpt><trkpt lat="45.3682506" lon="10.8010751"><ele>78.0</ele><time>2026-03-24T16:59:50.606Z</time></trkpt><trkpt lat="45.3681664" lon="10.8009512"><ele>78.0</ele><time>2026-03-24T16:59:52.59Z</time></trkpt><trkpt lat="45.3681279" lon="10.8008737"><ele>78.0</ele><time>2026-03-24T16:59:53.596Z</time></trkpt><trkpt lat="45.3680941" lon="10.8007858"><ele>78.0</ele><time>2026-03-24T16:59:54.602Z</time></trkpt><trkpt lat="45.3680634" lon="10.8006849"><ele>78.0</ele><time>2026-03-24T16:59:55.599Z</time></trkpt><trkpt lat="45.3680379" lon="10.8005719"><ele>77.33333333333333</ele><time>2026-03-24T16:59:56.591Z</time></trkpt><trkpt lat="45.3680194" lon="10.800449"><ele>76.66666666666667</ele><time>2026-03-24T16:59:57.602Z</time></trkpt><trkpt lat="45.3680096" lon="10.8003282"><ele>76.0</ele><time>2026-03-24T16:59:58.599Z</time></trkpt><trkpt lat="45.3679998" lon="10.800214"><ele>75.33333333333334</ele><time>2026-03-24T16:59:59.605Z</time></trkpt><trkpt lat="45.3679936" lon="10.8000984"><ele>74.66666666666667</ele><time>2026-03-24T17:00:00.601Z</time></trkpt><trkpt lat="45.3679875" lon="10.7999758"><ele>74.0</ele><time>2026-03-24T17:00:01.597Z</time></trkpt><trkpt lat="45.367978" lon="10.7998573"><ele>74.0</ele><time>2026-03-24T17:00:02.6Z</time></trkpt><trkpt lat="45.3679658" lon="10.7997404"><ele>74.0</ele><time>2026-03-24T17:00:03.601Z</time></trkpt><trkpt lat="45.3679529" lon="10.7996214"><ele>74.0</ele><time>2026-03-24T17:00:04.607Z</time></trkpt><trkpt lat="45.367941" lon="10.7995097"><ele>74.0</ele><time>2026-03-24T17:00:05.593Z</time></trkpt><trkpt lat="45.367929" lon="10.7993989"><ele>74.0</ele><time>2026-03-24T17:00:06.604Z</time></trkpt><trkpt lat="45.3679184" lon="10.7992889"><ele>74.0</ele><time>2026-03-24T17:00:07.596Z</time></trkpt><trkpt lat="45.3679074" lon="10.7991788"><ele>74.16666666666667</ele><time>2026-03-24T17:00:08.615Z</time></trkpt><trkpt lat="45.3678939" lon="10.7990678"><ele>74.33333333333334</ele><time>2026-03-24T17:00:09.6Z</time></trkpt><trkpt lat="45.3678816" lon="10.7989536"><ele>74.5</ele><time>2026-03-24T17:00:10.602Z</time></trkpt><trkpt lat="45.3678688" lon="10.7988373"><ele>74.66666666666667</ele><time>2026-03-24T17:00:11.608Z</time></trkpt><trkpt lat="45.3678551" lon="10.7987184"><ele>74.83333333333333</ele><time>2026-03-24T17:00:12.595Z</time></trkpt><trkpt lat="45.3678392" lon="10.7985981"><ele>75.0</ele><time>2026-03-24T17:00:13.601Z</time></trkpt><trkpt lat="45.367821" lon="10.7984803"><ele>75.0</ele><time>2026-03-24T17:00:14.598Z</time></trkpt><trkpt lat="45.3678021" lon="10.7983636"><ele>75.0</ele><time>2026-03-24T17:00:15.619Z</time></trkpt><trkpt lat="45.3677826" lon="10.7982473"><ele>75.0</ele><time>2026-03-24T17:00:16.601Z</time></trkpt><trkpt lat="45.367763" lon="10.7981277"><ele>75.0</ele><time>2026-03-24T17:00:17.595Z</time></trkpt><trkpt lat="45.3677426" lon="10.7980047"><ele>75.0</ele><time>2026-03-24T17:00:18.613Z</time></trkpt><trkpt lat="45.3677221" lon="10.7978809"><ele>75.0</ele><time>2026-03-24T17:00:19.61Z</time></trkpt><trkpt lat="45.3677028" lon="10.7977544"><ele>74.4</ele><time>2026-03-24T17:00:20.6Z</time></trkpt><trkpt lat="45.3676836" lon="10.7976279"><ele>73.8</ele><time>2026-03-24T17:00:21.613Z</time></trkpt><trkpt lat="45.3676658" lon="10.7975074"><ele>73.2</ele><time>2026-03-24T17:00:22.603Z</time></trkpt><trkpt lat="45.3676467" lon="10.7973818"><ele>72.6</ele><time>2026-03-24T17:00:23.599Z</time></trkpt><trkpt lat="45.3676284" lon="10.7972432"><ele>72.0</ele><time>2026-03-24T17:00:24.612Z</time></trkpt><trkpt lat="45.3676112" lon="10.7971018"><ele>72.0</ele><time>2026-03-24T17:00:25.602Z</time></trkpt><trkpt lat="45.367605" lon="10.7969439"><ele>72.0</ele><time>2026-03-24T17:00:26.599Z</time></trkpt><trkpt lat="45.367601" lon="10.796761"><ele>72.0</ele><time>2026-03-24T17:00:27.61Z</time></trkpt><trkpt lat="45.3675936" lon="10.7965627"><ele>72.0</ele><time>2026-03-24T17:00:28.601Z</time></trkpt><trkpt lat="45.3675876" lon="10.796353"><ele>72.0</ele><time>2026-03-24T17:00:29.617Z</time></trkpt><trkpt lat="45.3675827" lon="10.7961447"><ele>72.0</ele><time>2026-03-24T17:00:30.607Z</time></trkpt><trkpt lat="45.3675777" lon="10.7959329"><ele>72.0</ele><time>2026-03-24T17:00:31.605Z</time></trkpt><trkpt lat="45.3675704" lon="10.7957242"><ele>72.0</ele><time>2026-03-24T17:00:32.594Z</time></trkpt><trkpt lat="45.3675622" lon="10.7955144"><ele>72.25</ele><time>2026-03-24T17:00:33.595Z</time></trkpt><trkpt lat="45.3675562" lon="10.7953085"><ele>72.5</ele><time>2026-03-24T17:00:34.594Z</time></trkpt><trkpt lat="45.3675541" lon="10.7951042"><ele>72.75</ele><time>2026-03-24T17:00:35.592Z</time></trkpt><trkpt lat="45.3675607" lon="10.7949006"><ele>73.0</ele><time>2026-03-24T17:00:36.602Z</time></trkpt><trkpt lat="45.3675746" lon="10.7946983"><ele>73.0</ele><time>2026-03-24T17:00:37.596Z</time></trkpt><trkpt lat="45.3675902" lon="10.7944959"><ele>73.0</ele><time>2026-03-24T17:00:38.603Z</time></trkpt><trkpt lat="45.3676042" lon="10.7942949"><ele>73.0</ele><time>2026-03-24T17:00:39.594Z</time></trkpt><trkpt lat="45.3676181" lon="10.794093"><ele>73.0</ele><time>2026-03-24T17:00:40.598Z</time></trkpt><trkpt lat="45.3676336" lon="10.7938926"><ele>73.0</ele><time>2026-03-24T17:00:41.594Z</time></trkpt><trkpt lat="45.3676512" lon="10.7936908"><ele>73.0</ele><time>2026-03-24T17:00:42.592Z</time></trkpt><trkpt lat="45.3676702" lon="10.793488"><ele>73.0</ele><time>2026-03-24T17:00:43.599Z</time></trkpt><trkpt lat="45.3676926" lon="10.7932869"><ele>73.0</ele><time>2026-03-24T17:00:44.597Z</time></trkpt><trkpt lat="45.3677168" lon="10.7930874"><ele>73.0</ele><time>2026-03-24T17:00:45.591Z</time></trkpt><trkpt lat="45.3677434" lon="10.7928899"><ele>73.0</ele><time>2026-03-24T17:00:46.595Z</time></trkpt><trkpt lat="45.3677708" lon="10.7926999"><ele>73.0</ele><time>2026-03-24T17:00:47.592Z</time></trkpt><trkpt lat="45.3677984" lon="10.7925137"><ele>73.0</ele><time>2026-03-24T17:00:48.611Z</time></trkpt><trkpt lat="45.3678262" lon="10.7923317"><ele>73.25</ele><time>2026-03-24T17:00:49.593Z</time></trkpt><trkpt lat="45.3678558" lon="10.7921491"><ele>73.5</ele><time>2026-03-24T17:00:50.593Z</time></trkpt><trkpt lat="45.3678859" lon="10.791967"><ele>73.75</ele><time>2026-03-24T17:00:51.606Z</time></trkpt><trkpt lat="45.3679191" lon="10.7917867"><ele>74.0</ele><time>2026-03-24T17:00:52.598Z</time></trkpt><trkpt lat="45.3679583" lon="10.791607"><ele>74.0</ele><time>2026-03-24T17:00:53.591Z</time></trkpt><trkpt lat="45.3680017" lon="10.7914267"><ele>74.0</ele><time>2026-03-24T17:00:54.605Z</time></trkpt><trkpt lat="45.3680465" lon="10.7912485"><ele>74.0</ele><time>2026-03-24T17:00:55.598Z</time></trkpt><trkpt lat="45.3680931" lon="10.7910685"><ele>74.0</ele><time>2026-03-24T17:00:56.606Z</time></trkpt><trkpt lat="45.3681401" lon="10.7908887"><ele>74.0</ele><time>2026-03-24T17:00:57.614Z</time></trkpt><trkpt lat="45.3681854" lon="10.7907081"><ele>74.0</ele><time>2026-03-24T17:00:58.597Z</time></trkpt><trkpt lat="45.3682315" lon="10.7905249"><ele>74.0</ele><time>2026-03-24T17:00:59.599Z</time></trkpt><trkpt lat="45.3682779" lon="10.7903403"><ele>74.0</ele><time>2026-03-24T17:01:00.616Z</time></trkpt><trkpt lat="45.3683232" lon="10.7901595"><ele>74.0</ele><time>2026-03-24T17:01:01.599Z</time></trkpt><trkpt lat="45.3683672" lon="10.7899831"><ele>74.0</ele><time>2026-03-24T17:01:02.603Z</time></trkpt><trkpt lat="45.3684081" lon="10.789816"><ele>74.0</ele><time>2026-03-24T17:01:03.596Z</time></trkpt><trkpt lat="45.3684457" lon="10.7896535"><ele>74.0</ele><time>2026-03-24T17:01:04.595Z</time></trkpt><trkpt lat="45.3684831" lon="10.7894912"><ele>74.0</ele><time>2026-03-24T17:01:05.618Z</time></trkpt><trkpt lat="45.3685215" lon="10.789332"><ele>74.0</ele><time>2026-03-24T17:01:06.603Z</time></trkpt><trkpt lat="45.3685684" lon="10.7891715"><ele>74.0</ele><time>2026-03-24T17:01:07.603Z</time></trkpt><trkpt lat="45.3686299" lon="10.789015"><ele>74.0</ele><time>2026-03-24T17:01:08.599Z</time></trkpt><trkpt lat="45.3687105" lon="10.7888691"><ele>74.0</ele><time>2026-03-24T17:01:09.606Z</time></trkpt><trkpt lat="45.3688111" lon="10.7887449"><ele>74.0</ele><time>2026-03-24T17:01:10.622Z</time></trkpt><trkpt lat="45.3689253" lon="10.7886459"><ele>74.0</ele><time>2026-03-24T17:01:11.593Z</time></trkpt><trkpt lat="45.369049" lon="10.7885544"><ele>74.0</ele><time>2026-03-24T17:01:12.614Z</time></trkpt><trkpt lat="45.3691704" lon="10.7884617"><ele>74.25</ele><time>2026-03-24T17:01:13.61Z</time></trkpt><trkpt lat="45.3692902" lon="10.7883627"><ele>74.5</ele><time>2026-03-24T17:01:14.6Z</time></trkpt><trkpt lat="45.3694096" lon="10.7882596"><ele>74.75</ele><time>2026-03-24T17:01:15.608Z</time></trkpt><trkpt lat="45.3695266" lon="10.7881544"><ele>75.0</ele><time>2026-03-24T17:01:16.608Z</time></trkpt><trkpt lat="45.369642" lon="10.7880472"><ele>75.5</ele><time>2026-03-24T17:01:17.605Z</time></trkpt><trkpt lat="45.3697549" lon="10.7879399"><ele>76.0</ele><time>2026-03-24T17:01:18.59Z</time></trkpt><trkpt lat="45.3698683" lon="10.7878326"><ele>76.5</ele><time>2026-03-24T17:01:19.599Z</time></trkpt><trkpt lat="45.3699817" lon="10.7877271"><ele>77.0</ele><time>2026-03-24T17:01:20.602Z</time></trkpt><trkpt lat="45.3700957" lon="10.7876231"><ele>77.0</ele><time>2026-03-24T17:01:21.604Z</time></trkpt><trkpt lat="45.3702108" lon="10.7875233"><ele>77.0</ele><time>2026-03-24T17:01:22.591Z</time></trkpt><trkpt lat="45.3703305" lon="10.7874313"><ele>77.0</ele><time>2026-03-24T17:01:23.601Z</time></trkpt><trkpt lat="45.3704542" lon="10.7873496"><ele>77.0</ele><time>2026-03-24T17:01:24.594Z</time></trkpt><trkpt lat="45.370581" lon="10.7872742"><ele>77.5</ele><time>2026-03-24T17:01:25.599Z</time></trkpt><trkpt lat="45.3707062" lon="10.7871953"><ele>78.0</ele><time>2026-03-24T17:01:26.605Z</time></trkpt><trkpt lat="45.3708284" lon="10.7871071"><ele>78.5</ele><time>2026-03-24T17:01:27.604Z</time></trkpt><trkpt lat="45.3709479" lon="10.7870115"><ele>79.0</ele><time>2026-03-24T17:01:28.599Z</time></trkpt><trkpt lat="45.3710653" lon="10.7869177"><ele>78.0</ele><time>2026-03-24T17:01:29.6Z</time></trkpt><trkpt lat="45.3711833" lon="10.786834"><ele>77.0</ele><time>2026-03-24T17:01:30.611Z</time></trkpt><trkpt lat="45.3713066" lon="10.7867666"><ele>76.0</ele><time>2026-03-24T17:01:31.625Z</time></trkpt><trkpt lat="45.3714338" lon="10.7867216"><ele>75.0</ele><time>2026-03-24T17:01:32.599Z</time></trkpt><trkpt lat="45.3715643" lon="10.786683"><ele>75.0</ele><time>2026-03-24T17:01:33.593Z</time></trkpt><trkpt lat="45.3716962" lon="10.7866469"><ele>75.0</ele><time>2026-03-24T17:01:34.614Z</time></trkpt><trkpt lat="45.3718281" lon="10.7866122"><ele>75.0</ele><time>2026-03-24T17:01:35.598Z</time></trkpt><trkpt lat="45.3719617" lon="10.7865783"><ele>75.0</ele><time>2026-03-24T17:01:36.612Z</time></trkpt><trkpt lat="45.3720928" lon="10.7865478"><ele>76.0</ele><time>2026-03-24T17:01:37.619Z</time></trkpt><trkpt lat="45.3722195" lon="10.7865211"><ele>77.0</ele><time>2026-03-24T17:01:38.615Z</time></trkpt><trkpt lat="45.3723425" lon="10.7865026"><ele>78.0</ele><time>2026-03-24T17:01:39.606Z</time></trkpt><trkpt lat="45.3724613" lon="10.7864969"><ele>79.0</ele><time>2026-03-24T17:01:40.617Z</time></trkpt><trkpt lat="45.3725731" lon="10.7865007"><ele>79.0</ele><time>2026-03-24T17:01:41.599Z</time></trkpt><trkpt lat="45.3726783" lon="10.7865087"><ele>79.0</ele><time>2026-03-24T17:01:42.613Z</time></trkpt><trkpt lat="45.3727719" lon="10.786519"><ele>79.0</ele><time>2026-03-24T17:01:43.594Z</time></trkpt><trkpt lat="45.3728575" lon="10.7865322"><ele>79.0</ele><time>2026-03-24T17:01:44.605Z</time></trkpt><trkpt lat="45.3729306" lon="10.7865499"><ele>79.0</ele><time>2026-03-24T17:01:45.605Z</time></trkpt><trkpt lat="45.3730163" lon="10.7866016"><ele>80.6</ele><time>2026-03-24T17:01:47.603Z</time></trkpt><trkpt lat="45.3730835" lon="10.7866093"><ele>82.2</ele><time>2026-03-24T17:01:52.597Z</time></trkpt><trkpt lat="45.3731903" lon="10.7865019"><ele>83.8</ele><time>2026-03-24T17:01:54.622Z</time></trkpt><trkpt lat="45.3732557" lon="10.7864255"><ele>85.39999999999999</ele><time>2026-03-24T17:01:55.607Z</time></trkpt><trkpt lat="45.3733279" lon="10.7863454"><ele>87.0</ele><time>2026-03-24T17:01:56.599Z</time></trkpt><trkpt lat="45.3734021" lon="10.7862685"><ele>87.0</ele><time>2026-03-24T17:01:57.595Z</time></trkpt><trkpt lat="45.3734704" lon="10.7861994"><ele>87.0</ele><time>2026-03-24T17:01:58.595Z</time></trkpt><trkpt lat="45.373532" lon="10.7861422"><ele>87.0</ele><time>2026-03-24T17:01:59.602Z</time></trkpt><trkpt lat="45.3736524" lon="10.7861179"><ele>87.0</ele><time>2026-03-24T17:02:01.626Z</time></trkpt><trkpt lat="45.3737115" lon="10.7861668"><ele>87.0</ele><time>2026-03-24T17:02:02.595Z</time></trkpt><trkpt lat="45.3737664" lon="10.7862545"><ele>87.0</ele><time>2026-03-24T17:02:03.615Z</time></trkpt><trkpt lat="45.3738194" lon="10.7863573"><ele>87.19999999999999</ele><time>2026-03-24T17:02:04.603Z</time></trkpt><trkpt lat="45.3738862" lon="10.7864478"><ele>87.4</ele><time>2026-03-24T17:02:05.598Z</time></trkpt><trkpt lat="45.3739721" lon="10.7865089"><ele>87.6</ele><time>2026-03-24T17:02:06.59Z</time></trkpt><trkpt lat="45.3740805" lon="10.7865311"><ele>87.80000000000001</ele><time>2026-03-24T17:02:07.591Z</time></trkpt><trkpt lat="45.3742026" lon="10.7865366"><ele>88.0</ele><time>2026-03-24T17:02:08.591Z</time></trkpt><trkpt lat="45.3743325" lon="10.7865448"><ele>88.0</ele><time>2026-03-24T17:02:09.593Z</time></trkpt><trkpt lat="45.3744684" lon="10.7865707"><ele>88.0</ele><time>2026-03-24T17:02:10.59Z</time></trkpt><trkpt lat="45.3746117" lon="10.7866101"><ele>88.0</ele><time>2026-03-24T17:02:11.594Z</time></trkpt><trkpt lat="45.3747604" lon="10.7866442"><ele>88.0</ele><time>2026-03-24T17:02:12.609Z</time></trkpt><trkpt lat="45.3749102" lon="10.7866729"><ele>87.0</ele><time>2026-03-24T17:02:13.6Z</time></trkpt><trkpt lat="45.3750626" lon="10.7867005"><ele>86.0</ele><time>2026-03-24T17:02:14.59Z</time></trkpt><trkpt lat="45.3752188" lon="10.7867285"><ele>85.0</ele><time>2026-03-24T17:02:15.598Z</time></trkpt><trkpt lat="45.3753764" lon="10.7867521"><ele>85.0</ele><time>2026-03-24T17:02:16.594Z</time></trkpt><trkpt lat="45.3755367" lon="10.7867604"><ele>85.0</ele><time>2026-03-24T17:02:17.598Z</time></trkpt><trkpt lat="45.3756974" lon="10.7867465"><ele>85.0</ele><time>2026-03-24T17:02:18.593Z</time></trkpt><trkpt lat="45.37586" lon="10.7867182"><ele>85.0</ele><time>2026-03-24T17:02:19.592Z</time></trkpt><trkpt lat="45.3760263" lon="10.7866914"><ele>85.0</ele><time>2026-03-24T17:02:20.597Z</time></trkpt><trkpt lat="45.3761959" lon="10.7866679"><ele>85.0</ele><time>2026-03-24T17:02:21.597Z</time></trkpt><trkpt lat="45.3763663" lon="10.7866472"><ele>86.0</ele><time>2026-03-24T17:02:22.59Z</time></trkpt><trkpt lat="45.3765357" lon="10.786622"><ele>87.0</ele><time>2026-03-24T17:02:23.59Z</time></trkpt><trkpt lat="45.3767014" lon="10.7865819"><ele>88.0</ele><time>2026-03-24T17:02:24.6Z</time></trkpt><trkpt lat="45.3768599" lon="10.786521"><ele>88.0</ele><time>2026-03-24T17:02:25.59Z</time></trkpt><trkpt lat="45.3770174" lon="10.7864494"><ele>88.0</ele><time>2026-03-24T17:02:26.596Z</time></trkpt><trkpt lat="45.3771749" lon="10.7863818"><ele>88.0</ele><time>2026-03-24T17:02:27.59Z</time></trkpt><trkpt lat="45.377335" lon="10.7863202"><ele>89.66666666666666</ele><time>2026-03-24T17:02:28.591Z</time></trkpt><trkpt lat="45.3774942" lon="10.786266"><ele>91.33333333333333</ele><time>2026-03-24T17:02:29.592Z</time></trkpt><trkpt lat="45.3776456" lon="10.7862182"><ele>93.0</ele><time>2026-03-24T17:02:30.604Z</time></trkpt><trkpt lat="45.377784" lon="10.7861751"><ele>93.0</ele><time>2026-03-24T17:02:31.591Z</time></trkpt><trkpt lat="45.3779136" lon="10.7861334"><ele>93.0</ele><time>2026-03-24T17:02:32.592Z</time></trkpt><trkpt lat="45.3780356" lon="10.7860905"><ele>93.0</ele><time>2026-03-24T17:02:33.59Z</time></trkpt><trkpt lat="45.3781561" lon="10.7860479"><ele>93.0</ele><time>2026-03-24T17:02:34.595Z</time></trkpt><trkpt lat="45.3782778" lon="10.7860131"><ele>90.75</ele><time>2026-03-24T17:02:35.597Z</time></trkpt><trkpt lat="45.3784002" lon="10.7859811"><ele>88.5</ele><time>2026-03-24T17:02:36.592Z</time></trkpt><trkpt lat="45.3785216" lon="10.785948"><ele>86.25</ele><time>2026-03-24T17:02:37.59Z</time></trkpt><trkpt lat="45.3786444" lon="10.7859062"><ele>84.0</ele><time>2026-03-24T17:02:38.599Z</time></trkpt><trkpt lat="45.3787729" lon="10.7858674"><ele>86.0</ele><time>2026-03-24T17:02:39.589Z</time></trkpt><trkpt lat="45.3789006" lon="10.7858169"><ele>88.0</ele><time>2026-03-24T17:02:40.601Z</time></trkpt><trkpt lat="45.3790203" lon="10.7857553"><ele>90.0</ele><time>2026-03-24T17:02:41.598Z</time></trkpt><trkpt lat="45.3791318" lon="10.7856876"><ele>92.0</ele><time>2026-03-24T17:02:42.587Z</time></trkpt><trkpt lat="45.3792408" lon="10.7856198"><ele>92.0</ele><time>2026-03-24T17:02:43.604Z</time></trkpt><trkpt lat="45.3793405" lon="10.7855581"><ele>92.0</ele><time>2026-03-24T17:02:44.596Z</time></trkpt><trkpt lat="45.3794369" lon="10.7854973"><ele>92.0</ele><time>2026-03-24T17:02:45.591Z</time></trkpt><trkpt lat="45.3795309" lon="10.7854413"><ele>92.0</ele><time>2026-03-24T17:02:46.591Z</time></trkpt><trkpt lat="45.3796357" lon="10.7853775"><ele>92.0</ele><time>2026-03-24T17:02:47.595Z</time></trkpt><trkpt lat="45.3797424" lon="10.7853136"><ele>91.0</ele><time>2026-03-24T17:02:48.608Z</time></trkpt><trkpt lat="45.3798438" lon="10.785249"><ele>90.0</ele><time>2026-03-24T17:02:49.626Z</time></trkpt><trkpt lat="45.3799323" lon="10.7851834"><ele>89.0</ele><time>2026-03-24T17:02:50.6Z</time></trkpt><trkpt lat="45.380017" lon="10.7851137"><ele>88.0</ele><time>2026-03-24T17:02:51.589Z</time></trkpt><trkpt lat="45.3800935" lon="10.7850392"><ele>87.0</ele><time>2026-03-24T17:02:52.606Z</time></trkpt><trkpt lat="45.3801609" lon="10.7849683"><ele>86.0</ele><time>2026-03-24T17:02:53.602Z</time></trkpt><trkpt lat="45.3802135" lon="10.784898"><ele>85.0</ele><time>2026-03-24T17:02:54.601Z</time></trkpt><trkpt lat="45.3802755" lon="10.7847633"><ele>84.0</ele><time>2026-03-24T17:02:56.593Z</time></trkpt><trkpt lat="45.3803261" lon="10.7846673"><ele>83.0</ele><time>2026-03-24T17:02:58.601Z</time></trkpt><trkpt lat="45.3804105" lon="10.7846791"><ele>82.0</ele><time>2026-03-24T17:03:00.61Z</time></trkpt><trkpt lat="45.3804791" lon="10.7847341"><ele>81.0</ele><time>2026-03-24T17:03:01.595Z</time></trkpt><trkpt lat="45.3805606" lon="10.7848012"><ele>81.0</ele><time>2026-03-24T17:03:02.595Z</time></trkpt><trkpt lat="45.3806535" lon="10.7848719"><ele>81.0</ele><time>2026-03-24T17:03:03.601Z</time></trkpt><trkpt lat="45.3807538" lon="10.7849481"><ele>81.0</ele><time>2026-03-24T17:03:04.593Z</time></trkpt><trkpt lat="45.3808615" lon="10.7850299"><ele>81.0</ele><time>2026-03-24T17:03:05.596Z</time></trkpt><trkpt lat="45.3809746" lon="10.7851109"><ele>80.75</ele><time>2026-03-24T17:03:06.605Z</time></trkpt><trkpt lat="45.3810902" lon="10.7851922"><ele>80.5</ele><time>2026-03-24T17:03:07.608Z</time></trkpt><trkpt lat="45.3812105" lon="10.7852694"><ele>80.25</ele><time>2026-03-24T17:03:08.607Z</time></trkpt><trkpt lat="45.3813348" lon="10.7853409"><ele>80.0</ele><time>2026-03-24T17:03:09.604Z</time></trkpt><trkpt lat="45.38146" lon="10.7854079"><ele>79.75</ele><time>2026-03-24T17:03:10.602Z</time></trkpt><trkpt lat="45.3815882" lon="10.785472"><ele>79.5</ele><time>2026-03-24T17:03:11.594Z</time></trkpt><trkpt lat="45.3817171" lon="10.7855325"><ele>79.25</ele><time>2026-03-24T17:03:12.596Z</time></trkpt><trkpt lat="45.3818436" lon="10.7855899"><ele>79.0</ele><time>2026-03-24T17:03:13.594Z</time></trkpt><trkpt lat="45.3819664" lon="10.7856482"><ele>79.0</ele><time>2026-03-24T17:03:14.603Z</time></trkpt><trkpt lat="45.3820833" lon="10.785706"><ele>79.0</ele><time>2026-03-24T17:03:15.602Z</time></trkpt><trkpt lat="45.3821945" lon="10.7857611"><ele>79.0</ele><time>2026-03-24T17:03:16.611Z</time></trkpt><trkpt lat="45.3822998" lon="10.7858132"><ele>79.0</ele><time>2026-03-24T17:03:17.623Z</time></trkpt><trkpt lat="45.3823976" lon="10.7858606"><ele>79.0</ele><time>2026-03-24T17:03:18.597Z</time></trkpt><trkpt lat="45.3824894" lon="10.7859043"><ele>79.0</ele><time>2026-03-24T17:03:19.601Z</time></trkpt><trkpt lat="45.3825711" lon="10.7859445"><ele>79.0</ele><time>2026-03-24T17:03:20.607Z</time></trkpt><trkpt lat="45.3826431" lon="10.7859814"><ele>79.0</ele><time>2026-03-24T17:03:21.591Z</time></trkpt><trkpt lat="45.3827062" lon="10.7860117"><ele>79.0</ele><time>2026-03-24T17:03:22.595Z</time></trkpt><trkpt lat="45.3828215" lon="10.7860208"><ele>79.0</ele><time>2026-03-24T17:03:24.604Z</time></trkpt><trkpt lat="45.3828778" lon="10.7859629"><ele>78.83333333333333</ele><time>2026-03-24T17:03:25.608Z</time></trkpt><trkpt lat="45.3829371" lon="10.7858821"><ele>78.66666666666666</ele><time>2026-03-24T17:03:26.601Z</time></trkpt><trkpt lat="45.3830029" lon="10.785795"><ele>78.5</ele><time>2026-03-24T17:03:27.603Z</time></trkpt><trkpt lat="45.3830745" lon="10.7857131"><ele>78.33333333333333</ele><time>2026-03-24T17:03:28.607Z</time></trkpt><trkpt lat="45.3831443" lon="10.7856335"><ele>78.16666666666667</ele><time>2026-03-24T17:03:29.597Z</time></trkpt><trkpt lat="45.3832142" lon="10.7855525"><ele>78.0</ele><time>2026-03-24T17:03:30.6Z</time></trkpt><trkpt lat="45.3832859" lon="10.7854598"><ele>78.0</ele><time>2026-03-24T17:03:31.604Z</time></trkpt><trkpt lat="45.383366" lon="10.7853602"><ele>78.0</ele><time>2026-03-24T17:03:32.606Z</time></trkpt><trkpt lat="45.3834566" lon="10.7852559"><ele>78.0</ele><time>2026-03-24T17:03:33.629Z</time></trkpt><trkpt lat="45.3835544" lon="10.7851471"><ele>78.0</ele><time>2026-03-24T17:03:34.601Z</time></trkpt><trkpt lat="45.3836548" lon="10.785031"><ele>78.0</ele><time>2026-03-24T17:03:35.632Z</time></trkpt><trkpt lat="45.3837472" lon="10.7849232"><ele>78.0</ele><time>2026-03-24T17:03:36.593Z</time></trkpt><trkpt lat="45.3838329" lon="10.784823"><ele>78.0</ele><time>2026-03-24T17:03:37.596Z</time></trkpt><trkpt lat="45.3839088" lon="10.784734"><ele>78.0</ele><time>2026-03-24T17:03:38.598Z</time></trkpt><trkpt lat="45.3839741" lon="10.7846576"><ele>78.0</ele><time>2026-03-24T17:03:39.607Z</time></trkpt><trkpt lat="45.3840276" lon="10.7845978"><ele>78.0</ele><time>2026-03-24T17:03:40.597Z</time></trkpt><trkpt lat="45.3841228" lon="10.7845738"><ele>78.0</ele><time>2026-03-24T17:03:42.595Z</time></trkpt><trkpt lat="45.3841961" lon="10.7846923"><ele>78.0</ele><time>2026-03-24T17:03:44.612Z</time></trkpt><trkpt lat="45.3842236" lon="10.7848181"><ele>78.0</ele><time>2026-03-24T17:03:45.605Z</time></trkpt><trkpt lat="45.3842543" lon="10.7849555"><ele>78.0</ele><time>2026-03-24T17:03:46.606Z</time></trkpt><trkpt lat="45.3842884" lon="10.7851"><ele>78.0</ele><time>2026-03-24T17:03:47.603Z</time></trkpt><trkpt lat="45.3843248" lon="10.7852509"><ele>78.0</ele><time>2026-03-24T17:03:48.596Z</time></trkpt><trkpt lat="45.3843608" lon="10.7854"><ele>78.0</ele><time>2026-03-24T17:03:49.596Z</time></trkpt><trkpt lat="45.3843979" lon="10.7855406"><ele>78.0</ele><time>2026-03-24T17:03:50.603Z</time></trkpt><trkpt lat="45.3844358" lon="10.7856707"><ele>78.0</ele><time>2026-03-24T17:03:51.603Z</time></trkpt><trkpt lat="45.3844765" lon="10.7857911"><ele>78.0</ele><time>2026-03-24T17:03:52.598Z</time></trkpt><trkpt lat="45.3845199" lon="10.7859024"><ele>78.0</ele><time>2026-03-24T17:03:53.602Z</time></trkpt><trkpt lat="45.384567" lon="10.7860044"><ele>78.0</ele><time>2026-03-24T17:03:54.593Z</time></trkpt><trkpt lat="45.3846209" lon="10.7860968"><ele>78.0</ele><time>2026-03-24T17:03:55.607Z</time></trkpt><trkpt lat="45.3846784" lon="10.7861815"><ele>78.0</ele><time>2026-03-24T17:03:56.606Z</time></trkpt><trkpt lat="45.3847353" lon="10.7862652"><ele>78.0</ele><time>2026-03-24T17:03:57.6Z</time></trkpt><trkpt lat="45.3847901" lon="10.7863489"><ele>78.0</ele><time>2026-03-24T17:03:58.588Z</time></trkpt><trkpt lat="45.3848454" lon="10.7864328"><ele>78.0</ele><time>2026-03-24T17:03:59.601Z</time></trkpt><trkpt lat="45.3848994" lon="10.7865146"><ele>78.0</ele><time>2026-03-24T17:04:00.608Z</time></trkpt><trkpt lat="45.3849525" lon="10.7865895"><ele>78.0</ele><time>2026-03-24T17:04:01.591Z</time></trkpt><trkpt lat="45.3850022" lon="10.7866544"><ele>78.0</ele><time>2026-03-24T17:04:02.603Z</time></trkpt><trkpt lat="45.3850917" lon="10.7867641"><ele>78.0</ele><time>2026-03-24T17:04:04.598Z</time></trkpt><trkpt lat="45.3851773" lon="10.7868618"><ele>78.0</ele><time>2026-03-24T17:04:06.597Z</time></trkpt><trkpt lat="45.3852695" lon="10.7869513"><ele>78.0</ele><time>2026-03-24T17:04:08.595Z</time></trkpt><trkpt lat="45.3853616" lon="10.7869807"><ele>78.0</ele><time>2026-03-24T17:04:10.607Z</time></trkpt><trkpt lat="45.3854437" lon="10.7868643"><ele>78.0</ele><time>2026-03-24T17:04:12.617Z</time></trkpt><trkpt lat="45.385486" lon="10.786755"><ele>78.0</ele><time>2026-03-24T17:04:13.616Z</time></trkpt><trkpt lat="45.3855344" lon="10.7866316"><ele>77.8</ele><time>2026-03-24T17:04:14.606Z</time></trkpt><trkpt lat="45.3855884" lon="10.7864981"><ele>77.6</ele><time>2026-03-24T17:04:15.595Z</time></trkpt><trkpt lat="45.3856452" lon="10.78636"><ele>77.4</ele><time>2026-03-24T17:04:16.601Z</time></trkpt><trkpt lat="45.3856977" lon="10.7862284"><ele>77.2</ele><time>2026-03-24T17:04:17.593Z</time></trkpt><trkpt lat="45.3857465" lon="10.7861052"><ele>77.0</ele><time>2026-03-24T17:04:18.606Z</time></trkpt><trkpt lat="45.3857968" lon="10.7859963"><ele>77.0</ele><time>2026-03-24T17:04:19.598Z</time></trkpt><trkpt lat="45.3858578" lon="10.7859036"><ele>77.0</ele><time>2026-03-24T17:04:20.593Z</time></trkpt><trkpt lat="45.3859233" lon="10.7858175"><ele>77.0</ele><time>2026-03-24T17:04:21.598Z</time></trkpt><trkpt lat="45.3859853" lon="10.7857281"><ele>77.0</ele><time>2026-03-24T17:04:22.599Z</time></trkpt><trkpt lat="45.3860413" lon="10.7856344"><ele>77.0</ele><time>2026-03-24T17:04:23.598Z</time></trkpt><trkpt lat="45.3860967" lon="10.7855416"><ele>77.0</ele><time>2026-03-24T17:04:24.589Z</time></trkpt><trkpt lat="45.3861521" lon="10.785447"><ele>77.0</ele><time>2026-03-24T17:04:25.595Z</time></trkpt><trkpt lat="45.3862086" lon="10.785355"><ele>77.0</ele><time>2026-03-24T17:04:26.599Z</time></trkpt><trkpt lat="45.3862641" lon="10.7852652"><ele>77.0</ele><time>2026-03-24T17:04:27.597Z</time></trkpt><trkpt lat="45.3863163" lon="10.7851793"><ele>77.0</ele><time>2026-03-24T17:04:28.593Z</time></trkpt><trkpt lat="45.3863632" lon="10.7851021"><ele>77.0</ele><time>2026-03-24T17:04:29.602Z</time></trkpt><trkpt lat="45.3864093" lon="10.7850409"><ele>77.0</ele><time>2026-03-24T17:04:30.611Z</time></trkpt><trkpt lat="45.3865067" lon="10.7850003"><ele>77.83333333333334</ele><time>2026-03-24T17:04:32.596Z</time></trkpt><trkpt lat="45.3865738" lon="10.7851183"><ele>78.66666666666667</ele><time>2026-03-24T17:04:34.595Z</time></trkpt><trkpt lat="45.3866069" lon="10.7852485"><ele>79.5</ele><time>2026-03-24T17:04:36.609Z</time></trkpt><trkpt lat="45.3866284" lon="10.7853358"><ele>80.33333333333333</ele><time>2026-03-24T17:04:39.597Z</time></trkpt><trkpt lat="45.3866647" lon="10.7854196"><ele>81.16666666666666</ele><time>2026-03-24T17:04:54.607Z</time></trkpt><trkpt lat="45.3867308" lon="10.7855462"><ele>82.0</ele><time>2026-03-24T17:04:55.598Z</time></trkpt><trkpt lat="45.3868009" lon="10.7856535"><ele>82.0</ele><time>2026-03-24T17:04:56.598Z</time></trkpt><trkpt lat="45.386865" lon="10.7857315"><ele>82.0</ele><time>2026-03-24T17:04:57.598Z</time></trkpt><trkpt lat="45.3869273" lon="10.7857916"><ele>82.0</ele><time>2026-03-24T17:04:58.603Z</time></trkpt><trkpt lat="45.3869952" lon="10.7858304"><ele>82.0</ele><time>2026-03-24T17:04:59.597Z</time></trkpt><trkpt lat="45.3870719" lon="10.7858526"><ele>82.0</ele><time>2026-03-24T17:05:00.592Z</time></trkpt><trkpt lat="45.3871588" lon="10.785865"><ele>82.0</ele><time>2026-03-24T17:05:01.595Z</time></trkpt><trkpt lat="45.38725" lon="10.7858655"><ele>83.19999999999999</ele><time>2026-03-24T17:05:02.597Z</time></trkpt><trkpt lat="45.3873451" lon="10.7858564"><ele>84.4</ele><time>2026-03-24T17:05:03.592Z</time></trkpt><trkpt lat="45.3874371" lon="10.7858489"><ele>85.6</ele><time>2026-03-24T17:05:04.591Z</time></trkpt><trkpt lat="45.3875259" lon="10.7858432"><ele>86.80000000000001</ele><time>2026-03-24T17:05:05.59Z</time></trkpt><trkpt lat="45.3876176" lon="10.785841"><ele>88.0</ele><time>2026-03-24T17:05:06.591Z</time></trkpt><trkpt lat="45.3877117" lon="10.7858441"><ele>88.0</ele><time>2026-03-24T17:05:07.588Z</time></trkpt><trkpt lat="45.3878069" lon="10.7858638"><ele>88.0</ele><time>2026-03-24T17:05:08.594Z</time></trkpt><trkpt lat="45.3878975" lon="10.7859027"><ele>88.0</ele><time>2026-03-24T17:05:09.606Z</time></trkpt><trkpt lat="45.3879858" lon="10.7859413"><ele>88.0</ele><time>2026-03-24T17:05:10.594Z</time></trkpt><trkpt lat="45.3880758" lon="10.7859766"><ele>88.0</ele><time>2026-03-24T17:05:11.592Z</time></trkpt><trkpt lat="45.3881598" lon="10.785999"><ele>88.16666666666666</ele><time>2026-03-24T17:05:12.591Z</time></trkpt><trkpt lat="45.3882338" lon="10.7860065"><ele>88.33333333333333</ele><time>2026-03-24T17:05:13.597Z</time></trkpt><trkpt lat="45.3883487" lon="10.7859787"><ele>88.5</ele><time>2026-03-24T17:05:15.599Z</time></trkpt><trkpt lat="45.3884306" lon="10.7859243"><ele>88.66666666666667</ele><time>2026-03-24T17:05:17.596Z</time></trkpt><trkpt lat="45.3884912" lon="10.7858909"><ele>88.83333333333334</ele><time>2026-03-24T17:05:19.598Z</time></trkpt><trkpt lat="45.3885871" lon="10.7859022"><ele>89.0</ele><time>2026-03-24T17:05:22.594Z</time></trkpt><trkpt lat="45.3886356" lon="10.7859814"><ele>87.33333333333334</ele><time>2026-03-24T17:05:24.608Z</time></trkpt><trkpt lat="45.3886869" lon="10.7861154"><ele>85.66666666666667</ele><time>2026-03-24T17:05:26.594Z</time></trkpt><trkpt lat="45.3887711" lon="10.7861845"><ele>84.0</ele><time>2026-03-24T17:05:28.603Z</time></trkpt><trkpt lat="45.388835" lon="10.7861669"><ele>82.33333333333333</ele><time>2026-03-24T17:05:29.59Z</time></trkpt><trkpt lat="45.3889062" lon="10.7861304"><ele>80.66666666666666</ele><time>2026-03-24T17:05:30.594Z</time></trkpt><trkpt lat="45.3889838" lon="10.7860897"><ele>79.0</ele><time>2026-03-24T17:05:31.594Z</time></trkpt><trkpt lat="45.3890623" lon="10.7860533"><ele>78.71428571428572</ele><time>2026-03-24T17:05:32.596Z</time></trkpt><trkpt lat="45.3891387" lon="10.786021"><ele>78.42857142857143</ele><time>2026-03-24T17:05:33.589Z</time></trkpt><trkpt lat="45.3892125" lon="10.7859885"><ele>78.14285714285714</ele><time>2026-03-24T17:05:34.592Z</time></trkpt><trkpt lat="45.3892843" lon="10.785956"><ele>77.85714285714286</ele><time>2026-03-24T17:05:35.593Z</time></trkpt><trkpt lat="45.3893539" lon="10.7859231"><ele>77.57142857142857</ele><time>2026-03-24T17:05:36.596Z</time></trkpt><trkpt lat="45.3894216" lon="10.7858911"><ele>77.28571428571429</ele><time>2026-03-24T17:05:37.596Z</time></trkpt><trkpt lat="45.3894883" lon="10.7858616"><ele>77.0</ele><time>2026-03-24T17:05:38.596Z</time></trkpt><trkpt lat="45.389556" lon="10.7858366"><ele>77.71428571428571</ele><time>2026-03-24T17:05:39.598Z</time></trkpt><trkpt lat="45.3896248" lon="10.7858145"><ele>78.42857142857143</ele><time>2026-03-24T17:05:40.59Z</time></trkpt><trkpt lat="45.3896936" lon="10.7857914"><ele>79.14285714285714</ele><time>2026-03-24T17:05:41.605Z</time></trkpt><trkpt lat="45.3897592" lon="10.7857679"><ele>79.85714285714286</ele><time>2026-03-24T17:05:42.59Z</time></trkpt><trkpt lat="45.3898221" lon="10.785747"><ele>80.57142857142857</ele><time>2026-03-24T17:05:43.597Z</time></trkpt><trkpt lat="45.389884" lon="10.7857233"><ele>81.28571428571428</ele><time>2026-03-24T17:05:44.604Z</time></trkpt><trkpt lat="45.3899446" lon="10.7856967"><ele>82.0</ele><time>2026-03-24T17:05:45.596Z</time></trkpt><trkpt lat="45.3900605" lon="10.7856625"><ele>82.0</ele><time>2026-03-24T17:05:47.608Z</time></trkpt><trkpt lat="45.390164" lon="10.7857312"><ele>82.0</ele><time>2026-03-24T17:05:49.604Z</time></trkpt><trkpt lat="45.3901984" lon="10.7858213"><ele>82.0</ele><time>2026-03-24T17:05:50.594Z</time></trkpt><trkpt lat="45.390232" lon="10.7859397"><ele>82.0</ele><time>2026-03-24T17:05:51.583Z</time></trkpt><trkpt lat="45.3902773" lon="10.786074"><ele>82.0</ele><time>2026-03-24T17:05:52.628Z</time></trkpt><trkpt lat="45.3903288" lon="10.7862119"><ele>81.5</ele><time>2026-03-24T17:05:53.611Z</time></trkpt><trkpt lat="45.3903807" lon="10.7863577"><ele>81.0</ele><time>2026-03-24T17:05:54.603Z</time></trkpt><trkpt lat="45.3904393" lon="10.7865073"><ele>80.5</ele><time>2026-03-24T17:05:55.599Z</time></trkpt><trkpt lat="45.3905098" lon="10.7866561"><ele>80.0</ele><time>2026-03-24T17:05:56.598Z</time></trkpt><trkpt lat="45.3905906" lon="10.786804"><ele>80.0</ele><time>2026-03-24T17:05:57.599Z</time></trkpt><trkpt lat="45.3906706" lon="10.7869493"><ele>80.0</ele><time>2026-03-24T17:05:58.615Z</time></trkpt><trkpt lat="45.390743" lon="10.7870933"><ele>80.0</ele><time>2026-03-24T17:05:59.604Z</time></trkpt><trkpt lat="45.3908101" lon="10.7872401"><ele>80.0</ele><time>2026-03-24T17:06:00.608Z</time></trkpt><trkpt lat="45.3908764" lon="10.7873838"><ele>80.0</ele><time>2026-03-24T17:06:01.624Z</time></trkpt><trkpt lat="45.3909392" lon="10.787515"><ele>80.0</ele><time>2026-03-24T17:06:02.597Z</time></trkpt><trkpt lat="45.3909981" lon="10.7876346"><ele>80.0</ele><time>2026-03-24T17:06:03.595Z</time></trkpt><trkpt lat="45.3910513" lon="10.7877464"><ele>80.0</ele><time>2026-03-24T17:06:04.595Z</time></trkpt><trkpt lat="45.3911" lon="10.7878504"><ele>80.0</ele><time>2026-03-24T17:06:05.597Z</time></trkpt><trkpt lat="45.3911478" lon="10.7879466"><ele>80.16666666666667</ele><time>2026-03-24T17:06:06.604Z</time></trkpt><trkpt lat="45.3912017" lon="10.7880393"><ele>80.33333333333334</ele><time>2026-03-24T17:06:07.616Z</time></trkpt><trkpt lat="45.3912638" lon="10.7881259"><ele>80.5</ele><time>2026-03-24T17:06:08.603Z</time></trkpt><trkpt lat="45.3913318" lon="10.7882079"><ele>80.66666666666667</ele><time>2026-03-24T17:06:09.615Z</time></trkpt><trkpt lat="45.3914012" lon="10.7882885"><ele>80.83333333333333</ele><time>2026-03-24T17:06:10.594Z</time></trkpt><trkpt lat="45.3914716" lon="10.7883754"><ele>81.0</ele><time>2026-03-24T17:06:11.612Z</time></trkpt><trkpt lat="45.3915362" lon="10.7884596"><ele>83.16666666666667</ele><time>2026-03-24T17:06:12.61Z</time></trkpt><trkpt lat="45.3915928" lon="10.7885347"><ele>85.33333333333333</ele><time>2026-03-24T17:06:13.604Z</time></trkpt><trkpt lat="45.3916423" lon="10.7885908"><ele>87.5</ele><time>2026-03-24T17:06:14.59Z</time></trkpt><trkpt lat="45.3917396" lon="10.7886311"><ele>89.66666666666666</ele><time>2026-03-24T17:06:16.606Z</time></trkpt><trkpt lat="45.3918503" lon="10.7885763"><ele>91.83333333333333</ele><time>2026-03-24T17:06:18.608Z</time></trkpt><trkpt lat="45.3919145" lon="10.7885471"><ele>94.0</ele><time>2026-03-24T17:06:19.607Z</time></trkpt><trkpt lat="45.3919867" lon="10.7885332"><ele>94.0</ele><time>2026-03-24T17:06:20.595Z</time></trkpt><trkpt lat="45.3920577" lon="10.7885321"><ele>94.0</ele><time>2026-03-24T17:06:21.613Z</time></trkpt><trkpt lat="45.3921267" lon="10.7885425"><ele>94.0</ele><time>2026-03-24T17:06:22.607Z</time></trkpt><trkpt lat="45.3921942" lon="10.7885556"><ele>94.0</ele><time>2026-03-24T17:06:23.597Z</time></trkpt><trkpt lat="45.3922622" lon="10.7885778"><ele>94.0</ele><time>2026-03-24T17:06:24.604Z</time></trkpt><trkpt lat="45.3923405" lon="10.7886239"><ele>94.0</ele><time>2026-03-24T17:06:25.599Z</time></trkpt><trkpt lat="45.3924367" lon="10.7886884"><ele>95.2</ele><time>2026-03-24T17:06:26.608Z</time></trkpt><trkpt lat="45.3925351" lon="10.7887557"><ele>96.4</ele><time>2026-03-24T17:06:27.594Z</time></trkpt><trkpt lat="45.3926288" lon="10.7888181"><ele>97.6</ele><time>2026-03-24T17:06:28.592Z</time></trkpt><trkpt lat="45.3927143" lon="10.7888729"><ele>98.8</ele><time>2026-03-24T17:06:29.594Z</time></trkpt><trkpt lat="45.3927952" lon="10.7889198"><ele>100.0</ele><time>2026-03-24T17:06:30.61Z</time></trkpt><trkpt lat="45.3928728" lon="10.7889701"><ele>100.0</ele><time>2026-03-24T17:06:31.604Z</time></trkpt><trkpt lat="45.3929483" lon="10.7890389"><ele>100.0</ele><time>2026-03-24T17:06:32.602Z</time></trkpt><trkpt lat="45.3930147" lon="10.7891173"><ele>100.0</ele><time>2026-03-24T17:06:33.593Z</time></trkpt><trkpt lat="45.3930827" lon="10.789204"><ele>100.0</ele><time>2026-03-24T17:06:34.614Z</time></trkpt><trkpt lat="45.3931512" lon="10.7892921"><ele>100.0</ele><time>2026-03-24T17:06:35.597Z</time></trkpt><trkpt lat="45.3932204" lon="10.7893767"><ele>100.4</ele><time>2026-03-24T17:06:36.593Z</time></trkpt><trkpt lat="45.393289" lon="10.789456"><ele>100.8</ele><time>2026-03-24T17:06:37.6Z</time></trkpt><trkpt lat="45.393359" lon="10.7895407"><ele>101.19999999999999</ele><time>2026-03-24T17:06:38.594Z</time></trkpt><trkpt lat="45.3934284" lon="10.7896262"><ele>101.6</ele><time>2026-03-24T17:06:39.595Z</time></trkpt><trkpt lat="45.3934958" lon="10.7897141"><ele>102.0</ele><time>2026-03-24T17:06:40.601Z</time></trkpt><trkpt lat="45.3935701" lon="10.7898084"><ele>102.0</ele><time>2026-03-24T17:06:41.593Z</time></trkpt><trkpt lat="45.393645" lon="10.789897"><ele>102.0</ele><time>2026-03-24T17:06:42.59Z</time></trkpt><trkpt lat="45.3937204" lon="10.7899736"><ele>102.0</ele><time>2026-03-24T17:06:43.597Z</time></trkpt><trkpt lat="45.3938069" lon="10.7900496"><ele>102.0</ele><time>2026-03-24T17:06:44.591Z</time></trkpt><trkpt lat="45.3938999" lon="10.7901239"><ele>102.0</ele><time>2026-03-24T17:06:45.598Z</time></trkpt><trkpt lat="45.3940027" lon="10.7901784"><ele>102.6</ele><time>2026-03-24T17:06:46.598Z</time></trkpt><trkpt lat="45.394103" lon="10.7902395"><ele>103.19999999999999</ele><time>2026-03-24T17:06:47.598Z</time></trkpt><trkpt lat="45.3941973" lon="10.7902987"><ele>103.8</ele><time>2026-03-24T17:06:48.595Z</time></trkpt><trkpt lat="45.3942797" lon="10.7903543"><ele>104.4</ele><time>2026-03-24T17:06:49.596Z</time></trkpt><trkpt lat="45.3943617" lon="10.790413"><ele>105.0</ele><time>2026-03-24T17:06:50.586Z</time></trkpt><trkpt lat="45.3944462" lon="10.7904726"><ele>105.0</ele><time>2026-03-24T17:06:51.587Z</time></trkpt><trkpt lat="45.3945328" lon="10.7905349"><ele>105.0</ele><time>2026-03-24T17:06:52.591Z</time></trkpt><trkpt lat="45.394623" lon="10.7906114"><ele>105.0</ele><time>2026-03-24T17:06:53.596Z</time></trkpt><trkpt lat="45.3947193" lon="10.7906936"><ele>105.0</ele><time>2026-03-24T17:06:54.596Z</time></trkpt><trkpt lat="45.3948169" lon="10.790783"><ele>105.0</ele><time>2026-03-24T17:06:55.596Z</time></trkpt><trkpt lat="45.3949106" lon="10.7908742"><ele>105.0</ele><time>2026-03-24T17:06:56.587Z</time></trkpt><trkpt lat="45.3949981" lon="10.790963"><ele>105.0</ele><time>2026-03-24T17:06:57.601Z</time></trkpt><trkpt lat="45.3950749" lon="10.7910498"><ele>105.0</ele><time>2026-03-24T17:06:58.594Z</time></trkpt><trkpt lat="45.3951407" lon="10.7911313"><ele>105.0</ele><time>2026-03-24T17:06:59.598Z</time></trkpt><trkpt lat="45.3951979" lon="10.791199"><ele>105.0</ele><time>2026-03-24T17:07:00.597Z</time></trkpt><trkpt lat="45.3952596" lon="10.7912462"><ele>105.0</ele><time>2026-03-24T17:07:01.627Z</time></trkpt><trkpt lat="45.3953253" lon="10.7912721"><ele>105.0</ele><time>2026-03-24T17:07:02.597Z</time></trkpt><trkpt lat="45.3953947" lon="10.791271"><ele>105.0</ele><time>2026-03-24T17:07:03.605Z</time></trkpt><trkpt lat="45.3954654" lon="10.7912546"><ele>105.0</ele><time>2026-03-24T17:07:04.616Z</time></trkpt><trkpt lat="45.3955405" lon="10.7912522"><ele>105.0</ele><time>2026-03-24T17:07:05.604Z</time></trkpt><trkpt lat="45.3956223" lon="10.791282"><ele>105.0</ele><time>2026-03-24T17:07:06.593Z</time></trkpt><trkpt lat="45.3957125" lon="10.7913354"><ele>105.0</ele><time>2026-03-24T17:07:07.61Z</time></trkpt><trkpt lat="45.395806" lon="10.7914078"><ele>104.8</ele><time>2026-03-24T17:07:08.606Z</time></trkpt><trkpt lat="45.3958961" lon="10.7914852"><ele>104.6</ele><time>2026-03-24T17:07:09.59Z</time></trkpt><trkpt lat="45.3959844" lon="10.7915616"><ele>104.4</ele><time>2026-03-24T17:07:10.598Z</time></trkpt><trkpt lat="45.3960747" lon="10.7916373"><ele>104.2</ele><time>2026-03-24T17:07:11.592Z</time></trkpt><trkpt lat="45.3961614" lon="10.7917075"><ele>104.0</ele><time>2026-03-24T17:07:12.61Z</time></trkpt><trkpt lat="45.3962388" lon="10.7917704"><ele>103.99999999999999</ele><time>2026-03-24T17:07:13.621Z</time></trkpt><trkpt lat="45.396298" lon="10.7918349"><ele>104.0</ele><time>2026-03-24T17:07:14.599Z</time></trkpt><trkpt lat="45.396364" lon="10.791898"><ele>104.0</ele><time>2026-03-24T17:07:15.601Z</time></trkpt><trkpt lat="45.396427" lon="10.7919566"><ele>104.0</ele><time>2026-03-24T17:07:16.607Z</time></trkpt><trkpt lat="45.3964853" lon="10.7920071"><ele>103.99999999999999</ele><time>2026-03-24T17:07:17.607Z</time></trkpt><trkpt lat="45.3965704" lon="10.7921122"><ele>104.0</ele><time>2026-03-24T17:07:19.615Z</time></trkpt><trkpt lat="45.3965835" lon="10.7922806"><ele>104.2</ele><time>2026-03-24T17:07:21.603Z</time></trkpt><trkpt lat="45.3965646" lon="10.7923933"><ele>104.4</ele><time>2026-03-24T17:07:22.6Z</time></trkpt><trkpt lat="45.3965465" lon="10.7925288"><ele>104.6</ele><time>2026-03-24T17:07:23.593Z</time></trkpt><trkpt lat="45.3965372" lon="10.7926811"><ele>104.8</ele><time>2026-03-24T17:07:24.596Z</time></trkpt><trkpt lat="45.3965362" lon="10.7928331"><ele>105.0</ele><time>2026-03-24T17:07:25.601Z</time></trkpt><trkpt lat="45.3965374" lon="10.7929768"><ele>105.0</ele><time>2026-03-24T17:07:26.592Z</time></trkpt><trkpt lat="45.3965383" lon="10.7931118"><ele>105.0</ele><time>2026-03-24T17:07:27.594Z</time></trkpt><trkpt lat="45.3965417" lon="10.7932394"><ele>105.0</ele><time>2026-03-24T17:07:28.604Z</time></trkpt><trkpt lat="45.3965412" lon="10.7933669"><ele>105.0</ele><time>2026-03-24T17:07:29.599Z</time></trkpt><trkpt lat="45.3965383" lon="10.7935026"><ele>105.0</ele><time>2026-03-24T17:07:30.594Z</time></trkpt><trkpt lat="45.3965319" lon="10.793639"><ele>104.6</ele><time>2026-03-24T17:07:31.599Z</time></trkpt><trkpt lat="45.3965229" lon="10.7937711"><ele>104.2</ele><time>2026-03-24T17:07:32.597Z</time></trkpt><trkpt lat="45.3965193" lon="10.7939016"><ele>103.80000000000001</ele><time>2026-03-24T17:07:33.599Z</time></trkpt><trkpt lat="45.3965197" lon="10.7940368"><ele>103.4</ele><time>2026-03-24T17:07:34.602Z</time></trkpt><trkpt lat="45.3965206" lon="10.7941748"><ele>103.0</ele><time>2026-03-24T17:07:35.6Z</time></trkpt><trkpt lat="45.3965191" lon="10.7943157"><ele>103.2</ele><time>2026-03-24T17:07:36.604Z</time></trkpt><trkpt lat="45.3965125" lon="10.7944522"><ele>103.4</ele><time>2026-03-24T17:07:37.592Z</time></trkpt><trkpt lat="45.3965053" lon="10.7945935"><ele>103.60000000000001</ele><time>2026-03-24T17:07:38.601Z</time></trkpt><trkpt lat="45.3965007" lon="10.7947362"><ele>103.80000000000001</ele><time>2026-03-24T17:07:39.603Z</time></trkpt><trkpt lat="45.3964968" lon="10.7948737"><ele>104.0</ele><time>2026-03-24T17:07:40.6Z</time></trkpt><trkpt lat="45.3964956" lon="10.7950066"><ele>103.99999999999999</ele><time>2026-03-24T17:07:41.604Z</time></trkpt><trkpt lat="45.3964933" lon="10.7951348"><ele>104.0</ele><time>2026-03-24T17:07:42.599Z</time></trkpt><trkpt lat="45.3964892" lon="10.7952543"><ele>104.0</ele><time>2026-03-24T17:07:43.596Z</time></trkpt><trkpt lat="45.3964768" lon="10.7953682"><ele>104.0</ele><time>2026-03-24T17:07:44.592Z</time></trkpt><trkpt lat="45.3964454" lon="10.7954706"><ele>103.99999999999999</ele><time>2026-03-24T17:07:45.591Z</time></trkpt><trkpt lat="45.3963913" lon="10.7955582"><ele>104.0</ele><time>2026-03-24T17:07:46.6Z</time></trkpt><trkpt lat="45.3963298" lon="10.7956365"><ele>103.80000000000001</ele><time>2026-03-24T17:07:47.594Z</time></trkpt><trkpt lat="45.3962512" lon="10.7957019"><ele>103.60000000000001</ele><time>2026-03-24T17:07:48.591Z</time></trkpt><trkpt lat="45.3961776" lon="10.7957868"><ele>103.4</ele><time>2026-03-24T17:07:49.597Z</time></trkpt><trkpt lat="45.3961143" lon="10.7959005"><ele>103.2</ele><time>2026-03-24T17:07:50.601Z</time></trkpt><trkpt lat="45.3960598" lon="10.7960449"><ele>103.0</ele><time>2026-03-24T17:07:51.59Z</time></trkpt><trkpt lat="45.3960096" lon="10.7962166"><ele>102.75</ele><time>2026-03-24T17:07:52.593Z</time></trkpt><trkpt lat="45.3959653" lon="10.7963874"><ele>102.5</ele><time>2026-03-24T17:07:53.603Z</time></trkpt><trkpt lat="45.3959248" lon="10.7965388"><ele>102.25</ele><time>2026-03-24T17:07:54.604Z</time></trkpt><trkpt lat="45.3958806" lon="10.7966775"><ele>102.0</ele><time>2026-03-24T17:07:55.598Z</time></trkpt><trkpt lat="45.3958368" lon="10.7968205"><ele>101.6</ele><time>2026-03-24T17:07:56.602Z</time></trkpt><trkpt lat="45.3957956" lon="10.7969652"><ele>101.19999999999999</ele><time>2026-03-24T17:07:57.6Z</time></trkpt><trkpt lat="45.3957544" lon="10.7971039"><ele>100.8</ele><time>2026-03-24T17:07:58.623Z</time></trkpt><trkpt lat="45.3957171" lon="10.7972372"><ele>100.4</ele><time>2026-03-24T17:07:59.616Z</time></trkpt><trkpt lat="45.3956963" lon="10.7973712"><ele>100.0</ele><time>2026-03-24T17:08:00.6Z</time></trkpt><trkpt lat="45.3956948" lon="10.7975076"><ele>100.0</ele><time>2026-03-24T17:08:01.593Z</time></trkpt><trkpt lat="45.3956999" lon="10.7976449"><ele>100.0</ele><time>2026-03-24T17:08:02.6Z</time></trkpt><trkpt lat="45.3957131" lon="10.7977885"><ele>100.0</ele><time>2026-03-24T17:08:03.613Z</time></trkpt><trkpt lat="45.395725" lon="10.7979385"><ele>100.0</ele><time>2026-03-24T17:08:04.615Z</time></trkpt><trkpt lat="45.3957373" lon="10.7980882"><ele>100.0</ele><time>2026-03-24T17:08:05.597Z</time></trkpt><trkpt lat="45.3957517" lon="10.7982476"><ele>99.8</ele><time>2026-03-24T17:08:06.601Z</time></trkpt><trkpt lat="45.3957635" lon="10.7984145"><ele>99.6</ele><time>2026-03-24T17:08:07.608Z</time></trkpt><trkpt lat="45.3957748" lon="10.7985706"><ele>99.4</ele><time>2026-03-24T17:08:08.613Z</time></trkpt><trkpt lat="45.3957824" lon="10.7987134"><ele>99.2</ele><time>2026-03-24T17:08:09.603Z</time></trkpt><trkpt lat="45.3957838" lon="10.7988421"><ele>99.0</ele><time>2026-03-24T17:08:10.609Z</time></trkpt><trkpt lat="45.3957841" lon="10.7989659"><ele>99.33333333333333</ele><time>2026-03-24T17:08:11.619Z</time></trkpt><trkpt lat="45.3957872" lon="10.7990803"><ele>99.66666666666666</ele><time>2026-03-24T17:08:12.6Z</time></trkpt><trkpt lat="45.395793" lon="10.7991867"><ele>100.0</ele><time>2026-03-24T17:08:13.595Z</time></trkpt><trkpt lat="45.3958061" lon="10.7992803"><ele>100.33333333333333</ele><time>2026-03-24T17:08:14.632Z</time></trkpt><trkpt lat="45.3958267" lon="10.7994276"><ele>100.66666666666666</ele><time>2026-03-24T17:08:16.605Z</time></trkpt><trkpt lat="45.3958106" lon="10.7995167"><ele>101.0</ele><time>2026-03-24T17:08:18.615Z</time></trkpt><trkpt lat="45.395753" lon="10.7995703"><ele>101.19999999999999</ele><time>2026-03-24T17:08:20.598Z</time></trkpt><trkpt lat="45.3956896" lon="10.7995661"><ele>101.39999999999999</ele><time>2026-03-24T17:08:21.594Z</time></trkpt><trkpt lat="45.3956012" lon="10.7995481"><ele>101.6</ele><time>2026-03-24T17:08:22.598Z</time></trkpt><trkpt lat="45.3954959" lon="10.7995242"><ele>101.8</ele><time>2026-03-24T17:08:23.595Z</time></trkpt><trkpt lat="45.3953809" lon="10.7994988"><ele>102.0</ele><time>2026-03-24T17:08:24.596Z</time></trkpt><trkpt lat="45.3952578" lon="10.799472"><ele>102.0</ele><time>2026-03-24T17:08:25.607Z</time></trkpt><trkpt lat="45.3951286" lon="10.7994445"><ele>102.0</ele><time>2026-03-24T17:08:26.595Z</time></trkpt><trkpt lat="45.3949937" lon="10.7994154"><ele>102.0</ele><time>2026-03-24T17:08:27.602Z</time></trkpt><trkpt lat="45.3948554" lon="10.7993792"><ele>102.0</ele><time>2026-03-24T17:08:28.595Z</time></trkpt><trkpt lat="45.3947132" lon="10.7993343"><ele>101.33333333333334</ele><time>2026-03-24T17:08:29.594Z</time></trkpt><trkpt lat="45.3945674" lon="10.7992813"><ele>100.66666666666667</ele><time>2026-03-24T17:08:30.605Z</time></trkpt><trkpt lat="45.3944203" lon="10.7992238"><ele>100.0</ele><time>2026-03-24T17:08:31.615Z</time></trkpt><trkpt lat="45.3942753" lon="10.799167"><ele>100.0</ele><time>2026-03-24T17:08:32.594Z</time></trkpt><trkpt lat="45.3941292" lon="10.7991096"><ele>100.0</ele><time>2026-03-24T17:08:33.593Z</time></trkpt><trkpt lat="45.3939858" lon="10.7990533"><ele>100.0</ele><time>2026-03-24T17:08:34.606Z</time></trkpt><trkpt lat="45.3938487" lon="10.7989998"><ele>100.0</ele><time>2026-03-24T17:08:35.594Z</time></trkpt><trkpt lat="45.3937163" lon="10.7989481"><ele>100.0</ele><time>2026-03-24T17:08:36.591Z</time></trkpt><trkpt lat="45.3935895" lon="10.798897"><ele>100.0</ele><time>2026-03-24T17:08:37.597Z</time></trkpt><trkpt lat="45.393469" lon="10.7988486"><ele>100.0</ele><time>2026-03-24T17:08:38.594Z</time></trkpt><trkpt lat="45.3933544" lon="10.7988028"><ele>100.0</ele><time>2026-03-24T17:08:39.592Z</time></trkpt><trkpt lat="45.3932448" lon="10.7987588"><ele>100.0</ele><time>2026-03-24T17:08:40.614Z</time></trkpt><trkpt lat="45.3931417" lon="10.7987182"><ele>100.0</ele><time>2026-03-24T17:08:41.591Z</time></trkpt><trkpt lat="45.3930412" lon="10.7986818"><ele>100.0</ele><time>2026-03-24T17:08:42.594Z</time></trkpt><trkpt lat="45.3929484" lon="10.7986511"><ele>100.0</ele><time>2026-03-24T17:08:43.599Z</time></trkpt><trkpt lat="45.3928644" lon="10.7986272"><ele>100.0</ele><time>2026-03-24T17:08:44.598Z</time></trkpt><trkpt lat="45.3927871" lon="10.7986255"><ele>100.4</ele><time>2026-03-24T17:08:45.589Z</time></trkpt><trkpt lat="45.3927153" lon="10.7986605"><ele>100.8</ele><time>2026-03-24T17:08:46.594Z</time></trkpt><trkpt lat="45.3926515" lon="10.7987356"><ele>101.19999999999999</ele><time>2026-03-24T17:08:47.62Z</time></trkpt><trkpt lat="45.3926013" lon="10.7988536"><ele>101.6</ele><time>2026-03-24T17:08:48.594Z</time></trkpt><trkpt lat="45.3925622" lon="10.7990015"><ele>102.0</ele><time>2026-03-24T17:08:49.604Z</time></trkpt><trkpt lat="45.3925316" lon="10.7991707"><ele>102.5</ele><time>2026-03-24T17:08:50.607Z</time></trkpt><trkpt lat="45.3924993" lon="10.7993527"><ele>103.0</ele><time>2026-03-24T17:08:51.606Z</time></trkpt><trkpt lat="45.3924647" lon="10.7995408"><ele>103.5</ele><time>2026-03-24T17:08:52.597Z</time></trkpt><trkpt lat="45.3924289" lon="10.7997388"><ele>104.0</ele><time>2026-03-24T17:08:53.59Z</time></trkpt><trkpt lat="45.3923918" lon="10.7999489"><ele>104.0</ele><time>2026-03-24T17:08:54.592Z</time></trkpt><trkpt lat="45.3923525" lon="10.8001668"><ele>104.0</ele><time>2026-03-24T17:08:55.597Z</time></trkpt><trkpt lat="45.3923109" lon="10.8003883"><ele>104.0</ele><time>2026-03-24T17:08:56.606Z</time></trkpt><trkpt lat="45.3922689" lon="10.8005986"><ele>104.0</ele><time>2026-03-24T17:08:57.596Z</time></trkpt><trkpt lat="45.3922268" lon="10.8008005"><ele>104.0</ele><time>2026-03-24T17:08:58.599Z</time></trkpt><trkpt lat="45.3921829" lon="10.8010012"><ele>104.0</ele><time>2026-03-24T17:08:59.612Z</time></trkpt><trkpt lat="45.3921361" lon="10.801198"><ele>104.0</ele><time>2026-03-24T17:09:00.596Z</time></trkpt><trkpt lat="45.3920841" lon="10.8013962"><ele>105.0</ele><time>2026-03-24T17:09:01.601Z</time></trkpt><trkpt lat="45.3920249" lon="10.8015921"><ele>106.0</ele><time>2026-03-24T17:09:02.598Z</time></trkpt><trkpt lat="45.3919558" lon="10.8017881"><ele>107.0</ele><time>2026-03-24T17:09:03.618Z</time></trkpt><trkpt lat="45.3918821" lon="10.8019798"><ele>107.0</ele><time>2026-03-24T17:09:04.597Z</time></trkpt><trkpt lat="45.3918065" lon="10.8021739"><ele>107.0</ele><time>2026-03-24T17:09:05.592Z</time></trkpt><trkpt lat="45.3917309" lon="10.80237"><ele>107.0</ele><time>2026-03-24T17:09:06.599Z</time></trkpt><trkpt lat="45.3916557" lon="10.8025662"><ele>107.0</ele><time>2026-03-24T17:09:07.597Z</time></trkpt><trkpt lat="45.3915804" lon="10.8027634"><ele>107.0</ele><time>2026-03-24T17:09:08.597Z</time></trkpt><trkpt lat="45.3915075" lon="10.8029611"><ele>107.0</ele><time>2026-03-24T17:09:09.594Z</time></trkpt><trkpt lat="45.3914383" lon="10.8031621"><ele>107.0</ele><time>2026-03-24T17:09:10.599Z</time></trkpt><trkpt lat="45.3913754" lon="10.8033652"><ele>107.0</ele><time>2026-03-24T17:09:11.59Z</time></trkpt><trkpt lat="45.3913184" lon="10.8035725"><ele>107.0</ele><time>2026-03-24T17:09:12.587Z</time></trkpt><trkpt lat="45.3912655" lon="10.8037841"><ele>109.0</ele><time>2026-03-24T17:09:13.601Z</time></trkpt><trkpt lat="45.3912132" lon="10.8039962"><ele>111.0</ele><time>2026-03-24T17:09:14.598Z</time></trkpt><trkpt lat="45.3911597" lon="10.8042087"><ele>113.0</ele><time>2026-03-24T17:09:15.589Z</time></trkpt><trkpt lat="45.3911062" lon="10.8044219"><ele>113.0</ele><time>2026-03-24T17:09:16.596Z</time></trkpt><trkpt lat="45.3910522" lon="10.804632"><ele>113.0</ele><time>2026-03-24T17:09:17.589Z</time></trkpt><trkpt lat="45.3910013" lon="10.8048445"><ele>113.0</ele><time>2026-03-24T17:09:18.597Z</time></trkpt><trkpt lat="45.3909541" lon="10.8050604"><ele>112.66666666666666</ele><time>2026-03-24T17:09:19.589Z</time></trkpt><trkpt lat="45.3909054" lon="10.8052795"><ele>112.33333333333334</ele><time>2026-03-24T17:09:20.593Z</time></trkpt><trkpt lat="45.3908552" lon="10.8054945"><ele>112.0</ele><time>2026-03-24T17:09:21.592Z</time></trkpt><trkpt lat="45.3908054" lon="10.805705"><ele>112.0</ele><time>2026-03-24T17:09:22.597Z</time></trkpt><trkpt lat="45.3907553" lon="10.8059101"><ele>112.0</ele><time>2026-03-24T17:09:23.599Z</time></trkpt><trkpt lat="45.390705" lon="10.806109"><ele>112.0</ele><time>2026-03-24T17:09:24.601Z</time></trkpt><trkpt lat="45.3906548" lon="10.8063009"><ele>112.0</ele><time>2026-03-24T17:09:25.596Z</time></trkpt><trkpt lat="45.3906051" lon="10.8064891"><ele>111.25</ele><time>2026-03-24T17:09:26.596Z</time></trkpt><trkpt lat="45.3905654" lon="10.8066809"><ele>110.5</ele><time>2026-03-24T17:09:27.605Z</time></trkpt><trkpt lat="45.3905515" lon="10.8068796"><ele>109.75</ele><time>2026-03-24T17:09:28.596Z</time></trkpt><trkpt lat="45.3905637" lon="10.8070889"><ele>109.0</ele><time>2026-03-24T17:09:29.591Z</time></trkpt><trkpt lat="45.3905933" lon="10.8073101"><ele>107.66666666666667</ele><time>2026-03-24T17:09:30.597Z</time></trkpt><trkpt lat="45.3906282" lon="10.8075424"><ele>106.33333333333334</ele><time>2026-03-24T17:09:31.594Z</time></trkpt><trkpt lat="45.3906637" lon="10.8077828"><ele>105.0</ele><time>2026-03-24T17:09:32.599Z</time></trkpt><trkpt lat="45.3906984" lon="10.8080281"><ele>104.33333333333334</ele><time>2026-03-24T17:09:33.606Z</time></trkpt><trkpt lat="45.3907339" lon="10.8082779"><ele>103.66666666666667</ele><time>2026-03-24T17:09:34.597Z</time></trkpt><trkpt lat="45.3907704" lon="10.8085336"><ele>103.0</ele><time>2026-03-24T17:09:35.596Z</time></trkpt><trkpt lat="45.3908048" lon="10.8087932"><ele>102.0</ele><time>2026-03-24T17:09:36.605Z</time></trkpt><trkpt lat="45.3908362" lon="10.809055"><ele>101.0</ele><time>2026-03-24T17:09:37.595Z</time></trkpt><trkpt lat="45.3908638" lon="10.8093222"><ele>100.0</ele><time>2026-03-24T17:09:38.594Z</time></trkpt><trkpt lat="45.3908809" lon="10.8095937"><ele>99.33333333333334</ele><time>2026-03-24T17:09:39.6Z</time></trkpt><trkpt lat="45.3908803" lon="10.8098668"><ele>98.66666666666666</ele><time>2026-03-24T17:09:40.599Z</time></trkpt><trkpt lat="45.3908704" lon="10.810141"><ele>98.0</ele><time>2026-03-24T17:09:41.6Z</time></trkpt><trkpt lat="45.3908579" lon="10.8104142"><ele>98.0</ele><time>2026-03-24T17:09:42.597Z</time></trkpt><trkpt lat="45.3908453" lon="10.8106874"><ele>98.0</ele><time>2026-03-24T17:09:43.594Z</time></trkpt><trkpt lat="45.3908333" lon="10.8109603"><ele>98.0</ele><time>2026-03-24T17:09:44.596Z</time></trkpt><trkpt lat="45.3908228" lon="10.8112322"><ele>98.33333333333333</ele><time>2026-03-24T17:09:45.592Z</time></trkpt><trkpt lat="45.3908144" lon="10.811504"><ele>98.66666666666666</ele><time>2026-03-24T17:09:46.595Z</time></trkpt><trkpt lat="45.3908076" lon="10.8117752"><ele>99.0</ele><time>2026-03-24T17:09:47.596Z</time></trkpt><trkpt lat="45.3907977" lon="10.8120457"><ele>98.33333333333334</ele><time>2026-03-24T17:09:48.594Z</time></trkpt><trkpt lat="45.3907771" lon="10.8123153"><ele>97.66666666666667</ele><time>2026-03-24T17:09:49.597Z</time></trkpt><trkpt lat="45.3907333" lon="10.81258"><ele>97.0</ele><time>2026-03-24T17:09:50.594Z</time></trkpt><trkpt lat="45.3906666" lon="10.8128381"><ele>96.66666666666667</ele><time>2026-03-24T17:09:51.597Z</time></trkpt><trkpt lat="45.3905895" lon="10.8130912"><ele>96.33333333333334</ele><time>2026-03-24T17:09:52.594Z</time></trkpt><trkpt lat="45.390513" lon="10.8133428"><ele>96.0</ele><time>2026-03-24T17:09:53.591Z</time></trkpt><trkpt lat="45.3904396" lon="10.8135923"><ele>95.33333333333333</ele><time>2026-03-24T17:09:54.595Z</time></trkpt><trkpt lat="45.3903689" lon="10.8138348"><ele>94.66666666666666</ele><time>2026-03-24T17:09:55.592Z</time></trkpt><trkpt lat="45.3903006" lon="10.8140703"><ele>94.0</ele><time>2026-03-24T17:09:56.593Z</time></trkpt><trkpt lat="45.3902346" lon="10.8142985"><ele>93.66666666666666</ele><time>2026-03-24T17:09:57.586Z</time></trkpt><trkpt lat="45.3901701" lon="10.8145255"><ele>93.33333333333333</ele><time>2026-03-24T17:09:58.613Z</time></trkpt><trkpt lat="45.3901047" lon="10.8147461"><ele>93.0</ele><time>2026-03-24T17:09:59.591Z</time></trkpt><trkpt lat="45.3900264" lon="10.8149628"><ele>92.33333333333333</ele><time>2026-03-24T17:10:00.602Z</time></trkpt><trkpt lat="45.3899255" lon="10.8151587"><ele>91.66666666666666</ele><time>2026-03-24T17:10:01.602Z</time></trkpt><trkpt lat="45.3898072" lon="10.8153343"><ele>91.0</ele><time>2026-03-24T17:10:02.594Z</time></trkpt><trkpt lat="45.3896828" lon="10.8155001"><ele>92.0</ele><time>2026-03-24T17:10:03.59Z</time></trkpt><trkpt lat="45.3895633" lon="10.8156573"><ele>93.0</ele><time>2026-03-24T17:10:04.592Z</time></trkpt><trkpt lat="45.3894475" lon="10.8158005"><ele>94.0</ele><time>2026-03-24T17:10:05.591Z</time></trkpt><trkpt lat="45.3893282" lon="10.8159276"><ele>93.75</ele><time>2026-03-24T17:10:06.594Z</time></trkpt><trkpt lat="45.3892006" lon="10.8160346"><ele>93.5</ele><time>2026-03-24T17:10:07.593Z</time></trkpt><trkpt lat="45.3890644" lon="10.8161217"><ele>93.25</ele><time>2026-03-24T17:10:08.601Z</time></trkpt><trkpt lat="45.3889251" lon="10.8161981"><ele>93.0</ele><time>2026-03-24T17:10:09.591Z</time></trkpt><trkpt lat="45.3887846" lon="10.8162727"><ele>93.0</ele><time>2026-03-24T17:10:10.598Z</time></trkpt><trkpt lat="45.388649" lon="10.8163463"><ele>93.0</ele><time>2026-03-24T17:10:11.593Z</time></trkpt><trkpt lat="45.3885196" lon="10.8164175"><ele>93.0</ele><time>2026-03-24T17:10:12.588Z</time></trkpt><trkpt lat="45.3883968" lon="10.8164866"><ele>93.0</ele><time>2026-03-24T17:10:13.598Z</time></trkpt><trkpt lat="45.3882829" lon="10.8165487"><ele>93.0</ele><time>2026-03-24T17:10:14.589Z</time></trkpt><trkpt lat="45.3881763" lon="10.8166026"><ele>93.0</ele><time>2026-03-24T17:10:15.595Z</time></trkpt><trkpt lat="45.3880814" lon="10.8166555"><ele>93.0</ele><time>2026-03-24T17:10:16.599Z</time></trkpt><trkpt lat="45.3880043" lon="10.8167217"><ele>93.0</ele><time>2026-03-24T17:10:17.605Z</time></trkpt><trkpt lat="45.3879421" lon="10.8167913"><ele>93.0</ele><time>2026-03-24T17:10:18.593Z</time></trkpt><trkpt lat="45.3878831" lon="10.8168405"><ele>93.0</ele><time>2026-03-24T17:10:19.594Z</time></trkpt><trkpt lat="45.3877627" lon="10.8168309"><ele>93.0</ele><time>2026-03-24T17:10:21.595Z</time></trkpt><trkpt lat="45.3877088" lon="10.8167699"><ele>93.0</ele><time>2026-03-24T17:10:22.594Z</time></trkpt><trkpt lat="45.387671" lon="10.8166668"><ele>93.0</ele><time>2026-03-24T17:10:23.615Z</time></trkpt><trkpt lat="45.3876476" lon="10.8165253"><ele>93.0</ele><time>2026-03-24T17:10:24.594Z</time></trkpt><trkpt lat="45.3876271" lon="10.8163613"><ele>93.0</ele><time>2026-03-24T17:10:25.597Z</time></trkpt><trkpt lat="45.3876032" lon="10.8161858"><ele>93.0</ele><time>2026-03-24T17:10:26.603Z</time></trkpt><trkpt lat="45.3875691" lon="10.8160014"><ele>93.0</ele><time>2026-03-24T17:10:27.595Z</time></trkpt><trkpt lat="45.3875215" lon="10.8158146"><ele>93.0</ele><time>2026-03-24T17:10:28.592Z</time></trkpt><trkpt lat="45.3874601" lon="10.8156279"><ele>93.75</ele><time>2026-03-24T17:10:29.591Z</time></trkpt><trkpt lat="45.3873876" lon="10.815441"><ele>94.5</ele><time>2026-03-24T17:10:30.605Z</time></trkpt><trkpt lat="45.3873112" lon="10.8152582"><ele>95.25</ele><time>2026-03-24T17:10:31.601Z</time></trkpt><trkpt lat="45.3872346" lon="10.8150782"><ele>96.0</ele><time>2026-03-24T17:10:32.597Z</time></trkpt><trkpt lat="45.3871598" lon="10.8149011"><ele>96.5</ele><time>2026-03-24T17:10:33.596Z</time></trkpt><trkpt lat="45.3870865" lon="10.8147262"><ele>97.0</ele><time>2026-03-24T17:10:34.594Z</time></trkpt><trkpt lat="45.3870141" lon="10.8145515"><ele>97.5</ele><time>2026-03-24T17:10:35.604Z</time></trkpt><trkpt lat="45.3869433" lon="10.8143777"><ele>98.0</ele><time>2026-03-24T17:10:36.605Z</time></trkpt><trkpt lat="45.386876" lon="10.8142022"><ele>98.0</ele><time>2026-03-24T17:10:37.606Z</time></trkpt><trkpt lat="45.3868115" lon="10.8140269"><ele>98.0</ele><time>2026-03-24T17:10:38.6Z</time></trkpt><trkpt lat="45.3867497" lon="10.8138522"><ele>98.0</ele><time>2026-03-24T17:10:39.595Z</time></trkpt><trkpt lat="45.3866893" lon="10.8136784"><ele>98.0</ele><time>2026-03-24T17:10:40.603Z</time></trkpt><trkpt lat="45.3866298" lon="10.8135084"><ele>98.5</ele><time>2026-03-24T17:10:41.596Z</time></trkpt><trkpt lat="45.3865707" lon="10.8133396"><ele>99.0</ele><time>2026-03-24T17:10:42.598Z</time></trkpt><trkpt lat="45.3865122" lon="10.8131718"><ele>99.5</ele><time>2026-03-24T17:10:43.609Z</time></trkpt><trkpt lat="45.386455" lon="10.8130059"><ele>100.0</ele><time>2026-03-24T17:10:44.592Z</time></trkpt><trkpt lat="45.3863972" lon="10.8128388"><ele>101.0</ele><time>2026-03-24T17:10:45.594Z</time></trkpt><trkpt lat="45.3863387" lon="10.8126698"><ele>102.0</ele><time>2026-03-24T17:10:46.604Z</time></trkpt><trkpt lat="45.3862798" lon="10.8124989"><ele>103.0</ele><time>2026-03-24T17:10:47.594Z</time></trkpt><trkpt lat="45.3862199" lon="10.8123236"><ele>104.0</ele><time>2026-03-24T17:10:48.603Z</time></trkpt><trkpt lat="45.386161" lon="10.8121476"><ele>104.25</ele><time>2026-03-24T17:10:49.594Z</time></trkpt><trkpt lat="45.3861015" lon="10.8119705"><ele>104.5</ele><time>2026-03-24T17:10:50.592Z</time></trkpt><trkpt lat="45.3860415" lon="10.8117932"><ele>104.75</ele><time>2026-03-24T17:10:51.597Z</time></trkpt><trkpt lat="45.3859816" lon="10.8116151"><ele>105.0</ele><time>2026-03-24T17:10:52.598Z</time></trkpt><trkpt lat="45.3859204" lon="10.811436"><ele>105.5</ele><time>2026-03-24T17:10:53.598Z</time></trkpt><trkpt lat="45.3858566" lon="10.8112554"><ele>106.0</ele><time>2026-03-24T17:10:54.599Z</time></trkpt><trkpt lat="45.3857907" lon="10.8110731"><ele>106.5</ele><time>2026-03-24T17:10:55.595Z</time></trkpt><trkpt lat="45.3857202" lon="10.8108886"><ele>107.0</ele><time>2026-03-24T17:10:56.61Z</time></trkpt><trkpt lat="45.3856464" lon="10.8107059"><ele>107.0</ele><time>2026-03-24T17:10:57.599Z</time></trkpt><trkpt lat="45.3855674" lon="10.8105249"><ele>107.0</ele><time>2026-03-24T17:10:58.606Z</time></trkpt><trkpt lat="45.3854848" lon="10.8103499"><ele>107.0</ele><time>2026-03-24T17:10:59.593Z</time></trkpt><trkpt lat="45.3853959" lon="10.8101812"><ele>107.0</ele><time>2026-03-24T17:11:00.587Z</time></trkpt><trkpt lat="45.3853009" lon="10.8100192"><ele>107.75</ele><time>2026-03-24T17:11:01.594Z</time></trkpt><trkpt lat="45.3851999" lon="10.8098654"><ele>108.5</ele><time>2026-03-24T17:11:02.593Z</time></trkpt><trkpt lat="45.3850955" lon="10.8097144"><ele>109.25</ele><time>2026-03-24T17:11:03.596Z</time></trkpt><trkpt lat="45.3849887" lon="10.8095657"><ele>110.0</ele><time>2026-03-24T17:11:04.591Z</time></trkpt><trkpt lat="45.3848819" lon="10.8094173"><ele>110.0</ele><time>2026-03-24T17:11:05.592Z</time></trkpt><trkpt lat="45.3847778" lon="10.8092717"><ele>110.0</ele><time>2026-03-24T17:11:06.601Z</time></trkpt><trkpt lat="45.3846777" lon="10.8091336"><ele>110.0</ele><time>2026-03-24T17:11:07.598Z</time></trkpt><trkpt lat="45.3845807" lon="10.8090022"><ele>110.0</ele><time>2026-03-24T17:11:08.594Z</time></trkpt><trkpt lat="45.3844866" lon="10.8088754"><ele>110.0</ele><time>2026-03-24T17:11:09.59Z</time></trkpt><trkpt lat="45.3843928" lon="10.8087497"><ele>110.0</ele><time>2026-03-24T17:11:10.597Z</time></trkpt><trkpt lat="45.3842991" lon="10.8086253"><ele>110.0</ele><time>2026-03-24T17:11:11.591Z</time></trkpt><trkpt lat="45.3842047" lon="10.8085058"><ele>110.0</ele><time>2026-03-24T17:11:12.593Z</time></trkpt><trkpt lat="45.3841123" lon="10.8083955"><ele>110.0</ele><time>2026-03-24T17:11:13.596Z</time></trkpt><trkpt lat="45.3840245" lon="10.8082941"><ele>110.0</ele><time>2026-03-24T17:11:14.597Z</time></trkpt><trkpt lat="45.3839441" lon="10.8082032"><ele>110.0</ele><time>2026-03-24T17:11:15.591Z</time></trkpt><trkpt lat="45.3838712" lon="10.8081254"><ele>110.0</ele><time>2026-03-24T17:11:16.594Z</time></trkpt><trkpt lat="45.383813" lon="10.8080655"><ele>110.0</ele><time>2026-03-24T17:11:17.607Z</time></trkpt><trkpt lat="45.3837374" lon="10.8079805"><ele>110.2</ele><time>2026-03-24T17:11:19.595Z</time></trkpt><trkpt lat="45.3837522" lon="10.8078544"><ele>110.4</ele><time>2026-03-24T17:11:22.609Z</time></trkpt><trkpt lat="45.3838161" lon="10.8077476"><ele>110.6</ele><time>2026-03-24T17:11:24.603Z</time></trkpt><trkpt lat="45.3838966" lon="10.8076099"><ele>110.8</ele><time>2026-03-24T17:11:26.596Z</time></trkpt><trkpt lat="45.3839324" lon="10.8075266"><ele>111.0</ele><time>2026-03-24T17:11:27.592Z</time></trkpt><trkpt lat="45.3839643" lon="10.8074412"><ele>111.28571428571428</ele><time>2026-03-24T17:11:28.601Z</time></trkpt><trkpt lat="45.383994" lon="10.8073538"><ele>111.57142857142858</ele><time>2026-03-24T17:11:29.612Z</time></trkpt><trkpt lat="45.3840224" lon="10.8072635"><ele>111.85714285714286</ele><time>2026-03-24T17:11:30.602Z</time></trkpt><trkpt lat="45.3840488" lon="10.8071699"><ele>112.14285714285714</ele><time>2026-03-24T17:11:31.601Z</time></trkpt><trkpt lat="45.384074" lon="10.8070788"><ele>112.42857142857142</ele><time>2026-03-24T17:11:32.599Z</time></trkpt><trkpt lat="45.3841027" lon="10.8069937"><ele>112.71428571428572</ele><time>2026-03-24T17:11:33.598Z</time></trkpt><trkpt lat="45.3841328" lon="10.8069124"><ele>113.0</ele><time>2026-03-24T17:11:34.596Z</time></trkpt><trkpt lat="45.3841613" lon="10.8068321"><ele>113.83333333333333</ele><time>2026-03-24T17:11:35.598Z</time></trkpt><trkpt lat="45.3841882" lon="10.8067503"><ele>114.66666666666666</ele><time>2026-03-24T17:11:36.617Z</time></trkpt><trkpt lat="45.3842122" lon="10.8066665"><ele>115.5</ele><time>2026-03-24T17:11:37.608Z</time></trkpt><trkpt lat="45.384234" lon="10.806581"><ele>116.33333333333334</ele><time>2026-03-24T17:11:38.619Z</time></trkpt><trkpt lat="45.3842748" lon="10.8064282"><ele>117.16666666666667</ele><time>2026-03-24T17:11:40.616Z</time></trkpt><trkpt lat="45.3843365" lon="10.8063377"><ele>118.0</ele><time>2026-03-24T17:11:42.604Z</time></trkpt><trkpt lat="45.3844252" lon="10.8063312"><ele>118.00000000000001</ele><time>2026-03-24T17:11:44.624Z</time></trkpt><trkpt lat="45.3845162" lon="10.8063425"><ele>118.0</ele><time>2026-03-24T17:11:46.59Z</time></trkpt><trkpt lat="45.3845919" lon="10.8062644"><ele>118.0</ele><time>2026-03-24T17:11:48.605Z</time></trkpt><trkpt lat="45.3846285" lon="10.806177"><ele>118.0</ele><time>2026-03-24T17:11:49.597Z</time></trkpt><trkpt lat="45.3846661" lon="10.8060837"><ele>118.00000000000001</ele><time>2026-03-24T17:11:50.594Z</time></trkpt><trkpt lat="45.3847059" lon="10.8059884"><ele>118.0</ele><time>2026-03-24T17:11:51.595Z</time></trkpt><trkpt lat="45.3847411" lon="10.8059045"><ele>119.0</ele><time>2026-03-24T17:11:52.608Z</time></trkpt><trkpt lat="45.3847997" lon="10.8057639"><ele>120.00000000000001</ele><time>2026-03-24T17:11:54.621Z</time></trkpt><trkpt lat="45.3848642" lon="10.8056074"><ele>121.00000000000001</ele><time>2026-03-24T17:11:56.612Z</time></trkpt><trkpt lat="45.3848963" lon="10.8055245"><ele>122.0</ele><time>2026-03-24T17:11:57.634Z</time></trkpt><trkpt lat="45.3849305" lon="10.8054384"><ele>123.0</ele><time>2026-03-24T17:11:58.601Z</time></trkpt><trkpt lat="45.3849683" lon="10.8053429"><ele>123.00000000000001</ele><time>2026-03-24T17:11:59.601Z</time></trkpt><trkpt lat="45.3850091" lon="10.8052418"><ele>123.0</ele><time>2026-03-24T17:12:00.603Z</time></trkpt><trkpt lat="45.3850497" lon="10.8051425"><ele>123.00000000000001</ele><time>2026-03-24T17:12:01.596Z</time></trkpt><trkpt lat="45.3850881" lon="10.8050491"><ele>123.00000000000001</ele><time>2026-03-24T17:12:02.592Z</time></trkpt><trkpt lat="45.385125" lon="10.8049586"><ele>123.0</ele><time>2026-03-24T17:12:03.601Z</time></trkpt><trkpt lat="45.3851586" lon="10.8048736"><ele>123.00000000000001</ele><time>2026-03-24T17:12:04.594Z</time></trkpt><trkpt lat="45.3851913" lon="10.8047934"><ele>123.00000000000001</ele><time>2026-03-24T17:12:05.617Z</time></trkpt><trkpt lat="45.3852228" lon="10.8047148"><ele>123.2857142857143</ele><time>2026-03-24T17:12:06.597Z</time></trkpt><trkpt lat="45.3852509" lon="10.8046299"><ele>123.57142857142858</ele><time>2026-03-24T17:12:07.594Z</time></trkpt><trkpt lat="45.3852696" lon="10.8045404"><ele>123.85714285714286</ele><time>2026-03-24T17:12:08.594Z</time></trkpt><trkpt lat="45.385276" lon="10.8044475"><ele>124.14285714285715</ele><time>2026-03-24T17:12:09.594Z</time></trkpt><trkpt lat="45.3852755" lon="10.8043505"><ele>124.42857142857144</ele><time>2026-03-24T17:12:10.598Z</time></trkpt><trkpt lat="45.3852751" lon="10.8042508"><ele>124.71428571428571</ele><time>2026-03-24T17:12:11.593Z</time></trkpt><trkpt lat="45.3852785" lon="10.8041489"><ele>125.0</ele><time>2026-03-24T17:12:12.596Z</time></trkpt><trkpt lat="45.3852853" lon="10.8040456"><ele>125.16666666666666</ele><time>2026-03-24T17:12:13.593Z</time></trkpt><trkpt lat="45.3852965" lon="10.8039459"><ele>125.33333333333333</ele><time>2026-03-24T17:12:14.601Z</time></trkpt><trkpt lat="45.3853125" lon="10.8038538"><ele>125.5</ele><time>2026-03-24T17:12:15.592Z</time></trkpt><trkpt lat="45.3853354" lon="10.8037651"><ele>125.66666666666666</ele><time>2026-03-24T17:12:16.601Z</time></trkpt><trkpt lat="45.3853648" lon="10.8036792"><ele>125.83333333333333</ele><time>2026-03-24T17:12:17.593Z</time></trkpt><trkpt lat="45.3853969" lon="10.8035986"><ele>126.0</ele><time>2026-03-24T17:12:18.594Z</time></trkpt><trkpt lat="45.3854573" lon="10.8034533"><ele>126.4</ele><time>2026-03-24T17:12:20.602Z</time></trkpt><trkpt lat="45.3854796" lon="10.8033342"><ele>126.8</ele><time>2026-03-24T17:12:22.595Z</time></trkpt><trkpt lat="45.3854103" lon="10.803217"><ele>127.20000000000002</ele><time>2026-03-24T17:12:24.598Z</time></trkpt><trkpt lat="45.3853414" lon="10.8031495"><ele>127.60000000000001</ele><time>2026-03-24T17:12:25.593Z</time></trkpt><trkpt lat="45.3852676" lon="10.8030815"><ele>128.0</ele><time>2026-03-24T17:12:26.59Z</time></trkpt><trkpt lat="45.3851968" lon="10.8030116"><ele>127.99999999999999</ele><time>2026-03-24T17:12:27.595Z</time></trkpt><trkpt lat="45.3851307" lon="10.8029423"><ele>128.0</ele><time>2026-03-24T17:12:28.589Z</time></trkpt><trkpt lat="45.3850669" lon="10.802876"><ele>128.0</ele><time>2026-03-24T17:12:29.596Z</time></trkpt><trkpt lat="45.3850072" lon="10.8028114"><ele>128.0</ele><time>2026-03-24T17:12:30.597Z</time></trkpt><trkpt lat="45.3849531" lon="10.8027519"><ele>127.99999999999999</ele><time>2026-03-24T17:12:31.601Z</time></trkpt><trkpt lat="45.384874" lon="10.8026695"><ele>128.0</ele><time>2026-03-24T17:12:33.596Z</time></trkpt><trkpt lat="45.3848138" lon="10.8026134"><ele>129.16666666666666</ele><time>2026-03-24T17:12:35.591Z</time></trkpt><trkpt lat="45.384761" lon="10.8025393"><ele>130.33333333333331</ele><time>2026-03-24T17:12:37.598Z</time></trkpt><trkpt lat="45.3847581" lon="10.8024482"><ele>131.5</ele><time>2026-03-24T17:12:39.61Z</time></trkpt><trkpt lat="45.3848229" lon="10.802369"><ele>132.66666666666666</ele><time>2026-03-24T17:12:42.629Z</time></trkpt><trkpt lat="45.3848899" lon="10.8022775"><ele>133.83333333333334</ele><time>2026-03-24T17:12:43.589Z</time></trkpt><trkpt lat="45.3849404" lon="10.8022016"><ele>135.0</ele><time>2026-03-24T17:12:44.633Z</time></trkpt><trkpt lat="45.3849827" lon="10.8021313"><ele>135.0</ele><time>2026-03-24T17:12:45.599Z</time></trkpt><trkpt lat="45.3850189" lon="10.8020553"><ele>135.0</ele><time>2026-03-24T17:12:46.594Z</time></trkpt><trkpt lat="45.3850522" lon="10.8019761"><ele>135.0</ele><time>2026-03-24T17:12:47.613Z</time></trkpt><trkpt lat="45.3851113" lon="10.801835"><ele>135.0</ele><time>2026-03-24T17:12:49.605Z</time></trkpt><trkpt lat="45.3851637" lon="10.8017"><ele>135.0</ele><time>2026-03-24T17:12:51.598Z</time></trkpt><trkpt lat="45.3852165" lon="10.8015429"><ele>136.0</ele><time>2026-03-24T17:12:53.601Z</time></trkpt><trkpt lat="45.3852433" lon="10.8014511"><ele>137.0</ele><time>2026-03-24T17:12:54.601Z</time></trkpt><trkpt lat="45.3852745" lon="10.8013505"><ele>138.0</ele><time>2026-03-24T17:12:55.601Z</time></trkpt><trkpt lat="45.3853163" lon="10.8012541"><ele>139.0</ele><time>2026-03-24T17:12:56.603Z</time></trkpt><trkpt lat="45.3853617" lon="10.8011596"><ele>140.0</ele><time>2026-03-24T17:12:57.607Z</time></trkpt><trkpt lat="45.3854028" lon="10.8010675"><ele>141.0</ele><time>2026-03-24T17:12:58.604Z</time></trkpt><trkpt lat="45.3854386" lon="10.8009852"><ele>141.4</ele><time>2026-03-24T17:12:59.632Z</time></trkpt><trkpt lat="45.385499" lon="10.8008543"><ele>141.8</ele><time>2026-03-24T17:13:01.592Z</time></trkpt><trkpt lat="45.385558" lon="10.800743"><ele>142.20000000000002</ele><time>2026-03-24T17:13:03.614Z</time></trkpt><trkpt lat="45.3855973" lon="10.8005876"><ele>142.6</ele><time>2026-03-24T17:13:05.624Z</time></trkpt><trkpt lat="45.385615" lon="10.8004944"><ele>143.0</ele><time>2026-03-24T17:13:06.594Z</time></trkpt><trkpt lat="45.3856356" lon="10.800392"><ele>142.14285714285714</ele><time>2026-03-24T17:13:07.603Z</time></trkpt><trkpt lat="45.38566" lon="10.8002878"><ele>141.28571428571428</ele><time>2026-03-24T17:13:08.607Z</time></trkpt><trkpt lat="45.3856895" lon="10.8001899"><ele>140.42857142857144</ele><time>2026-03-24T17:13:09.608Z</time></trkpt><trkpt lat="45.3857249" lon="10.8001026"><ele>139.57142857142856</ele><time>2026-03-24T17:13:10.6Z</time></trkpt><trkpt lat="45.3857668" lon="10.8000225"><ele>138.71428571428572</ele><time>2026-03-24T17:13:11.626Z</time></trkpt><trkpt lat="45.3858117" lon="10.7999498"><ele>137.85714285714286</ele><time>2026-03-24T17:13:12.603Z</time></trkpt><trkpt lat="45.3858591" lon="10.7998816"><ele>137.0</ele><time>2026-03-24T17:13:13.596Z</time></trkpt><trkpt lat="45.3859057" lon="10.7998172"><ele>136.83333333333331</ele><time>2026-03-24T17:13:14.606Z</time></trkpt><trkpt lat="45.3859923" lon="10.7996864"><ele>136.66666666666666</ele><time>2026-03-24T17:13:16.618Z</time></trkpt><trkpt lat="45.386037" lon="10.7996155"><ele>136.5</ele><time>2026-03-24T17:13:17.612Z</time></trkpt><trkpt lat="45.3860809" lon="10.7995443"><ele>136.33333333333334</ele><time>2026-03-24T17:13:18.603Z</time></trkpt><trkpt lat="45.386123" lon="10.7994755"><ele>136.16666666666669</ele><time>2026-03-24T17:13:19.595Z</time></trkpt><trkpt lat="45.3862033" lon="10.7993426"><ele>136.0</ele><time>2026-03-24T17:13:21.594Z</time></trkpt><trkpt lat="45.3862746" lon="10.7992272"><ele>135.6</ele><time>2026-03-24T17:13:23.605Z</time></trkpt><trkpt lat="45.3863365" lon="10.7991408"><ele>135.2</ele><time>2026-03-24T17:13:25.594Z</time></trkpt><trkpt lat="45.3863645" lon="10.7990381"><ele>134.8</ele><time>2026-03-24T17:13:27.608Z</time></trkpt><trkpt lat="45.3863291" lon="10.7989155"><ele>134.4</ele><time>2026-03-24T17:13:29.616Z</time></trkpt><trkpt lat="45.3862599" lon="10.7987931"><ele>134.0</ele><time>2026-03-24T17:13:31.599Z</time></trkpt><trkpt lat="45.3861865" lon="10.7986757"><ele>134.0</ele><time>2026-03-24T17:13:33.597Z</time></trkpt><trkpt lat="45.386128" lon="10.7985752"><ele>134.0</ele><time>2026-03-24T17:13:35.605Z</time></trkpt><trkpt lat="45.3860855" lon="10.7985022"><ele>134.0</ele><time>2026-03-24T17:13:38.632Z</time></trkpt><trkpt lat="45.3861118" lon="10.7983463"><ele>134.0</ele><time>2026-03-24T17:13:40.6Z</time></trkpt><trkpt lat="45.38616" lon="10.7982682"><ele>134.0</ele><time>2026-03-24T17:13:41.607Z</time></trkpt><trkpt lat="45.3862078" lon="10.7981949"><ele>134.0</ele><time>2026-03-24T17:13:42.601Z</time></trkpt><trkpt lat="45.3862496" lon="10.798124"><ele>134.6</ele><time>2026-03-24T17:13:43.593Z</time></trkpt><trkpt lat="45.3862895" lon="10.7980511"><ele>135.2</ele><time>2026-03-24T17:13:44.599Z</time></trkpt><trkpt lat="45.38637" lon="10.7979199"><ele>135.79999999999998</ele><time>2026-03-24T17:13:46.599Z</time></trkpt><trkpt lat="45.3864576" lon="10.7978122"><ele>136.4</ele><time>2026-03-24T17:13:48.595Z</time></trkpt><trkpt lat="45.3865443" lon="10.7977558"><ele>137.0</ele><time>2026-03-24T17:13:50.596Z</time></trkpt><trkpt lat="45.386616" lon="10.7977273"><ele>135.66666666666666</ele><time>2026-03-24T17:13:53.602Z</time></trkpt><trkpt lat="45.3866948" lon="10.7977207"><ele>134.33333333333331</ele><time>2026-03-24T17:14:01.659Z</time></trkpt><trkpt lat="45.386765" lon="10.797675"><ele>133.0</ele><time>2026-03-24T17:14:02.596Z</time></trkpt><trkpt lat="45.386833" lon="10.7976093"><ele>131.66666666666666</ele><time>2026-03-24T17:14:03.602Z</time></trkpt><trkpt lat="45.3868865" lon="10.7975307"><ele>130.33333333333334</ele><time>2026-03-24T17:14:04.602Z</time></trkpt><trkpt lat="45.3869313" lon="10.7974431"><ele>129.0</ele><time>2026-03-24T17:14:05.591Z</time></trkpt><trkpt lat="45.386971" lon="10.79735"><ele>128.99999999999997</ele><time>2026-03-24T17:14:06.592Z</time></trkpt><trkpt lat="45.387007" lon="10.7972542"><ele>129.0</ele><time>2026-03-24T17:14:07.594Z</time></trkpt><trkpt lat="45.3870393" lon="10.7971566"><ele>129.0</ele><time>2026-03-24T17:14:08.591Z</time></trkpt><trkpt lat="45.3870686" lon="10.7970554"><ele>129.0</ele><time>2026-03-24T17:14:09.602Z</time></trkpt><trkpt lat="45.3870978" lon="10.7969567"><ele>129.0</ele><time>2026-03-24T17:14:10.596Z</time></trkpt><trkpt lat="45.3871285" lon="10.7968654"><ele>128.99999999999997</ele><time>2026-03-24T17:14:11.59Z</time></trkpt><trkpt lat="45.3871681" lon="10.796788"><ele>129.0</ele><time>2026-03-24T17:14:12.591Z</time></trkpt><trkpt lat="45.3872779" lon="10.7967167"><ele>127.4</ele><time>2026-03-24T17:14:14.593Z</time></trkpt><trkpt lat="45.3873476" lon="10.7967577"><ele>125.80000000000001</ele><time>2026-03-24T17:14:15.6Z</time></trkpt><trkpt lat="45.3874117" lon="10.7968659"><ele>124.19999999999999</ele><time>2026-03-24T17:14:16.596Z</time></trkpt><trkpt lat="45.3874749" lon="10.7969905"><ele>122.6</ele><time>2026-03-24T17:14:17.607Z</time></trkpt><trkpt lat="45.3875453" lon="10.7971213"><ele>121.0</ele><time>2026-03-24T17:14:18.598Z</time></trkpt><trkpt lat="45.3876213" lon="10.7972558"><ele>121.0</ele><time>2026-03-24T17:14:19.594Z</time></trkpt><trkpt lat="45.3876987" lon="10.7973956"><ele>121.0</ele><time>2026-03-24T17:14:20.592Z</time></trkpt><trkpt lat="45.3877782" lon="10.7975389"><ele>121.0</ele><time>2026-03-24T17:14:21.591Z</time></trkpt><trkpt lat="45.3878598" lon="10.7976831"><ele>121.0</ele><time>2026-03-24T17:14:22.601Z</time></trkpt><trkpt lat="45.3879405" lon="10.797824"><ele>119.0</ele><time>2026-03-24T17:14:23.593Z</time></trkpt><trkpt lat="45.3880171" lon="10.7979622"><ele>117.0</ele><time>2026-03-24T17:14:24.591Z</time></trkpt><trkpt lat="45.3880895" lon="10.7980971"><ele>115.0</ele><time>2026-03-24T17:14:25.592Z</time></trkpt><trkpt lat="45.3881561" lon="10.7982319"><ele>113.0</ele><time>2026-03-24T17:14:26.589Z</time></trkpt><trkpt lat="45.3882202" lon="10.7983678"><ele>114.0</ele><time>2026-03-24T17:14:27.604Z</time></trkpt><trkpt lat="45.3882836" lon="10.7985025"><ele>115.0</ele><time>2026-03-24T17:14:28.593Z</time></trkpt><trkpt lat="45.3883541" lon="10.7986322"><ele>116.0</ele><time>2026-03-24T17:14:29.604Z</time></trkpt><trkpt lat="45.3884405" lon="10.7987415"><ele>117.0</ele><time>2026-03-24T17:14:30.596Z</time></trkpt><trkpt lat="45.3885445" lon="10.7988253"><ele>117.0</ele><time>2026-03-24T17:14:31.598Z</time></trkpt><trkpt lat="45.3886603" lon="10.7988871"><ele>117.0</ele><time>2026-03-24T17:14:32.609Z</time></trkpt><trkpt lat="45.3887748" lon="10.7989389"><ele>117.0</ele><time>2026-03-24T17:14:33.599Z</time></trkpt><trkpt lat="45.3888843" lon="10.798989"><ele>117.0</ele><time>2026-03-24T17:14:34.594Z</time></trkpt><trkpt lat="45.3889886" lon="10.7990404"><ele>115.8</ele><time>2026-03-24T17:14:35.62Z</time></trkpt><trkpt lat="45.3890815" lon="10.7990925"><ele>114.6</ele><time>2026-03-24T17:14:36.62Z</time></trkpt><trkpt lat="45.3891622" lon="10.7991402"><ele>113.39999999999999</ele><time>2026-03-24T17:14:37.606Z</time></trkpt><trkpt lat="45.3892301" lon="10.799182"><ele>112.19999999999999</ele><time>2026-03-24T17:14:38.595Z</time></trkpt><trkpt lat="45.3893347" lon="10.7992157"><ele>111.0</ele><time>2026-03-24T17:14:40.595Z</time></trkpt><trkpt lat="45.3893955" lon="10.7991181"><ele>111.0</ele><time>2026-03-24T17:14:43.614Z</time></trkpt><trkpt lat="45.3894296" lon="10.799029"><ele>111.0</ele><time>2026-03-24T17:14:45.591Z</time></trkpt><trkpt lat="45.3894654" lon="10.7989496"><ele>111.0</ele><time>2026-03-24T17:14:47.601Z</time></trkpt><trkpt lat="45.3894966" lon="10.7988616"><ele>111.0</ele><time>2026-03-24T17:14:50.6Z</time></trkpt><trkpt lat="45.3895294" lon="10.7987694"><ele>111.0</ele><time>2026-03-24T17:14:51.595Z</time></trkpt><trkpt lat="45.3895808" lon="10.798658"><ele>111.0</ele><time>2026-03-24T17:14:53.658Z</time></trkpt><trkpt lat="45.3896021" lon="10.7985371"><ele>111.0</ele><time>2026-03-24T17:14:55.607Z</time></trkpt><trkpt lat="45.38955" lon="10.7984195"><ele>107.0</ele><time>2026-03-24T17:14:57.549Z</time></trkpt><trkpt lat="45.3894693" lon="10.7983817"><ele>107.0</ele><time>2026-03-24T17:14:58.593Z</time></trkpt><trkpt lat="45.3893703" lon="10.7983197"><ele>107.0</ele><time>2026-03-24T17:15:00.591Z</time></trkpt><trkpt lat="45.3893043" lon="10.7982772"><ele>107.0</ele><time>2026-03-24T17:15:02.59Z</time></trkpt><trkpt lat="45.3892327" lon="10.7982971"><ele>107.0</ele><time>2026-03-24T17:15:05.592Z</time></trkpt></trkseg></trk></gpx>